<?xml version='1.0' encoding='UTF-8'?><gpx version="1.1" creator="JPX - https://github.com/jenetics/jpx" xmlns="http://www.topografix.com/GPX/1/1"><trk><trkseg><trkpt lat="39.98623" lon="18.0928183"><ele>51.99999999999999</ele><time>2026-05-03T15:23:21.264Z</time></trkpt><trkpt lat="39.9861633" lon="18.0929"><ele>52.0</ele><time>2026-05-03T15:23:24.264Z</time></trkpt><trkpt lat="39.986095" lon="18.09295"><ele>52.0</ele><time>2026-05-03T15:23:27.264Z</time></trkpt><trkpt lat="39.9860267" lon="18.092895"><ele>52.0</ele><time>2026-05-03T15:23:31.264Z</time></trkpt><trkpt lat="39.9859917" lon="18.0928183"><ele>51.99999999999999</ele><time>2026-05-03T15:23:33.264Z</time></trkpt><trkpt lat="39.9859467" lon="18.09272"><ele>52.0</ele><time>2026-05-03T15:23:35.263Z</time></trkpt><trkpt lat="39.9859" lon="18.0926017"><ele>52.0</ele><time>2026-05-03T15:23:37.263Z</time></trkpt><trkpt lat="39.9858467" lon="18.0924717"><ele>52.0</ele><time>2026-05-03T15:23:39.264Z</time></trkpt><trkpt lat="39.9857967" lon="18.0923317"><ele>52.0</ele><time>2026-05-03T15:23:41.264Z</time></trkpt><trkpt lat="39.9857383" lon="18.0921917"><ele>52.0</ele><time>2026-05-03T15:23:43.263Z</time></trkpt><trkpt lat="39.9857" lon="18.0920583"><ele>52.0</ele><time>2026-05-03T15:23:45.264Z</time></trkpt><trkpt lat="39.9856767" lon="18.0919483"><ele>52.0</ele><time>2026-05-03T15:23:47.264Z</time></trkpt><trkpt lat="39.9857083" lon="18.091835"><ele>52.0</ele><time>2026-05-03T15:23:49.264Z</time></trkpt><trkpt lat="39.9857967" lon="18.0917233"><ele>52.0</ele><time>2026-05-03T15:23:51.263Z</time></trkpt><trkpt lat="39.9858467" lon="18.0916517"><ele>52.0</ele><time>2026-05-03T15:23:52.263Z</time></trkpt><trkpt lat="39.9859" lon="18.0915733"><ele>52.166666666666664</ele><time>2026-05-03T15:23:53.264Z</time></trkpt><trkpt lat="39.9859567" lon="18.0914917"><ele>52.33333333333333</ele><time>2026-05-03T15:23:54.264Z</time></trkpt><trkpt lat="39.9860167" lon="18.09141"><ele>52.5</ele><time>2026-05-03T15:23:55.263Z</time></trkpt><trkpt lat="39.98608" lon="18.0913317"><ele>52.66666666666667</ele><time>2026-05-03T15:23:56.264Z</time></trkpt><trkpt lat="39.9861383" lon="18.0912583"><ele>52.833333333333336</ele><time>2026-05-03T15:23:57.263Z</time></trkpt><trkpt lat="39.9861867" lon="18.091195"><ele>53.0</ele><time>2026-05-03T15:23:58.264Z</time></trkpt><trkpt lat="39.9862683" lon="18.0910767"><ele>53.00000000000001</ele><time>2026-05-03T15:24:00.264Z</time></trkpt><trkpt lat="39.9863183" lon="18.0910133"><ele>53.0</ele><time>2026-05-03T15:24:01.264Z</time></trkpt><trkpt lat="39.9863733" lon="18.0909417"><ele>53.0</ele><time>2026-05-03T15:24:02.263Z</time></trkpt><trkpt lat="39.9864267" lon="18.0908567"><ele>53.0</ele><time>2026-05-03T15:24:03.264Z</time></trkpt><trkpt lat="39.9864883" lon="18.090775"><ele>53.00000000000001</ele><time>2026-05-03T15:24:04.264Z</time></trkpt><trkpt lat="39.9865583" lon="18.0906917"><ele>53.0</ele><time>2026-05-03T15:24:05.263Z</time></trkpt><trkpt lat="39.9866267" lon="18.0906117"><ele>53.00000000000001</ele><time>2026-05-03T15:24:06.264Z</time></trkpt><trkpt lat="39.9866767" lon="18.0905383"><ele>53.0</ele><time>2026-05-03T15:24:07.263Z</time></trkpt><trkpt lat="39.9867417" lon="18.0904467"><ele>53.0</ele><time>2026-05-03T15:24:09.263Z</time></trkpt><trkpt lat="39.98673" lon="18.09034"><ele>53.0</ele><time>2026-05-03T15:24:13.264Z</time></trkpt><trkpt lat="39.986665" lon="18.090245"><ele>53.00000000000001</ele><time>2026-05-03T15:24:15.264Z</time></trkpt><trkpt lat="39.98661" lon="18.09019"><ele>53.0</ele><time>2026-05-03T15:24:16.264Z</time></trkpt><trkpt lat="39.9865517" lon="18.09012"><ele>53.0</ele><time>2026-05-03T15:24:17.263Z</time></trkpt><trkpt lat="39.986475" lon="18.090045"><ele>53.0</ele><time>2026-05-03T15:24:18.264Z</time></trkpt><trkpt lat="39.9863983" lon="18.0899567"><ele>53.0</ele><time>2026-05-03T15:24:19.264Z</time></trkpt><trkpt lat="39.9863183" lon="18.0898617"><ele>53.0</ele><time>2026-05-03T15:24:20.263Z</time></trkpt><trkpt lat="39.9862217" lon="18.0897733"><ele>53.0</ele><time>2026-05-03T15:24:21.263Z</time></trkpt><trkpt lat="39.9861367" lon="18.0896567"><ele>53.0</ele><time>2026-05-03T15:24:22.264Z</time></trkpt><trkpt lat="39.98605" lon="18.0895467"><ele>53.0</ele><time>2026-05-03T15:24:23.263Z</time></trkpt><trkpt lat="39.9859633" lon="18.08945"><ele>53.0</ele><time>2026-05-03T15:24:24.263Z</time></trkpt><trkpt lat="39.9858817" lon="18.08936"><ele>53.0</ele><time>2026-05-03T15:24:25.263Z</time></trkpt><trkpt lat="39.9858183" lon="18.0892617"><ele>53.0</ele><time>2026-05-03T15:24:26.263Z</time></trkpt><trkpt lat="39.98575" lon="18.0891933"><ele>53.0</ele><time>2026-05-03T15:24:27.263Z</time></trkpt><trkpt lat="39.9856983" lon="18.0891283"><ele>53.0</ele><time>2026-05-03T15:24:28.264Z</time></trkpt><trkpt lat="39.9856133" lon="18.089055"><ele>53.0</ele><time>2026-05-03T15:24:30.264Z</time></trkpt><trkpt lat="39.9855983" lon="18.0889417"><ele>53.0</ele><time>2026-05-03T15:24:33.264Z</time></trkpt><trkpt lat="39.98566" lon="18.088855"><ele>53.0</ele><time>2026-05-03T15:24:35.264Z</time></trkpt><trkpt lat="39.985745" lon="18.088745"><ele>52.833333333333336</ele><time>2026-05-03T15:24:37.264Z</time></trkpt><trkpt lat="39.985805" lon="18.0887"><ele>52.66666666666667</ele><time>2026-05-03T15:24:38.263Z</time></trkpt><trkpt lat="39.9858517" lon="18.088635"><ele>52.5</ele><time>2026-05-03T15:24:39.263Z</time></trkpt><trkpt lat="39.9859333" lon="18.0885467"><ele>52.33333333333333</ele><time>2026-05-03T15:24:41.263Z</time></trkpt><trkpt lat="39.9859933" lon="18.08848"><ele>52.166666666666664</ele><time>2026-05-03T15:24:43.263Z</time></trkpt><trkpt lat="39.9859867" lon="18.0883867"><ele>52.0</ele><time>2026-05-03T15:24:45.263Z</time></trkpt><trkpt lat="39.98591" lon="18.0882633"><ele>51.99999999999999</ele><time>2026-05-03T15:24:47.264Z</time></trkpt><trkpt lat="39.9858683" lon="18.08819"><ele>52.0</ele><time>2026-05-03T15:24:48.264Z</time></trkpt><trkpt lat="39.9858217" lon="18.0881133"><ele>52.0</ele><time>2026-05-03T15:24:49.264Z</time></trkpt><trkpt lat="39.9857733" lon="18.0880267"><ele>52.0</ele><time>2026-05-03T15:24:50.263Z</time></trkpt><trkpt lat="39.9857133" lon="18.0879433"><ele>51.99999999999999</ele><time>2026-05-03T15:24:51.264Z</time></trkpt><trkpt lat="39.9856533" lon="18.087855"><ele>52.0</ele><time>2026-05-03T15:24:52.263Z</time></trkpt><trkpt lat="39.9855883" lon="18.0877617"><ele>52.0</ele><time>2026-05-03T15:24:53.264Z</time></trkpt><trkpt lat="39.985525" lon="18.087665"><ele>52.0</ele><time>2026-05-03T15:24:54.264Z</time></trkpt><trkpt lat="39.98546" lon="18.0875667"><ele>52.0</ele><time>2026-05-03T15:24:55.263Z</time></trkpt><trkpt lat="39.985395" lon="18.0874683"><ele>52.0</ele><time>2026-05-03T15:24:56.264Z</time></trkpt><trkpt lat="39.9853233" lon="18.08738"><ele>52.0</ele><time>2026-05-03T15:24:57.263Z</time></trkpt><trkpt lat="39.9852717" lon="18.0872667"><ele>51.99999999999999</ele><time>2026-05-03T15:24:58.263Z</time></trkpt><trkpt lat="39.9852033" lon="18.087175"><ele>52.0</ele><time>2026-05-03T15:24:59.263Z</time></trkpt><trkpt lat="39.9851417" lon="18.0870867"><ele>52.0</ele><time>2026-05-03T15:25:00.264Z</time></trkpt><trkpt lat="39.9850933" lon="18.086995"><ele>52.0</ele><time>2026-05-03T15:25:01.264Z</time></trkpt><trkpt lat="39.9850383" lon="18.0869217"><ele>51.99999999999999</ele><time>2026-05-03T15:25:02.263Z</time></trkpt><trkpt lat="39.9849867" lon="18.0868417"><ele>52.0</ele><time>2026-05-03T15:25:03.264Z</time></trkpt><trkpt lat="39.9849333" lon="18.08676"><ele>52.0</ele><time>2026-05-03T15:25:04.263Z</time></trkpt><trkpt lat="39.9848767" lon="18.0866783"><ele>52.0</ele><time>2026-05-03T15:25:05.264Z</time></trkpt><trkpt lat="39.9848283" lon="18.0865967"><ele>52.0</ele><time>2026-05-03T15:25:06.263Z</time></trkpt><trkpt lat="39.9847833" lon="18.086525"><ele>52.0</ele><time>2026-05-03T15:25:07.264Z</time></trkpt><trkpt lat="39.9847383" lon="18.0864617"><ele>52.0</ele><time>2026-05-03T15:25:08.263Z</time></trkpt><trkpt lat="39.9847083" lon="18.0863833"><ele>52.0</ele><time>2026-05-03T15:25:09.264Z</time></trkpt><trkpt lat="39.9846733" lon="18.086305"><ele>52.0</ele><time>2026-05-03T15:25:10.264Z</time></trkpt><trkpt lat="39.9846283" lon="18.0862333"><ele>51.99999999999999</ele><time>2026-05-03T15:25:11.263Z</time></trkpt><trkpt lat="39.9845783" lon="18.086165"><ele>52.0</ele><time>2026-05-03T15:25:12.264Z</time></trkpt><trkpt lat="39.9845333" lon="18.0860883"><ele>52.0</ele><time>2026-05-03T15:25:13.264Z</time></trkpt><trkpt lat="39.9844883" lon="18.0860033"><ele>52.0</ele><time>2026-05-03T15:25:14.263Z</time></trkpt><trkpt lat="39.9844417" lon="18.0859167"><ele>51.99999999999999</ele><time>2026-05-03T15:25:15.263Z</time></trkpt><trkpt lat="39.984385" lon="18.0858383"><ele>52.0</ele><time>2026-05-03T15:25:16.263Z</time></trkpt><trkpt lat="39.9843367" lon="18.085755"><ele>51.99999999999999</ele><time>2026-05-03T15:25:17.264Z</time></trkpt><trkpt lat="39.9842917" lon="18.085675"><ele>52.0</ele><time>2026-05-03T15:25:18.264Z</time></trkpt><trkpt lat="39.98425" lon="18.0856"><ele>52.0</ele><time>2026-05-03T15:25:19.263Z</time></trkpt><trkpt lat="39.98421" lon="18.0855317"><ele>52.0</ele><time>2026-05-03T15:25:20.264Z</time></trkpt><trkpt lat="39.98414" lon="18.085415"><ele>51.99999999999999</ele><time>2026-05-03T15:25:22.264Z</time></trkpt><trkpt lat="39.9840633" lon="18.0853083"><ele>52.0</ele><time>2026-05-03T15:25:24.264Z</time></trkpt><trkpt lat="39.984005" lon="18.085205"><ele>52.0</ele><time>2026-05-03T15:25:26.263Z</time></trkpt><trkpt lat="39.9839517" lon="18.085095"><ele>52.0</ele><time>2026-05-03T15:25:28.264Z</time></trkpt><trkpt lat="39.9838867" lon="18.0849983"><ele>52.0</ele><time>2026-05-03T15:25:30.263Z</time></trkpt><trkpt lat="39.98382" lon="18.0848933"><ele>52.0</ele><time>2026-05-03T15:25:32.263Z</time></trkpt><trkpt lat="39.9837617" lon="18.0847867"><ele>52.0</ele><time>2026-05-03T15:25:34.263Z</time></trkpt><trkpt lat="39.9836533" lon="18.0846417"><ele>52.0</ele><time>2026-05-03T15:25:37.264Z</time></trkpt><trkpt lat="39.9835683" lon="18.0845133"><ele>52.0</ele><time>2026-05-03T15:25:39.264Z</time></trkpt><trkpt lat="39.9835133" lon="18.08443"><ele>52.0</ele><time>2026-05-03T15:25:40.264Z</time></trkpt><trkpt lat="39.9834483" lon="18.084335"><ele>52.0</ele><time>2026-05-03T15:25:41.264Z</time></trkpt><trkpt lat="39.9833767" lon="18.0842317"><ele>52.0</ele><time>2026-05-03T15:25:42.264Z</time></trkpt><trkpt lat="39.98331" lon="18.08412"><ele>52.0</ele><time>2026-05-03T15:25:43.264Z</time></trkpt><trkpt lat="39.9832417" lon="18.0840117"><ele>52.0</ele><time>2026-05-03T15:25:44.264Z</time></trkpt><trkpt lat="39.98317" lon="18.083905"><ele>52.0</ele><time>2026-05-03T15:25:45.264Z</time></trkpt><trkpt lat="39.9831083" lon="18.0838"><ele>52.0</ele><time>2026-05-03T15:25:46.264Z</time></trkpt><trkpt lat="39.9830533" lon="18.0837067"><ele>52.0</ele><time>2026-05-03T15:25:47.264Z</time></trkpt><trkpt lat="39.9829983" lon="18.083635"><ele>52.0</ele><time>2026-05-03T15:25:48.264Z</time></trkpt><trkpt lat="39.9829533" lon="18.083565"><ele>52.0</ele><time>2026-05-03T15:25:49.263Z</time></trkpt><trkpt lat="39.982915" lon="18.0834867"><ele>52.0</ele><time>2026-05-03T15:25:50.264Z</time></trkpt><trkpt lat="39.98287" lon="18.0834133"><ele>52.0</ele><time>2026-05-03T15:25:51.264Z</time></trkpt><trkpt lat="39.98282" lon="18.08334"><ele>52.0</ele><time>2026-05-03T15:25:52.264Z</time></trkpt><trkpt lat="39.9827717" lon="18.0832667"><ele>52.0</ele><time>2026-05-03T15:25:53.263Z</time></trkpt><trkpt lat="39.982725" lon="18.0831933"><ele>52.0</ele><time>2026-05-03T15:25:54.263Z</time></trkpt><trkpt lat="39.982675" lon="18.0831317"><ele>51.99999999999999</ele><time>2026-05-03T15:25:55.264Z</time></trkpt><trkpt lat="39.9826083" lon="18.08301"><ele>52.0</ele><time>2026-05-03T15:25:57.263Z</time></trkpt><trkpt lat="39.9825483" lon="18.08291"><ele>52.0</ele><time>2026-05-03T15:25:59.263Z</time></trkpt><trkpt lat="39.982505" lon="18.0828417"><ele>52.0</ele><time>2026-05-03T15:26:01.264Z</time></trkpt><trkpt lat="39.9824483" lon="18.0827967"><ele>51.99999999999999</ele><time>2026-05-03T15:26:07.263Z</time></trkpt><trkpt lat="39.9823833" lon="18.0828217"><ele>52.0</ele><time>2026-05-03T15:26:09.264Z</time></trkpt><trkpt lat="39.9822667" lon="18.0829367"><ele>52.0</ele><time>2026-05-03T15:26:11.264Z</time></trkpt><trkpt lat="39.9821933" lon="18.0830333"><ele>52.0</ele><time>2026-05-03T15:26:12.264Z</time></trkpt><trkpt lat="39.98209" lon="18.0831333"><ele>52.0</ele><time>2026-05-03T15:26:13.264Z</time></trkpt><trkpt lat="39.981995" lon="18.0832683"><ele>52.0</ele><time>2026-05-03T15:26:14.264Z</time></trkpt><trkpt lat="39.9818733" lon="18.0833717"><ele>52.0</ele><time>2026-05-03T15:26:15.263Z</time></trkpt><trkpt lat="39.9817633" lon="18.0835067"><ele>52.0</ele><time>2026-05-03T15:26:16.264Z</time></trkpt><trkpt lat="39.9816467" lon="18.0836417"><ele>52.0</ele><time>2026-05-03T15:26:17.264Z</time></trkpt><trkpt lat="39.9815317" lon="18.083745"><ele>52.0</ele><time>2026-05-03T15:26:18.264Z</time></trkpt><trkpt lat="39.981435" lon="18.08385"><ele>52.0</ele><time>2026-05-03T15:26:19.263Z</time></trkpt><trkpt lat="39.9813483" lon="18.0839633"><ele>52.0</ele><time>2026-05-03T15:26:20.264Z</time></trkpt><trkpt lat="39.98125" lon="18.08405"><ele>52.0</ele><time>2026-05-03T15:26:21.264Z</time></trkpt><trkpt lat="39.9811583" lon="18.0841617"><ele>52.0</ele><time>2026-05-03T15:26:22.264Z</time></trkpt><trkpt lat="39.9810567" lon="18.08428"><ele>52.25</ele><time>2026-05-03T15:26:23.263Z</time></trkpt><trkpt lat="39.9809467" lon="18.0843783"><ele>52.5</ele><time>2026-05-03T15:26:24.263Z</time></trkpt><trkpt lat="39.9808417" lon="18.084475"><ele>52.75</ele><time>2026-05-03T15:26:25.264Z</time></trkpt><trkpt lat="39.98072" lon="18.0845167"><ele>53.0</ele><time>2026-05-03T15:26:26.264Z</time></trkpt><trkpt lat="39.9806183" lon="18.084575"><ele>53.2</ele><time>2026-05-03T15:26:27.264Z</time></trkpt><trkpt lat="39.9805233" lon="18.084615"><ele>53.4</ele><time>2026-05-03T15:26:28.264Z</time></trkpt><trkpt lat="39.98044" lon="18.0846517"><ele>53.60000000000001</ele><time>2026-05-03T15:26:29.263Z</time></trkpt><trkpt lat="39.9803633" lon="18.0846817"><ele>53.800000000000004</ele><time>2026-05-03T15:26:30.263Z</time></trkpt><trkpt lat="39.9802917" lon="18.084695"><ele>54.0</ele><time>2026-05-03T15:26:31.264Z</time></trkpt><trkpt lat="39.9801833" lon="18.0847483"><ele>54.0</ele><time>2026-05-03T15:26:33.264Z</time></trkpt><trkpt lat="39.98007" lon="18.0847717"><ele>54.0</ele><time>2026-05-03T15:26:35.264Z</time></trkpt><trkpt lat="39.9800117" lon="18.084805"><ele>54.0</ele><time>2026-05-03T15:26:36.264Z</time></trkpt><trkpt lat="39.9799417" lon="18.084835"><ele>54.0</ele><time>2026-05-03T15:26:37.264Z</time></trkpt><trkpt lat="39.9798667" lon="18.0848667"><ele>54.0</ele><time>2026-05-03T15:26:38.263Z</time></trkpt><trkpt lat="39.9797883" lon="18.0848917"><ele>54.0</ele><time>2026-05-03T15:26:39.264Z</time></trkpt><trkpt lat="39.9797033" lon="18.0849233"><ele>54.5</ele><time>2026-05-03T15:26:40.263Z</time></trkpt><trkpt lat="39.9796217" lon="18.0849533"><ele>55.0</ele><time>2026-05-03T15:26:41.263Z</time></trkpt><trkpt lat="39.97955" lon="18.0849917"><ele>55.5</ele><time>2026-05-03T15:26:42.264Z</time></trkpt><trkpt lat="39.9794867" lon="18.08503"><ele>56.0</ele><time>2026-05-03T15:26:43.264Z</time></trkpt><trkpt lat="39.9793783" lon="18.08508"><ele>56.5</ele><time>2026-05-03T15:26:45.264Z</time></trkpt><trkpt lat="39.9793017" lon="18.0851083"><ele>57.0</ele><time>2026-05-03T15:26:47.263Z</time></trkpt><trkpt lat="39.9792217" lon="18.085115"><ele>57.0</ele><time>2026-05-03T15:27:13.264Z</time></trkpt><trkpt lat="39.979135" lon="18.08514"><ele>57.0</ele><time>2026-05-03T15:27:16.264Z</time></trkpt><trkpt lat="39.9790317" lon="18.0851933"><ele>57.0</ele><time>2026-05-03T15:27:18.264Z</time></trkpt><trkpt lat="39.9789583" lon="18.0852067"><ele>57.0</ele><time>2026-05-03T15:27:19.264Z</time></trkpt><trkpt lat="39.9788783" lon="18.0852417"><ele>57.0</ele><time>2026-05-03T15:27:20.264Z</time></trkpt><trkpt lat="39.9787833" lon="18.085265"><ele>57.0</ele><time>2026-05-03T15:27:21.264Z</time></trkpt><trkpt lat="39.9786817" lon="18.085305"><ele>57.0</ele><time>2026-05-03T15:27:22.264Z</time></trkpt><trkpt lat="39.9785867" lon="18.0853517"><ele>57.0</ele><time>2026-05-03T15:27:23.264Z</time></trkpt><trkpt lat="39.9784967" lon="18.0853933"><ele>57.0</ele><time>2026-05-03T15:27:24.263Z</time></trkpt><trkpt lat="39.9784067" lon="18.0854333"><ele>57.0</ele><time>2026-05-03T15:27:25.263Z</time></trkpt><trkpt lat="39.9783117" lon="18.0854833"><ele>57.0</ele><time>2026-05-03T15:27:26.264Z</time></trkpt><trkpt lat="39.9782017" lon="18.0855183"><ele>57.0</ele><time>2026-05-03T15:27:27.264Z</time></trkpt><trkpt lat="39.9780933" lon="18.0855717"><ele>57.0</ele><time>2026-05-03T15:27:28.263Z</time></trkpt><trkpt lat="39.9779867" lon="18.0856117"><ele>57.0</ele><time>2026-05-03T15:27:29.264Z</time></trkpt><trkpt lat="39.97789" lon="18.0856533"><ele>57.0</ele><time>2026-05-03T15:27:30.263Z</time></trkpt><trkpt lat="39.9777967" lon="18.085695"><ele>57.0</ele><time>2026-05-03T15:27:31.264Z</time></trkpt><trkpt lat="39.9777017" lon="18.0857267"><ele>57.0</ele><time>2026-05-03T15:27:32.264Z</time></trkpt><trkpt lat="39.9776017" lon="18.0857567"><ele>57.0</ele><time>2026-05-03T15:27:33.263Z</time></trkpt><trkpt lat="39.9775117" lon="18.0858167"><ele>57.0</ele><time>2026-05-03T15:27:34.264Z</time></trkpt><trkpt lat="39.977415" lon="18.08583"><ele>57.0</ele><time>2026-05-03T15:27:35.263Z</time></trkpt><trkpt lat="39.9773317" lon="18.085885"><ele>56.2</ele><time>2026-05-03T15:27:36.264Z</time></trkpt><trkpt lat="39.977235" lon="18.085905"><ele>55.400000000000006</ele><time>2026-05-03T15:27:37.264Z</time></trkpt><trkpt lat="39.9771467" lon="18.0859467"><ele>54.599999999999994</ele><time>2026-05-03T15:27:38.263Z</time></trkpt><trkpt lat="39.977055" lon="18.0859817"><ele>53.8</ele><time>2026-05-03T15:27:39.264Z</time></trkpt><trkpt lat="39.97697" lon="18.0860417"><ele>53.0</ele><time>2026-05-03T15:27:40.264Z</time></trkpt><trkpt lat="39.9768767" lon="18.0860783"><ele>53.0</ele><time>2026-05-03T15:27:41.263Z</time></trkpt><trkpt lat="39.9767817" lon="18.0861083"><ele>53.0</ele><time>2026-05-03T15:27:42.264Z</time></trkpt><trkpt lat="39.97669" lon="18.08616"><ele>53.0</ele><time>2026-05-03T15:27:43.264Z</time></trkpt><trkpt lat="39.9765983" lon="18.0862083"><ele>53.0</ele><time>2026-05-03T15:27:44.264Z</time></trkpt><trkpt lat="39.9765" lon="18.08623"><ele>53.0</ele><time>2026-05-03T15:27:45.264Z</time></trkpt><trkpt lat="39.9764133" lon="18.0862867"><ele>52.8</ele><time>2026-05-03T15:27:46.263Z</time></trkpt><trkpt lat="39.9763133" lon="18.0863233"><ele>52.599999999999994</ele><time>2026-05-03T15:27:47.264Z</time></trkpt><trkpt lat="39.9762133" lon="18.0863683"><ele>52.400000000000006</ele><time>2026-05-03T15:27:48.264Z</time></trkpt><trkpt lat="39.9761033" lon="18.0864"><ele>52.2</ele><time>2026-05-03T15:27:49.264Z</time></trkpt><trkpt lat="39.975995" lon="18.08644"><ele>52.0</ele><time>2026-05-03T15:27:50.264Z</time></trkpt><trkpt lat="39.975885" lon="18.0864783"><ele>52.25</ele><time>2026-05-03T15:27:51.264Z</time></trkpt><trkpt lat="39.9757717" lon="18.0865233"><ele>52.5</ele><time>2026-05-03T15:27:52.263Z</time></trkpt><trkpt lat="39.9756583" lon="18.0865717"><ele>52.75</ele><time>2026-05-03T15:27:53.264Z</time></trkpt><trkpt lat="39.9755417" lon="18.0866117"><ele>53.0</ele><time>2026-05-03T15:27:54.264Z</time></trkpt><trkpt lat="39.9754267" lon="18.08666"><ele>53.0</ele><time>2026-05-03T15:27:55.264Z</time></trkpt><trkpt lat="39.9753117" lon="18.08672"><ele>53.0</ele><time>2026-05-03T15:27:56.263Z</time></trkpt><trkpt lat="39.9751983" lon="18.08677"><ele>53.0</ele><time>2026-05-03T15:27:57.263Z</time></trkpt><trkpt lat="39.975075" lon="18.086795"><ele>53.0</ele><time>2026-05-03T15:27:58.264Z</time></trkpt><trkpt lat="39.974965" lon="18.0868467"><ele>53.0</ele><time>2026-05-03T15:27:59.264Z</time></trkpt><trkpt lat="39.9748567" lon="18.0868967"><ele>53.0</ele><time>2026-05-03T15:28:00.264Z</time></trkpt><trkpt lat="39.974755" lon="18.086945"><ele>53.0</ele><time>2026-05-03T15:28:01.263Z</time></trkpt><trkpt lat="39.97466" lon="18.086985"><ele>53.0</ele><time>2026-05-03T15:28:02.264Z</time></trkpt><trkpt lat="39.9745717" lon="18.0870267"><ele>53.0</ele><time>2026-05-03T15:28:03.263Z</time></trkpt><trkpt lat="39.9744917" lon="18.0870617"><ele>53.0</ele><time>2026-05-03T15:28:04.263Z</time></trkpt><trkpt lat="39.9744167" lon="18.0870933"><ele>53.0</ele><time>2026-05-03T15:28:05.263Z</time></trkpt><trkpt lat="39.9743433" lon="18.087125"><ele>53.0</ele><time>2026-05-03T15:28:06.263Z</time></trkpt><trkpt lat="39.9742583" lon="18.0871517"><ele>53.0</ele><time>2026-05-03T15:28:07.263Z</time></trkpt><trkpt lat="39.97416" lon="18.0871883"><ele>53.0</ele><time>2026-05-03T15:28:08.263Z</time></trkpt><trkpt lat="39.97405" lon="18.087235"><ele>53.0</ele><time>2026-05-03T15:28:09.263Z</time></trkpt><trkpt lat="39.9739267" lon="18.0872867"><ele>53.0</ele><time>2026-05-03T15:28:10.263Z</time></trkpt><trkpt lat="39.9737917" lon="18.0873433"><ele>53.0</ele><time>2026-05-03T15:28:11.262Z</time></trkpt><trkpt lat="39.9736533" lon="18.0873967"><ele>53.0</ele><time>2026-05-03T15:28:12.263Z</time></trkpt><trkpt lat="39.9735133" lon="18.0874533"><ele>53.0</ele><time>2026-05-03T15:28:13.263Z</time></trkpt><trkpt lat="39.97337" lon="18.087515"><ele>53.0</ele><time>2026-05-03T15:28:14.262Z</time></trkpt><trkpt lat="39.9732283" lon="18.087575"><ele>53.0</ele><time>2026-05-03T15:28:15.263Z</time></trkpt><trkpt lat="39.9730867" lon="18.0876383"><ele>53.0</ele><time>2026-05-03T15:28:16.263Z</time></trkpt><trkpt lat="39.9729467" lon="18.0876967"><ele>53.0</ele><time>2026-05-03T15:28:17.263Z</time></trkpt><trkpt lat="39.9728067" lon="18.0877517"><ele>53.0</ele><time>2026-05-03T15:28:18.263Z</time></trkpt><trkpt lat="39.9726717" lon="18.0878083"><ele>53.0</ele><time>2026-05-03T15:28:19.262Z</time></trkpt><trkpt lat="39.972535" lon="18.0878633"><ele>53.5</ele><time>2026-05-03T15:28:20.262Z</time></trkpt><trkpt lat="39.9723983" lon="18.0879167"><ele>54.0</ele><time>2026-05-03T15:28:21.263Z</time></trkpt><trkpt lat="39.9722583" lon="18.08797"><ele>54.5</ele><time>2026-05-03T15:28:22.262Z</time></trkpt><trkpt lat="39.9721167" lon="18.088025"><ele>55.0</ele><time>2026-05-03T15:28:23.263Z</time></trkpt><trkpt lat="39.9719733" lon="18.0880817"><ele>55.0</ele><time>2026-05-03T15:28:24.263Z</time></trkpt><trkpt lat="39.97183" lon="18.0881433"><ele>55.0</ele><time>2026-05-03T15:28:25.263Z</time></trkpt><trkpt lat="39.9716883" lon="18.0882083"><ele>55.0</ele><time>2026-05-03T15:28:26.263Z</time></trkpt><trkpt lat="39.97155" lon="18.0882683"><ele>55.0</ele><time>2026-05-03T15:28:27.263Z</time></trkpt><trkpt lat="39.9714133" lon="18.088325"><ele>54.25</ele><time>2026-05-03T15:28:28.262Z</time></trkpt><trkpt lat="39.971285" lon="18.0883783"><ele>53.5</ele><time>2026-05-03T15:28:29.263Z</time></trkpt><trkpt lat="39.9711583" lon="18.08843"><ele>52.75</ele><time>2026-05-03T15:28:30.263Z</time></trkpt><trkpt lat="39.9710233" lon="18.0884867"><ele>52.0</ele><time>2026-05-03T15:28:31.262Z</time></trkpt><trkpt lat="39.9708733" lon="18.0885517"><ele>52.666666666666664</ele><time>2026-05-03T15:28:32.263Z</time></trkpt><trkpt lat="39.9707167" lon="18.088615"><ele>53.33333333333333</ele><time>2026-05-03T15:28:33.263Z</time></trkpt><trkpt lat="39.9705617" lon="18.0886783"><ele>54.0</ele><time>2026-05-03T15:28:34.263Z</time></trkpt><trkpt lat="39.97041" lon="18.0887367"><ele>54.0</ele><time>2026-05-03T15:28:35.263Z</time></trkpt><trkpt lat="39.97026" lon="18.088795"><ele>54.0</ele><time>2026-05-03T15:28:36.262Z</time></trkpt><trkpt lat="39.970115" lon="18.0888533"><ele>54.0</ele><time>2026-05-03T15:28:37.263Z</time></trkpt><trkpt lat="39.9699667" lon="18.0889167"><ele>54.0</ele><time>2026-05-03T15:28:38.263Z</time></trkpt><trkpt lat="39.96981" lon="18.0889833"><ele>54.0</ele><time>2026-05-03T15:28:39.263Z</time></trkpt><trkpt lat="39.9696583" lon="18.0890517"><ele>54.0</ele><time>2026-05-03T15:28:40.263Z</time></trkpt><trkpt lat="39.9695017" lon="18.0891183"><ele>54.0</ele><time>2026-05-03T15:28:41.263Z</time></trkpt><trkpt lat="39.9693433" lon="18.0891833"><ele>54.0</ele><time>2026-05-03T15:28:42.263Z</time></trkpt><trkpt lat="39.9691867" lon="18.0892483"><ele>54.0</ele><time>2026-05-03T15:28:43.263Z</time></trkpt><trkpt lat="39.9690333" lon="18.089315"><ele>54.0</ele><time>2026-05-03T15:28:44.263Z</time></trkpt><trkpt lat="39.96888" lon="18.08938"><ele>54.0</ele><time>2026-05-03T15:28:45.262Z</time></trkpt><trkpt lat="39.9687267" lon="18.0894417"><ele>54.0</ele><time>2026-05-03T15:28:46.262Z</time></trkpt><trkpt lat="39.9685767" lon="18.0895033"><ele>54.0</ele><time>2026-05-03T15:28:47.263Z</time></trkpt><trkpt lat="39.968425" lon="18.0895667"><ele>54.0</ele><time>2026-05-03T15:28:48.263Z</time></trkpt><trkpt lat="39.9682733" lon="18.0896317"><ele>54.0</ele><time>2026-05-03T15:28:49.262Z</time></trkpt><trkpt lat="39.9681183" lon="18.0897"><ele>53.66666666666667</ele><time>2026-05-03T15:28:50.262Z</time></trkpt><trkpt lat="39.9679617" lon="18.0897633"><ele>53.333333333333336</ele><time>2026-05-03T15:28:51.262Z</time></trkpt><trkpt lat="39.9678083" lon="18.08983"><ele>53.0</ele><time>2026-05-03T15:28:52.263Z</time></trkpt><trkpt lat="39.9676517" lon="18.0898933"><ele>53.0</ele><time>2026-05-03T15:28:53.262Z</time></trkpt><trkpt lat="39.967495" lon="18.0899567"><ele>53.0</ele><time>2026-05-03T15:28:54.262Z</time></trkpt><trkpt lat="39.967335" lon="18.0900233"><ele>53.0</ele><time>2026-05-03T15:28:55.262Z</time></trkpt><trkpt lat="39.96718" lon="18.0900883"><ele>53.0</ele><time>2026-05-03T15:28:56.263Z</time></trkpt><trkpt lat="39.9670367" lon="18.0901467"><ele>53.0</ele><time>2026-05-03T15:28:57.263Z</time></trkpt><trkpt lat="39.966905" lon="18.0902033"><ele>53.0</ele><time>2026-05-03T15:28:58.262Z</time></trkpt><trkpt lat="39.9667817" lon="18.0902583"><ele>53.0</ele><time>2026-05-03T15:28:59.262Z</time></trkpt><trkpt lat="39.9666567" lon="18.0903067"><ele>53.0</ele><time>2026-05-03T15:29:00.263Z</time></trkpt><trkpt lat="39.966535" lon="18.0903583"><ele>53.0</ele><time>2026-05-03T15:29:01.263Z</time></trkpt><trkpt lat="39.9664117" lon="18.0903983"><ele>53.0</ele><time>2026-05-03T15:29:02.263Z</time></trkpt><trkpt lat="39.9662933" lon="18.0904333"><ele>53.0</ele><time>2026-05-03T15:29:03.263Z</time></trkpt><trkpt lat="39.9661883" lon="18.090485"><ele>53.0</ele><time>2026-05-03T15:29:04.262Z</time></trkpt><trkpt lat="39.96609" lon="18.0905333"><ele>53.0</ele><time>2026-05-03T15:29:05.263Z</time></trkpt><trkpt lat="39.9659967" lon="18.0905583"><ele>53.0</ele><time>2026-05-03T15:29:06.263Z</time></trkpt><trkpt lat="39.96592" lon="18.0905883"><ele>53.0</ele><time>2026-05-03T15:29:07.262Z</time></trkpt><trkpt lat="39.9658517" lon="18.0906267"><ele>53.0</ele><time>2026-05-03T15:29:08.263Z</time></trkpt><trkpt lat="39.9657567" lon="18.0906567"><ele>53.0</ele><time>2026-05-03T15:29:10.262Z</time></trkpt><trkpt lat="39.96569" lon="18.090675"><ele>53.0</ele><time>2026-05-03T15:29:12.263Z</time></trkpt><trkpt lat="39.9656267" lon="18.090705"><ele>53.0</ele><time>2026-05-03T15:29:14.263Z</time></trkpt><trkpt lat="39.965525" lon="18.09075"><ele>53.0</ele><time>2026-05-03T15:29:16.263Z</time></trkpt><trkpt lat="39.9654617" lon="18.090775"><ele>53.0</ele><time>2026-05-03T15:29:17.263Z</time></trkpt><trkpt lat="39.9653967" lon="18.0907967"><ele>53.0</ele><time>2026-05-03T15:29:18.263Z</time></trkpt><trkpt lat="39.9653283" lon="18.09083"><ele>53.0</ele><time>2026-05-03T15:29:19.262Z</time></trkpt><trkpt lat="39.9652617" lon="18.090855"><ele>52.833333333333336</ele><time>2026-05-03T15:29:20.262Z</time></trkpt><trkpt lat="39.965145" lon="18.0909083"><ele>52.66666666666667</ele><time>2026-05-03T15:29:22.263Z</time></trkpt><trkpt lat="39.965085" lon="18.0909367"><ele>52.5</ele><time>2026-05-03T15:29:23.263Z</time></trkpt><trkpt lat="39.9650217" lon="18.090965"><ele>52.33333333333333</ele><time>2026-05-03T15:29:24.262Z</time></trkpt><trkpt lat="39.964955" lon="18.0909933"><ele>52.166666666666664</ele><time>2026-05-03T15:29:25.263Z</time></trkpt><trkpt lat="39.964875" lon="18.0910217"><ele>52.0</ele><time>2026-05-03T15:29:26.263Z</time></trkpt><trkpt lat="39.964785" lon="18.0910683"><ele>52.400000000000006</ele><time>2026-05-03T15:29:27.263Z</time></trkpt><trkpt lat="39.964685" lon="18.0911033"><ele>52.800000000000004</ele><time>2026-05-03T15:29:28.262Z</time></trkpt><trkpt lat="39.9645883" lon="18.0911467"><ele>53.2</ele><time>2026-05-03T15:29:29.262Z</time></trkpt><trkpt lat="39.9645017" lon="18.0911817"><ele>53.6</ele><time>2026-05-03T15:29:30.262Z</time></trkpt><trkpt lat="39.9644217" lon="18.0912117"><ele>54.0</ele><time>2026-05-03T15:29:31.263Z</time></trkpt><trkpt lat="39.96434" lon="18.0912317"><ele>54.0</ele><time>2026-05-03T15:29:32.263Z</time></trkpt><trkpt lat="39.9642583" lon="18.0912717"><ele>54.00000000000001</ele><time>2026-05-03T15:29:33.262Z</time></trkpt><trkpt lat="39.9641683" lon="18.0913067"><ele>54.00000000000001</ele><time>2026-05-03T15:29:34.263Z</time></trkpt><trkpt lat="39.964075" lon="18.0913433"><ele>54.0</ele><time>2026-05-03T15:29:35.263Z</time></trkpt><trkpt lat="39.9639767" lon="18.0913883"><ele>54.0</ele><time>2026-05-03T15:29:36.263Z</time></trkpt><trkpt lat="39.963875" lon="18.0914417"><ele>54.2</ele><time>2026-05-03T15:29:37.263Z</time></trkpt><trkpt lat="39.96377" lon="18.0914633"><ele>54.400000000000006</ele><time>2026-05-03T15:29:38.263Z</time></trkpt><trkpt lat="39.9636733" lon="18.0915017"><ele>54.6</ele><time>2026-05-03T15:29:39.263Z</time></trkpt><trkpt lat="39.96358" lon="18.09154"><ele>54.8</ele><time>2026-05-03T15:29:40.263Z</time></trkpt><trkpt lat="39.96349" lon="18.09158"><ele>55.0</ele><time>2026-05-03T15:29:41.263Z</time></trkpt><trkpt lat="39.963405" lon="18.091625"><ele>55.4</ele><time>2026-05-03T15:29:42.262Z</time></trkpt><trkpt lat="39.9633267" lon="18.0916567"><ele>55.8</ele><time>2026-05-03T15:29:43.263Z</time></trkpt><trkpt lat="39.9632583" lon="18.0916867"><ele>56.2</ele><time>2026-05-03T15:29:44.263Z</time></trkpt><trkpt lat="39.9631967" lon="18.0917133"><ele>56.6</ele><time>2026-05-03T15:29:45.263Z</time></trkpt><trkpt lat="39.9630833" lon="18.0917567"><ele>57.0</ele><time>2026-05-03T15:29:47.263Z</time></trkpt><trkpt lat="39.962965" lon="18.0918167"><ele>57.0</ele><time>2026-05-03T15:29:49.263Z</time></trkpt><trkpt lat="39.9628933" lon="18.0918517"><ele>57.0</ele><time>2026-05-03T15:29:50.262Z</time></trkpt><trkpt lat="39.9628183" lon="18.0918867"><ele>57.0</ele><time>2026-05-03T15:29:51.262Z</time></trkpt><trkpt lat="39.96274" lon="18.0919267"><ele>57.0</ele><time>2026-05-03T15:29:52.264Z</time></trkpt><trkpt lat="39.9626583" lon="18.0919683"><ele>57.0</ele><time>2026-05-03T15:29:53.264Z</time></trkpt><trkpt lat="39.9625733" lon="18.0920067"><ele>57.0</ele><time>2026-05-03T15:29:54.264Z</time></trkpt><trkpt lat="39.9624833" lon="18.092035"><ele>57.166666666666664</ele><time>2026-05-03T15:29:55.264Z</time></trkpt><trkpt lat="39.9624" lon="18.0920683"><ele>57.33333333333333</ele><time>2026-05-03T15:29:56.264Z</time></trkpt><trkpt lat="39.96232" lon="18.092105"><ele>57.5</ele><time>2026-05-03T15:29:57.264Z</time></trkpt><trkpt lat="39.962245" lon="18.0921433"><ele>57.666666666666664</ele><time>2026-05-03T15:29:58.263Z</time></trkpt><trkpt lat="39.9621717" lon="18.092175"><ele>57.83333333333333</ele><time>2026-05-03T15:29:59.263Z</time></trkpt><trkpt lat="39.9620983" lon="18.0921983"><ele>58.0</ele><time>2026-05-03T15:30:00.264Z</time></trkpt><trkpt lat="39.9620317" lon="18.09222"><ele>57.99999999999999</ele><time>2026-05-03T15:30:01.264Z</time></trkpt><trkpt lat="39.9619717" lon="18.0922567"><ele>58.0</ele><time>2026-05-03T15:30:02.263Z</time></trkpt><trkpt lat="39.96191" lon="18.0922783"><ele>58.0</ele><time>2026-05-03T15:30:03.264Z</time></trkpt><trkpt lat="39.9618467" lon="18.092295"><ele>58.0</ele><time>2026-05-03T15:30:04.264Z</time></trkpt><trkpt lat="39.9617867" lon="18.09232"><ele>57.99999999999999</ele><time>2026-05-03T15:30:05.264Z</time></trkpt><trkpt lat="39.961675" lon="18.092365"><ele>58.0</ele><time>2026-05-03T15:30:07.263Z</time></trkpt><trkpt lat="39.9615767" lon="18.0924233"><ele>57.99999999999999</ele><time>2026-05-03T15:30:09.264Z</time></trkpt><trkpt lat="39.9615" lon="18.09245"><ele>58.0</ele><time>2026-05-03T15:30:11.264Z</time></trkpt><trkpt lat="39.96143" lon="18.092485"><ele>58.0</ele><time>2026-05-03T15:30:19.263Z</time></trkpt><trkpt lat="39.9613683" lon="18.0925067"><ele>58.0</ele><time>2026-05-03T15:30:20.264Z</time></trkpt><trkpt lat="39.9612933" lon="18.0925317"><ele>57.99999999999999</ele><time>2026-05-03T15:30:21.264Z</time></trkpt><trkpt lat="39.961205" lon="18.0925633"><ele>58.0</ele><time>2026-05-03T15:30:22.264Z</time></trkpt><trkpt lat="39.9611033" lon="18.0925983"><ele>58.0</ele><time>2026-05-03T15:30:23.263Z</time></trkpt><trkpt lat="39.9609983" lon="18.0926433"><ele>58.0</ele><time>2026-05-03T15:30:24.263Z</time></trkpt><trkpt lat="39.96089" lon="18.0926783"><ele>58.0</ele><time>2026-05-03T15:30:25.264Z</time></trkpt><trkpt lat="39.9607817" lon="18.092725"><ele>58.0</ele><time>2026-05-03T15:30:26.263Z</time></trkpt><trkpt lat="39.9606733" lon="18.09277"><ele>57.75</ele><time>2026-05-03T15:30:27.264Z</time></trkpt><trkpt lat="39.9605633" lon="18.0928167"><ele>57.5</ele><time>2026-05-03T15:30:28.264Z</time></trkpt><trkpt lat="39.96045" lon="18.0928617"><ele>57.25</ele><time>2026-05-03T15:30:29.263Z</time></trkpt><trkpt lat="39.9603383" lon="18.092905"><ele>57.0</ele><time>2026-05-03T15:30:30.263Z</time></trkpt><trkpt lat="39.9602267" lon="18.0929467"><ele>57.0</ele><time>2026-05-03T15:30:31.263Z</time></trkpt><trkpt lat="39.96012" lon="18.0929933"><ele>57.0</ele><time>2026-05-03T15:30:32.264Z</time></trkpt><trkpt lat="39.960015" lon="18.0930417"><ele>57.0</ele><time>2026-05-03T15:30:33.263Z</time></trkpt><trkpt lat="39.959905" lon="18.09308"><ele>57.0</ele><time>2026-05-03T15:30:34.264Z</time></trkpt><trkpt lat="39.9598" lon="18.0931233"><ele>57.0</ele><time>2026-05-03T15:30:35.264Z</time></trkpt><trkpt lat="39.9596917" lon="18.0931617"><ele>57.0</ele><time>2026-05-03T15:30:36.264Z</time></trkpt><trkpt lat="39.9595883" lon="18.0932017"><ele>57.0</ele><time>2026-05-03T15:30:37.264Z</time></trkpt><trkpt lat="39.95949" lon="18.0932417"><ele>57.0</ele><time>2026-05-03T15:30:38.263Z</time></trkpt><trkpt lat="39.9594017" lon="18.09328"><ele>57.0</ele><time>2026-05-03T15:30:39.264Z</time></trkpt><trkpt lat="39.9593233" lon="18.09331"><ele>57.0</ele><time>2026-05-03T15:30:40.264Z</time></trkpt><trkpt lat="39.9592517" lon="18.0933383"><ele>57.2</ele><time>2026-05-03T15:30:41.264Z</time></trkpt><trkpt lat="39.95914" lon="18.0933783"><ele>57.400000000000006</ele><time>2026-05-03T15:30:43.264Z</time></trkpt><trkpt lat="39.9590183" lon="18.0934333"><ele>57.599999999999994</ele><time>2026-05-03T15:30:45.264Z</time></trkpt><trkpt lat="39.9589467" lon="18.093475"><ele>57.8</ele><time>2026-05-03T15:30:46.263Z</time></trkpt><trkpt lat="39.9588767" lon="18.09354"><ele>58.0</ele><time>2026-05-03T15:30:47.263Z</time></trkpt><trkpt lat="39.958815" lon="18.093625"><ele>58.0</ele><time>2026-05-03T15:30:48.264Z</time></trkpt><trkpt lat="39.9587567" lon="18.093725"><ele>58.0</ele><time>2026-05-03T15:30:49.264Z</time></trkpt><trkpt lat="39.9587" lon="18.0938317"><ele>58.0</ele><time>2026-05-03T15:30:50.264Z</time></trkpt><trkpt lat="39.95864" lon="18.0939333"><ele>58.0</ele><time>2026-05-03T15:30:51.264Z</time></trkpt><trkpt lat="39.9586017" lon="18.09403"><ele>58.0</ele><time>2026-05-03T15:30:52.264Z</time></trkpt><trkpt lat="39.9585583" lon="18.0941217"><ele>58.0</ele><time>2026-05-03T15:30:53.263Z</time></trkpt><trkpt lat="39.9585083" lon="18.094215"><ele>58.0</ele><time>2026-05-03T15:30:54.264Z</time></trkpt><trkpt lat="39.95845" lon="18.09431"><ele>58.0</ele><time>2026-05-03T15:30:55.264Z</time></trkpt><trkpt lat="39.95841" lon="18.094425"><ele>58.0</ele><time>2026-05-03T15:30:56.264Z</time></trkpt><trkpt lat="39.9583617" lon="18.0945383"><ele>58.0</ele><time>2026-05-03T15:30:57.264Z</time></trkpt><trkpt lat="39.9583067" lon="18.0946417"><ele>57.4</ele><time>2026-05-03T15:30:58.264Z</time></trkpt><trkpt lat="39.9582633" lon="18.094755"><ele>56.8</ele><time>2026-05-03T15:30:59.264Z</time></trkpt><trkpt lat="39.95821" lon="18.0948667"><ele>56.2</ele><time>2026-05-03T15:31:00.263Z</time></trkpt><trkpt lat="39.9581567" lon="18.0949783"><ele>55.6</ele><time>2026-05-03T15:31:01.263Z</time></trkpt><trkpt lat="39.9581133" lon="18.0950833"><ele>55.0</ele><time>2026-05-03T15:31:02.264Z</time></trkpt><trkpt lat="39.9580767" lon="18.095175"><ele>55.0</ele><time>2026-05-03T15:31:03.263Z</time></trkpt><trkpt lat="39.95802" lon="18.0952667"><ele>55.0</ele><time>2026-05-03T15:31:05.264Z</time></trkpt><trkpt lat="39.95798" lon="18.0953617"><ele>55.0</ele><time>2026-05-03T15:31:07.263Z</time></trkpt><trkpt lat="39.9579067" lon="18.0955017"><ele>55.0</ele><time>2026-05-03T15:31:09.263Z</time></trkpt><trkpt lat="39.9578667" lon="18.0955817"><ele>55.0</ele><time>2026-05-03T15:31:10.264Z</time></trkpt><trkpt lat="39.9578267" lon="18.0956667"><ele>55.0</ele><time>2026-05-03T15:31:11.263Z</time></trkpt><trkpt lat="39.95778" lon="18.0957533"><ele>55.0</ele><time>2026-05-03T15:31:12.264Z</time></trkpt><trkpt lat="39.9577283" lon="18.0958533"><ele>55.0</ele><time>2026-05-03T15:31:13.264Z</time></trkpt><trkpt lat="39.957675" lon="18.0959567"><ele>55.0</ele><time>2026-05-03T15:31:14.264Z</time></trkpt><trkpt lat="39.9576283" lon="18.0960717"><ele>55.0</ele><time>2026-05-03T15:31:15.264Z</time></trkpt><trkpt lat="39.9575767" lon="18.0961867"><ele>54.75</ele><time>2026-05-03T15:31:16.264Z</time></trkpt><trkpt lat="39.9575167" lon="18.0963017"><ele>54.5</ele><time>2026-05-03T15:31:17.263Z</time></trkpt><trkpt lat="39.957455" lon="18.0964283"><ele>54.25</ele><time>2026-05-03T15:31:18.264Z</time></trkpt><trkpt lat="39.9573883" lon="18.09656"><ele>54.0</ele><time>2026-05-03T15:31:19.264Z</time></trkpt><trkpt lat="39.9573233" lon="18.096705"><ele>53.75</ele><time>2026-05-03T15:31:20.263Z</time></trkpt><trkpt lat="39.957255" lon="18.0968567"><ele>53.5</ele><time>2026-05-03T15:31:21.264Z</time></trkpt><trkpt lat="39.957185" lon="18.0970167"><ele>53.25</ele><time>2026-05-03T15:31:22.264Z</time></trkpt><trkpt lat="39.9571133" lon="18.0971817"><ele>53.0</ele><time>2026-05-03T15:31:23.263Z</time></trkpt><trkpt lat="39.9570333" lon="18.097345"><ele>52.75</ele><time>2026-05-03T15:31:24.263Z</time></trkpt><trkpt lat="39.9569567" lon="18.0975117"><ele>52.5</ele><time>2026-05-03T15:31:25.264Z</time></trkpt><trkpt lat="39.9568783" lon="18.0976767"><ele>52.25</ele><time>2026-05-03T15:31:26.263Z</time></trkpt><trkpt lat="39.9568" lon="18.09784"><ele>52.0</ele><time>2026-05-03T15:31:27.264Z</time></trkpt><trkpt lat="39.9567283" lon="18.0980017"><ele>51.5</ele><time>2026-05-03T15:31:28.263Z</time></trkpt><trkpt lat="39.9566567" lon="18.0981667"><ele>51.0</ele><time>2026-05-03T15:31:29.263Z</time></trkpt><trkpt lat="39.95658" lon="18.0983283"><ele>50.5</ele><time>2026-05-03T15:31:30.263Z</time></trkpt><trkpt lat="39.9565033" lon="18.0984917"><ele>50.0</ele><time>2026-05-03T15:31:31.263Z</time></trkpt><trkpt lat="39.9564283" lon="18.0986517"><ele>50.0</ele><time>2026-05-03T15:31:32.264Z</time></trkpt><trkpt lat="39.9563533" lon="18.0988117"><ele>50.0</ele><time>2026-05-03T15:31:33.263Z</time></trkpt><trkpt lat="39.9562783" lon="18.0989733"><ele>50.0</ele><time>2026-05-03T15:31:34.263Z</time></trkpt><trkpt lat="39.9562067" lon="18.099125"><ele>50.0</ele><time>2026-05-03T15:31:35.263Z</time></trkpt><trkpt lat="39.9561467" lon="18.09925"><ele>50.00000000000001</ele><time>2026-05-03T15:31:36.263Z</time></trkpt><trkpt lat="39.9561" lon="18.09935"><ele>50.0</ele><time>2026-05-03T15:31:37.263Z</time></trkpt><trkpt lat="39.95606" lon="18.0994367"><ele>50.0</ele><time>2026-05-03T15:31:38.264Z</time></trkpt><trkpt lat="39.9560233" lon="18.0995183"><ele>50.0</ele><time>2026-05-03T15:31:39.264Z</time></trkpt><trkpt lat="39.9559833" lon="18.0996033"><ele>50.00000000000001</ele><time>2026-05-03T15:31:40.263Z</time></trkpt><trkpt lat="39.9559367" lon="18.0997017"><ele>50.0</ele><time>2026-05-03T15:31:41.263Z</time></trkpt><trkpt lat="39.9558833" lon="18.0998083"><ele>49.8</ele><time>2026-05-03T15:31:42.264Z</time></trkpt><trkpt lat="39.9558283" lon="18.0999183"><ele>49.6</ele><time>2026-05-03T15:31:43.264Z</time></trkpt><trkpt lat="39.9557717" lon="18.100035"><ele>49.400000000000006</ele><time>2026-05-03T15:31:44.263Z</time></trkpt><trkpt lat="39.9557117" lon="18.100155"><ele>49.2</ele><time>2026-05-03T15:31:45.263Z</time></trkpt><trkpt lat="39.9556583" lon="18.10028"><ele>49.0</ele><time>2026-05-03T15:31:46.264Z</time></trkpt><trkpt lat="39.9556" lon="18.1004"><ele>49.0</ele><time>2026-05-03T15:31:47.263Z</time></trkpt><trkpt lat="39.9555433" lon="18.1005233"><ele>49.0</ele><time>2026-05-03T15:31:48.263Z</time></trkpt><trkpt lat="39.9554867" lon="18.1006467"><ele>49.0</ele><time>2026-05-03T15:31:49.263Z</time></trkpt><trkpt lat="39.95543" lon="18.10077"><ele>49.0</ele><time>2026-05-03T15:31:50.263Z</time></trkpt><trkpt lat="39.955375" lon="18.1008883"><ele>49.0</ele><time>2026-05-03T15:31:51.264Z</time></trkpt><trkpt lat="39.95532" lon="18.1010083"><ele>48.800000000000004</ele><time>2026-05-03T15:31:52.263Z</time></trkpt><trkpt lat="39.9552633" lon="18.1011317"><ele>48.6</ele><time>2026-05-03T15:31:53.264Z</time></trkpt><trkpt lat="39.9552033" lon="18.1012583"><ele>48.4</ele><time>2026-05-03T15:31:54.264Z</time></trkpt><trkpt lat="39.955145" lon="18.101385"><ele>48.2</ele><time>2026-05-03T15:31:55.263Z</time></trkpt><trkpt lat="39.95509" lon="18.1015033"><ele>48.0</ele><time>2026-05-03T15:31:56.263Z</time></trkpt><trkpt lat="39.9550367" lon="18.1016117"><ele>48.0</ele><time>2026-05-03T15:31:57.263Z</time></trkpt><trkpt lat="39.9549933" lon="18.1017133"><ele>48.0</ele><time>2026-05-03T15:31:58.263Z</time></trkpt><trkpt lat="39.9549467" lon="18.1018017"><ele>48.0</ele><time>2026-05-03T15:31:59.264Z</time></trkpt><trkpt lat="39.9548867" lon="18.10186"><ele>48.0</ele><time>2026-05-03T15:32:00.263Z</time></trkpt><trkpt lat="39.9548117" lon="18.1019033"><ele>48.0</ele><time>2026-05-03T15:32:01.264Z</time></trkpt><trkpt lat="39.9547317" lon="18.1019517"><ele>48.0</ele><time>2026-05-03T15:32:02.264Z</time></trkpt><trkpt lat="39.9546383" lon="18.1019917"><ele>48.0</ele><time>2026-05-03T15:32:03.264Z</time></trkpt><trkpt lat="39.9545433" lon="18.1020433"><ele>48.0</ele><time>2026-05-03T15:32:04.264Z</time></trkpt><trkpt lat="39.9544417" lon="18.10209"><ele>48.0</ele><time>2026-05-03T15:32:05.264Z</time></trkpt><trkpt lat="39.9543367" lon="18.1021317"><ele>48.0</ele><time>2026-05-03T15:32:06.263Z</time></trkpt><trkpt lat="39.9542333" lon="18.1021683"><ele>48.0</ele><time>2026-05-03T15:32:07.264Z</time></trkpt><trkpt lat="39.95414" lon="18.102205"><ele>48.166666666666664</ele><time>2026-05-03T15:32:08.263Z</time></trkpt><trkpt lat="39.9540533" lon="18.1022467"><ele>48.33333333333333</ele><time>2026-05-03T15:32:09.264Z</time></trkpt><trkpt lat="39.9539717" lon="18.1022833"><ele>48.5</ele><time>2026-05-03T15:32:10.264Z</time></trkpt><trkpt lat="39.9538983" lon="18.1023083"><ele>48.666666666666664</ele><time>2026-05-03T15:32:11.263Z</time></trkpt><trkpt lat="39.9538183" lon="18.1023417"><ele>48.83333333333333</ele><time>2026-05-03T15:32:12.264Z</time></trkpt><trkpt lat="39.95372" lon="18.10238"><ele>49.0</ele><time>2026-05-03T15:32:13.264Z</time></trkpt><trkpt lat="39.9536117" lon="18.1024183"><ele>48.75</ele><time>2026-05-03T15:32:14.264Z</time></trkpt><trkpt lat="39.9535" lon="18.1024633"><ele>48.5</ele><time>2026-05-03T15:32:15.264Z</time></trkpt><trkpt lat="39.9533833" lon="18.102505"><ele>48.25</ele><time>2026-05-03T15:32:16.264Z</time></trkpt><trkpt lat="39.9532633" lon="18.10255"><ele>48.0</ele><time>2026-05-03T15:32:17.264Z</time></trkpt><trkpt lat="39.9531367" lon="18.102585"><ele>48.0</ele><time>2026-05-03T15:32:18.264Z</time></trkpt><trkpt lat="39.9530067" lon="18.102615"><ele>48.0</ele><time>2026-05-03T15:32:19.264Z</time></trkpt><trkpt lat="39.9528717" lon="18.1026433"><ele>48.0</ele><time>2026-05-03T15:32:20.263Z</time></trkpt><trkpt lat="39.9527367" lon="18.1026883"><ele>48.0</ele><time>2026-05-03T15:32:21.263Z</time></trkpt><trkpt lat="39.9525983" lon="18.10274"><ele>48.25</ele><time>2026-05-03T15:32:22.264Z</time></trkpt><trkpt lat="39.9524567" lon="18.102795"><ele>48.5</ele><time>2026-05-03T15:32:23.264Z</time></trkpt><trkpt lat="39.9523167" lon="18.1028517"><ele>48.75</ele><time>2026-05-03T15:32:24.264Z</time></trkpt><trkpt lat="39.9521833" lon="18.1029067"><ele>49.0</ele><time>2026-05-03T15:32:25.264Z</time></trkpt><trkpt lat="39.952055" lon="18.1029517"><ele>49.0</ele><time>2026-05-03T15:32:26.264Z</time></trkpt><trkpt lat="39.9519333" lon="18.1030017"><ele>49.0</ele><time>2026-05-03T15:32:27.264Z</time></trkpt><trkpt lat="39.95181" lon="18.1030517"><ele>49.0</ele><time>2026-05-03T15:32:28.263Z</time></trkpt><trkpt lat="39.9516833" lon="18.1031017"><ele>49.0</ele><time>2026-05-03T15:32:29.264Z</time></trkpt><trkpt lat="39.95156" lon="18.1031817"><ele>48.5</ele><time>2026-05-03T15:32:30.264Z</time></trkpt><trkpt lat="39.95144" lon="18.1032733"><ele>48.0</ele><time>2026-05-03T15:32:31.263Z</time></trkpt><trkpt lat="39.951315" lon="18.1033383"><ele>47.5</ele><time>2026-05-03T15:32:32.264Z</time></trkpt><trkpt lat="39.9511867" lon="18.10341"><ele>47.0</ele><time>2026-05-03T15:32:33.263Z</time></trkpt><trkpt lat="39.95106" lon="18.1034933"><ele>47.0</ele><time>2026-05-03T15:32:34.264Z</time></trkpt><trkpt lat="39.9509317" lon="18.10357"><ele>47.0</ele><time>2026-05-03T15:32:35.264Z</time></trkpt><trkpt lat="39.9508067" lon="18.103655"><ele>47.0</ele><time>2026-05-03T15:32:36.264Z</time></trkpt><trkpt lat="39.950675" lon="18.10373"><ele>47.0</ele><time>2026-05-03T15:32:37.263Z</time></trkpt><trkpt lat="39.9505417" lon="18.1037983"><ele>47.0</ele><time>2026-05-03T15:32:38.263Z</time></trkpt><trkpt lat="39.9504233" lon="18.10389"><ele>47.0</ele><time>2026-05-03T15:32:39.263Z</time></trkpt><trkpt lat="39.9503133" lon="18.1039867"><ele>47.0</ele><time>2026-05-03T15:32:40.264Z</time></trkpt><trkpt lat="39.9502033" lon="18.1040867"><ele>47.0</ele><time>2026-05-03T15:32:41.264Z</time></trkpt><trkpt lat="39.95009" lon="18.1041883"><ele>46.75</ele><time>2026-05-03T15:32:42.264Z</time></trkpt><trkpt lat="39.9499783" lon="18.1042867"><ele>46.5</ele><time>2026-05-03T15:32:43.264Z</time></trkpt><trkpt lat="39.9498617" lon="18.1043733"><ele>46.25</ele><time>2026-05-03T15:32:44.264Z</time></trkpt><trkpt lat="39.9497433" lon="18.104445"><ele>46.0</ele><time>2026-05-03T15:32:45.264Z</time></trkpt><trkpt lat="39.949625" lon="18.1045117"><ele>46.0</ele><time>2026-05-03T15:32:46.264Z</time></trkpt><trkpt lat="39.9495033" lon="18.1045717"><ele>46.0</ele><time>2026-05-03T15:32:47.263Z</time></trkpt><trkpt lat="39.9493783" lon="18.1046283"><ele>46.0</ele><time>2026-05-03T15:32:48.264Z</time></trkpt><trkpt lat="39.9492567" lon="18.1046983"><ele>46.0</ele><time>2026-05-03T15:32:49.264Z</time></trkpt><trkpt lat="39.9491317" lon="18.1047933"><ele>46.0</ele><time>2026-05-03T15:32:50.263Z</time></trkpt><trkpt lat="39.9490133" lon="18.104905"><ele>46.0</ele><time>2026-05-03T15:32:51.264Z</time></trkpt><trkpt lat="39.9489017" lon="18.105015"><ele>46.0</ele><time>2026-05-03T15:32:52.264Z</time></trkpt><trkpt lat="39.9488033" lon="18.1051217"><ele>46.0</ele><time>2026-05-03T15:32:53.264Z</time></trkpt><trkpt lat="39.9487067" lon="18.10523"><ele>46.25</ele><time>2026-05-03T15:32:54.264Z</time></trkpt><trkpt lat="39.9486083" lon="18.1053317"><ele>46.5</ele><time>2026-05-03T15:32:55.264Z</time></trkpt><trkpt lat="39.948505" lon="18.10543"><ele>46.75</ele><time>2026-05-03T15:32:56.264Z</time></trkpt><trkpt lat="39.9483967" lon="18.10552"><ele>47.0</ele><time>2026-05-03T15:32:57.264Z</time></trkpt><trkpt lat="39.9482817" lon="18.1056067"><ele>46.5</ele><time>2026-05-03T15:32:58.263Z</time></trkpt><trkpt lat="39.9481617" lon="18.1056883"><ele>46.0</ele><time>2026-05-03T15:32:59.263Z</time></trkpt><trkpt lat="39.94805" lon="18.10578"><ele>45.5</ele><time>2026-05-03T15:33:00.264Z</time></trkpt><trkpt lat="39.9479467" lon="18.1058767"><ele>45.0</ele><time>2026-05-03T15:33:01.264Z</time></trkpt><trkpt lat="39.947855" lon="18.105965"><ele>45.0</ele><time>2026-05-03T15:33:02.264Z</time></trkpt><trkpt lat="39.9477683" lon="18.1060433"><ele>45.0</ele><time>2026-05-03T15:33:03.264Z</time></trkpt><trkpt lat="39.94769" lon="18.1061133"><ele>45.0</ele><time>2026-05-03T15:33:04.263Z</time></trkpt><trkpt lat="39.9476133" lon="18.1061867"><ele>45.0</ele><time>2026-05-03T15:33:05.264Z</time></trkpt><trkpt lat="39.947525" lon="18.1062583"><ele>45.0</ele><time>2026-05-03T15:33:06.264Z</time></trkpt><trkpt lat="39.947425" lon="18.10632"><ele>44.75</ele><time>2026-05-03T15:33:07.264Z</time></trkpt><trkpt lat="39.9473167" lon="18.1063867"><ele>44.5</ele><time>2026-05-03T15:33:08.263Z</time></trkpt><trkpt lat="39.9472183" lon="18.1064583"><ele>44.25</ele><time>2026-05-03T15:33:09.264Z</time></trkpt><trkpt lat="39.9471283" lon="18.1065433"><ele>44.0</ele><time>2026-05-03T15:33:10.264Z</time></trkpt><trkpt lat="39.9470317" lon="18.106605"><ele>44.0</ele><time>2026-05-03T15:33:11.264Z</time></trkpt><trkpt lat="39.946915" lon="18.1066367"><ele>44.0</ele><time>2026-05-03T15:33:12.263Z</time></trkpt><trkpt lat="39.9467917" lon="18.1066733"><ele>44.0</ele><time>2026-05-03T15:33:13.264Z</time></trkpt><trkpt lat="39.9466633" lon="18.1067067"><ele>44.0</ele><time>2026-05-03T15:33:14.264Z</time></trkpt><trkpt lat="39.9465317" lon="18.10675"><ele>44.0</ele><time>2026-05-03T15:33:15.264Z</time></trkpt><trkpt lat="39.9463983" lon="18.1068"><ele>44.0</ele><time>2026-05-03T15:33:16.264Z</time></trkpt><trkpt lat="39.9462617" lon="18.1068433"><ele>44.0</ele><time>2026-05-03T15:33:17.264Z</time></trkpt><trkpt lat="39.9461267" lon="18.1069"><ele>44.0</ele><time>2026-05-03T15:33:18.264Z</time></trkpt><trkpt lat="39.946" lon="18.1069733"><ele>44.0</ele><time>2026-05-03T15:33:19.263Z</time></trkpt><trkpt lat="39.9458817" lon="18.1070717"><ele>44.0</ele><time>2026-05-03T15:33:20.263Z</time></trkpt><trkpt lat="39.9457667" lon="18.1071867"><ele>44.0</ele><time>2026-05-03T15:33:21.264Z</time></trkpt><trkpt lat="39.9456433" lon="18.1072917"><ele>44.0</ele><time>2026-05-03T15:33:22.263Z</time></trkpt><trkpt lat="39.9455183" lon="18.1074017"><ele>44.0</ele><time>2026-05-03T15:33:23.264Z</time></trkpt><trkpt lat="39.9453883" lon="18.1075067"><ele>44.0</ele><time>2026-05-03T15:33:24.264Z</time></trkpt><trkpt lat="39.9452617" lon="18.1076083"><ele>44.0</ele><time>2026-05-03T15:33:25.263Z</time></trkpt><trkpt lat="39.94516" lon="18.1077233"><ele>44.0</ele><time>2026-05-03T15:33:26.263Z</time></trkpt><trkpt lat="39.9450633" lon="18.10785"><ele>43.5</ele><time>2026-05-03T15:33:27.264Z</time></trkpt><trkpt lat="39.9449767" lon="18.10799"><ele>43.0</ele><time>2026-05-03T15:33:28.263Z</time></trkpt><trkpt lat="39.9448967" lon="18.1081383"><ele>42.5</ele><time>2026-05-03T15:33:29.264Z</time></trkpt><trkpt lat="39.9448183" lon="18.108275"><ele>42.0</ele><time>2026-05-03T15:33:30.264Z</time></trkpt><trkpt lat="39.9447467" lon="18.1083917"><ele>42.0</ele><time>2026-05-03T15:33:31.264Z</time></trkpt><trkpt lat="39.9446733" lon="18.1084983"><ele>42.0</ele><time>2026-05-03T15:33:32.264Z</time></trkpt><trkpt lat="39.9445833" lon="18.1086"><ele>42.0</ele><time>2026-05-03T15:33:33.263Z</time></trkpt><trkpt lat="39.9444767" lon="18.1087"><ele>42.0</ele><time>2026-05-03T15:33:34.263Z</time></trkpt><trkpt lat="39.9443683" lon="18.1088117"><ele>42.0</ele><time>2026-05-03T15:33:35.264Z</time></trkpt><trkpt lat="39.9442567" lon="18.1089267"><ele>42.0</ele><time>2026-05-03T15:33:36.264Z</time></trkpt><trkpt lat="39.9441483" lon="18.109045"><ele>42.0</ele><time>2026-05-03T15:33:37.264Z</time></trkpt><trkpt lat="39.9440483" lon="18.109145"><ele>42.0</ele><time>2026-05-03T15:33:38.264Z</time></trkpt><trkpt lat="39.943945" lon="18.10923"><ele>41.75</ele><time>2026-05-03T15:33:39.264Z</time></trkpt><trkpt lat="39.9438367" lon="18.1092917"><ele>41.5</ele><time>2026-05-03T15:33:40.264Z</time></trkpt><trkpt lat="39.9437217" lon="18.1093333"><ele>41.25</ele><time>2026-05-03T15:33:41.263Z</time></trkpt><trkpt lat="39.9435867" lon="18.1093667"><ele>41.0</ele><time>2026-05-03T15:33:42.264Z</time></trkpt><trkpt lat="39.9434283" lon="18.1093983"><ele>41.25</ele><time>2026-05-03T15:33:43.264Z</time></trkpt><trkpt lat="39.94327" lon="18.109435"><ele>41.5</ele><time>2026-05-03T15:33:44.264Z</time></trkpt><trkpt lat="39.9431233" lon="18.109475"><ele>41.75</ele><time>2026-05-03T15:33:45.263Z</time></trkpt><trkpt lat="39.94299" lon="18.1095217"><ele>42.0</ele><time>2026-05-03T15:33:46.263Z</time></trkpt><trkpt lat="39.9428667" lon="18.1095683"><ele>42.0</ele><time>2026-05-03T15:33:47.264Z</time></trkpt><trkpt lat="39.942755" lon="18.1096117"><ele>42.0</ele><time>2026-05-03T15:33:48.264Z</time></trkpt><trkpt lat="39.9426617" lon="18.1096617"><ele>42.0</ele><time>2026-05-03T15:33:49.264Z</time></trkpt><trkpt lat="39.94257" lon="18.10973"><ele>42.0</ele><time>2026-05-03T15:33:50.264Z</time></trkpt><trkpt lat="39.9424767" lon="18.1098133"><ele>42.0</ele><time>2026-05-03T15:33:51.264Z</time></trkpt><trkpt lat="39.9423783" lon="18.1099067"><ele>41.75</ele><time>2026-05-03T15:33:52.264Z</time></trkpt><trkpt lat="39.9422767" lon="18.1099983"><ele>41.5</ele><time>2026-05-03T15:33:53.264Z</time></trkpt><trkpt lat="39.9421783" lon="18.1100717"><ele>41.25</ele><time>2026-05-03T15:33:54.264Z</time></trkpt><trkpt lat="39.942075" lon="18.11013"><ele>41.0</ele><time>2026-05-03T15:33:55.263Z</time></trkpt><trkpt lat="39.9419717" lon="18.1101867"><ele>41.0</ele><time>2026-05-03T15:33:56.263Z</time></trkpt><trkpt lat="39.9418717" lon="18.110245"><ele>41.0</ele><time>2026-05-03T15:33:57.264Z</time></trkpt><trkpt lat="39.9417683" lon="18.1103033"><ele>41.0</ele><time>2026-05-03T15:33:58.264Z</time></trkpt><trkpt lat="39.941675" lon="18.1103883"><ele>41.0</ele><time>2026-05-03T15:33:59.263Z</time></trkpt><trkpt lat="39.941585" lon="18.1104833"><ele>41.0</ele><time>2026-05-03T15:34:00.263Z</time></trkpt><trkpt lat="39.9414917" lon="18.1105733"><ele>41.0</ele><time>2026-05-03T15:34:01.264Z</time></trkpt><trkpt lat="39.9414033" lon="18.1106667"><ele>41.0</ele><time>2026-05-03T15:34:02.264Z</time></trkpt><trkpt lat="39.9413133" lon="18.110755"><ele>41.0</ele><time>2026-05-03T15:34:03.264Z</time></trkpt><trkpt lat="39.9412267" lon="18.1108367"><ele>41.0</ele><time>2026-05-03T15:34:04.264Z</time></trkpt><trkpt lat="39.9411467" lon="18.1109117"><ele>40.99999999999999</ele><time>2026-05-03T15:34:05.264Z</time></trkpt><trkpt lat="39.94107" lon="18.110975"><ele>41.0</ele><time>2026-05-03T15:34:06.264Z</time></trkpt><trkpt lat="39.941" lon="18.1110283"><ele>41.0</ele><time>2026-05-03T15:34:07.264Z</time></trkpt><trkpt lat="39.94094" lon="18.111085"><ele>41.0</ele><time>2026-05-03T15:34:08.264Z</time></trkpt><trkpt lat="39.9408817" lon="18.1111283"><ele>41.0</ele><time>2026-05-03T15:34:09.264Z</time></trkpt><trkpt lat="39.9408267" lon="18.1111717"><ele>40.99999999999999</ele><time>2026-05-03T15:34:10.263Z</time></trkpt><trkpt lat="39.94077" lon="18.11122"><ele>41.0</ele><time>2026-05-03T15:34:11.264Z</time></trkpt><trkpt lat="39.9407117" lon="18.11127"><ele>41.0</ele><time>2026-05-03T15:34:12.264Z</time></trkpt><trkpt lat="39.9406517" lon="18.1113217"><ele>41.0</ele><time>2026-05-03T15:34:13.263Z</time></trkpt><trkpt lat="39.940585" lon="18.11137"><ele>41.0</ele><time>2026-05-03T15:34:14.264Z</time></trkpt><trkpt lat="39.940515" lon="18.11141"><ele>41.0</ele><time>2026-05-03T15:34:15.263Z</time></trkpt><trkpt lat="39.940445" lon="18.11144"><ele>41.0</ele><time>2026-05-03T15:34:16.264Z</time></trkpt><trkpt lat="39.9403717" lon="18.1114683"><ele>41.0</ele><time>2026-05-03T15:34:17.263Z</time></trkpt><trkpt lat="39.9402867" lon="18.1115117"><ele>41.0</ele><time>2026-05-03T15:34:18.264Z</time></trkpt><trkpt lat="39.9401817" lon="18.111545"><ele>41.0</ele><time>2026-05-03T15:34:19.264Z</time></trkpt><trkpt lat="39.9400783" lon="18.111575"><ele>41.0</ele><time>2026-05-03T15:34:20.263Z</time></trkpt><trkpt lat="39.9399883" lon="18.1116117"><ele>41.0</ele><time>2026-05-03T15:34:21.264Z</time></trkpt><trkpt lat="39.9399067" lon="18.111635"><ele>41.0</ele><time>2026-05-03T15:34:22.264Z</time></trkpt><trkpt lat="39.9398333" lon="18.1116483"><ele>40.99999999999999</ele><time>2026-05-03T15:34:23.264Z</time></trkpt><trkpt lat="39.93977" lon="18.1116667"><ele>41.0</ele><time>2026-05-03T15:34:24.264Z</time></trkpt><trkpt lat="39.93971" lon="18.1116933"><ele>41.0</ele><time>2026-05-03T15:34:25.264Z</time></trkpt><trkpt lat="39.93965" lon="18.11172"><ele>41.0</ele><time>2026-05-03T15:34:26.263Z</time></trkpt><trkpt lat="39.9395867" lon="18.111735"><ele>41.0</ele><time>2026-05-03T15:34:27.264Z</time></trkpt><trkpt lat="39.93952" lon="18.1117533"><ele>40.99999999999999</ele><time>2026-05-03T15:34:28.264Z</time></trkpt><trkpt lat="39.9394583" lon="18.1117767"><ele>41.0</ele><time>2026-05-03T15:34:29.264Z</time></trkpt><trkpt lat="39.9393567" lon="18.11181"><ele>41.0</ele><time>2026-05-03T15:34:31.263Z</time></trkpt><trkpt lat="39.939285" lon="18.1118183"><ele>41.0</ele><time>2026-05-03T15:34:33.263Z</time></trkpt><trkpt lat="39.9392067" lon="18.1118267"><ele>41.0</ele><time>2026-05-03T15:34:41.263Z</time></trkpt><trkpt lat="39.939145" lon="18.1119033"><ele>41.0</ele><time>2026-05-03T15:34:43.263Z</time></trkpt><trkpt lat="39.93912" lon="18.1119817"><ele>41.0</ele><time>2026-05-03T15:34:44.262Z</time></trkpt><trkpt lat="39.9390867" lon="18.1120783"><ele>41.0</ele><time>2026-05-03T15:34:45.263Z</time></trkpt><trkpt lat="39.9390483" lon="18.1121817"><ele>41.0</ele><time>2026-05-03T15:34:46.263Z</time></trkpt><trkpt lat="39.9390017" lon="18.112285"><ele>41.0</ele><time>2026-05-03T15:34:47.263Z</time></trkpt><trkpt lat="39.9389683" lon="18.1123867"><ele>41.0</ele><time>2026-05-03T15:34:48.262Z</time></trkpt><trkpt lat="39.9389417" lon="18.1124783"><ele>41.0</ele><time>2026-05-03T15:34:49.263Z</time></trkpt><trkpt lat="39.9389117" lon="18.11256"><ele>41.0</ele><time>2026-05-03T15:34:50.262Z</time></trkpt><trkpt lat="39.938885" lon="18.112635"><ele>41.0</ele><time>2026-05-03T15:34:51.263Z</time></trkpt><trkpt lat="39.93885" lon="18.1127117"><ele>40.599999999999994</ele><time>2026-05-03T15:34:52.263Z</time></trkpt><trkpt lat="39.9387983" lon="18.112785"><ele>40.199999999999996</ele><time>2026-05-03T15:34:53.263Z</time></trkpt><trkpt lat="39.938735" lon="18.1128683"><ele>39.8</ele><time>2026-05-03T15:34:54.263Z</time></trkpt><trkpt lat="39.93866" lon="18.1129633"><ele>39.4</ele><time>2026-05-03T15:34:55.262Z</time></trkpt><trkpt lat="39.938575" lon="18.11307"><ele>39.0</ele><time>2026-05-03T15:34:56.262Z</time></trkpt><trkpt lat="39.9384733" lon="18.1131867"><ele>39.0</ele><time>2026-05-03T15:34:57.263Z</time></trkpt><trkpt lat="39.938355" lon="18.1133217"><ele>39.0</ele><time>2026-05-03T15:34:58.263Z</time></trkpt><trkpt lat="39.9382333" lon="18.1134617"><ele>39.0</ele><time>2026-05-03T15:34:59.263Z</time></trkpt><trkpt lat="39.9381167" lon="18.1135967"><ele>39.0</ele><time>2026-05-03T15:35:00.263Z</time></trkpt><trkpt lat="39.9380083" lon="18.1137183"><ele>39.0</ele><time>2026-05-03T15:35:01.263Z</time></trkpt><trkpt lat="39.93791" lon="18.11383"><ele>39.0</ele><time>2026-05-03T15:35:02.263Z</time></trkpt><trkpt lat="39.9378267" lon="18.1139267"><ele>39.0</ele><time>2026-05-03T15:35:03.263Z</time></trkpt><trkpt lat="39.937755" lon="18.114015"><ele>39.4</ele><time>2026-05-03T15:35:04.263Z</time></trkpt><trkpt lat="39.9376867" lon="18.1141"><ele>39.8</ele><time>2026-05-03T15:35:05.263Z</time></trkpt><trkpt lat="39.9376167" lon="18.1141867"><ele>40.199999999999996</ele><time>2026-05-03T15:35:06.262Z</time></trkpt><trkpt lat="39.937545" lon="18.1142817"><ele>40.599999999999994</ele><time>2026-05-03T15:35:07.263Z</time></trkpt><trkpt lat="39.9374683" lon="18.1143867"><ele>41.0</ele><time>2026-05-03T15:35:08.263Z</time></trkpt><trkpt lat="39.9373867" lon="18.1145017"><ele>41.0</ele><time>2026-05-03T15:35:09.263Z</time></trkpt><trkpt lat="39.9373017" lon="18.1146167"><ele>41.0</ele><time>2026-05-03T15:35:10.262Z</time></trkpt><trkpt lat="39.93722" lon="18.1147283"><ele>41.0</ele><time>2026-05-03T15:35:11.263Z</time></trkpt><trkpt lat="39.937135" lon="18.1148433"><ele>41.0</ele><time>2026-05-03T15:35:12.263Z</time></trkpt><trkpt lat="39.9370383" lon="18.1149517"><ele>41.199999999999996</ele><time>2026-05-03T15:35:13.262Z</time></trkpt><trkpt lat="39.9369367" lon="18.1150433"><ele>41.4</ele><time>2026-05-03T15:35:14.263Z</time></trkpt><trkpt lat="39.9368467" lon="18.115125"><ele>41.6</ele><time>2026-05-03T15:35:15.263Z</time></trkpt><trkpt lat="39.93677" lon="18.1152067"><ele>41.8</ele><time>2026-05-03T15:35:16.262Z</time></trkpt><trkpt lat="39.936695" lon="18.115265"><ele>42.0</ele><time>2026-05-03T15:35:17.263Z</time></trkpt><trkpt lat="39.9366367" lon="18.1153283"><ele>41.2</ele><time>2026-05-03T15:35:18.263Z</time></trkpt><trkpt lat="39.9365767" lon="18.1153767"><ele>40.400000000000006</ele><time>2026-05-03T15:35:19.263Z</time></trkpt><trkpt lat="39.9365183" lon="18.1154417"><ele>39.599999999999994</ele><time>2026-05-03T15:35:20.262Z</time></trkpt><trkpt lat="39.9364533" lon="18.11552"><ele>38.8</ele><time>2026-05-03T15:35:21.263Z</time></trkpt><trkpt lat="39.936365" lon="18.1156033"><ele>38.0</ele><time>2026-05-03T15:35:22.263Z</time></trkpt><trkpt lat="39.9362667" lon="18.1156983"><ele>38.0</ele><time>2026-05-03T15:35:23.262Z</time></trkpt><trkpt lat="39.9361733" lon="18.1157983"><ele>38.0</ele><time>2026-05-03T15:35:24.262Z</time></trkpt><trkpt lat="39.9360717" lon="18.1158833"><ele>38.0</ele><time>2026-05-03T15:35:25.263Z</time></trkpt><trkpt lat="39.9359867" lon="18.115985"><ele>38.0</ele><time>2026-05-03T15:35:26.262Z</time></trkpt><trkpt lat="39.9358783" lon="18.1160483"><ele>38.0</ele><time>2026-05-03T15:35:27.263Z</time></trkpt><trkpt lat="39.9357733" lon="18.1161267"><ele>38.0</ele><time>2026-05-03T15:35:28.262Z</time></trkpt><trkpt lat="39.9356583" lon="18.1161783"><ele>38.0</ele><time>2026-05-03T15:35:29.262Z</time></trkpt><trkpt lat="39.935545" lon="18.1162267"><ele>38.0</ele><time>2026-05-03T15:35:30.262Z</time></trkpt><trkpt lat="39.9354283" lon="18.1162783"><ele>38.0</ele><time>2026-05-03T15:35:31.262Z</time></trkpt><trkpt lat="39.935315" lon="18.11633"><ele>38.0</ele><time>2026-05-03T15:35:32.263Z</time></trkpt><trkpt lat="39.93521" lon="18.1163783"><ele>38.0</ele><time>2026-05-03T15:35:33.263Z</time></trkpt><trkpt lat="39.9351167" lon="18.116425"><ele>38.0</ele><time>2026-05-03T15:35:34.263Z</time></trkpt><trkpt lat="39.9350283" lon="18.1164633"><ele>38.0</ele><time>2026-05-03T15:35:35.263Z</time></trkpt><trkpt lat="39.934945" lon="18.1165"><ele>37.83333333333333</ele><time>2026-05-03T15:35:36.263Z</time></trkpt><trkpt lat="39.9348617" lon="18.1165317"><ele>37.666666666666664</ele><time>2026-05-03T15:35:37.262Z</time></trkpt><trkpt lat="39.934775" lon="18.1165633"><ele>37.5</ele><time>2026-05-03T15:35:38.262Z</time></trkpt><trkpt lat="39.9346867" lon="18.1165817"><ele>37.333333333333336</ele><time>2026-05-03T15:35:39.262Z</time></trkpt><trkpt lat="39.9346017" lon="18.11659"><ele>37.16666666666667</ele><time>2026-05-03T15:35:40.262Z</time></trkpt><trkpt lat="39.9345283" lon="18.1165917"><ele>37.0</ele><time>2026-05-03T15:35:41.262Z</time></trkpt><trkpt lat="39.9344617" lon="18.11661"><ele>37.0</ele><time>2026-05-03T15:35:42.263Z</time></trkpt><trkpt lat="39.9344067" lon="18.11665"><ele>37.0</ele><time>2026-05-03T15:35:43.262Z</time></trkpt><trkpt lat="39.9343517" lon="18.11671"><ele>37.0</ele><time>2026-05-03T15:35:44.263Z</time></trkpt><trkpt lat="39.9342883" lon="18.1167717"><ele>37.0</ele><time>2026-05-03T15:35:45.262Z</time></trkpt><trkpt lat="39.9342167" lon="18.1168167"><ele>37.0</ele><time>2026-05-03T15:35:46.263Z</time></trkpt><trkpt lat="39.9341217" lon="18.11685"><ele>37.0</ele><time>2026-05-03T15:35:47.263Z</time></trkpt><trkpt lat="39.9340167" lon="18.1168833"><ele>37.0</ele><time>2026-05-03T15:35:48.263Z</time></trkpt><trkpt lat="39.9339133" lon="18.1169267"><ele>37.0</ele><time>2026-05-03T15:35:49.262Z</time></trkpt><trkpt lat="39.9338067" lon="18.1169683"><ele>37.0</ele><time>2026-05-03T15:35:50.263Z</time></trkpt><trkpt lat="39.933705" lon="18.11701"><ele>37.0</ele><time>2026-05-03T15:35:51.262Z</time></trkpt><trkpt lat="39.93361" lon="18.1170483"><ele>37.0</ele><time>2026-05-03T15:35:52.263Z</time></trkpt><trkpt lat="39.93353" lon="18.117075"><ele>37.0</ele><time>2026-05-03T15:35:53.263Z</time></trkpt><trkpt lat="39.933465" lon="18.117095"><ele>37.0</ele><time>2026-05-03T15:35:54.263Z</time></trkpt><trkpt lat="39.9334" lon="18.1171783"><ele>37.0</ele><time>2026-05-03T15:35:56.263Z</time></trkpt><trkpt lat="39.9333983" lon="18.1173067"><ele>37.0</ele><time>2026-05-03T15:35:58.264Z</time></trkpt><trkpt lat="39.933405" lon="18.1174067"><ele>37.0</ele><time>2026-05-03T15:35:59.264Z</time></trkpt><trkpt lat="39.9334067" lon="18.117505"><ele>37.0</ele><time>2026-05-03T15:36:00.264Z</time></trkpt><trkpt lat="39.9334" lon="18.1175933"><ele>37.16666666666667</ele><time>2026-05-03T15:36:01.263Z</time></trkpt><trkpt lat="39.9333967" lon="18.1176783"><ele>37.333333333333336</ele><time>2026-05-03T15:36:02.264Z</time></trkpt><trkpt lat="39.9333683" lon="18.1178283"><ele>37.5</ele><time>2026-05-03T15:36:04.264Z</time></trkpt><trkpt lat="39.93334" lon="18.1179033"><ele>37.666666666666664</ele><time>2026-05-03T15:36:05.263Z</time></trkpt><trkpt lat="39.933295" lon="18.1179717"><ele>37.83333333333333</ele><time>2026-05-03T15:36:06.263Z</time></trkpt><trkpt lat="39.933235" lon="18.1180367"><ele>38.0</ele><time>2026-05-03T15:36:07.264Z</time></trkpt><trkpt lat="39.9331717" lon="18.1181117"><ele>37.6</ele><time>2026-05-03T15:36:08.264Z</time></trkpt><trkpt lat="39.9330983" lon="18.118185"><ele>37.199999999999996</ele><time>2026-05-03T15:36:09.264Z</time></trkpt><trkpt lat="39.9330183" lon="18.1182583"><ele>36.8</ele><time>2026-05-03T15:36:10.263Z</time></trkpt><trkpt lat="39.93294" lon="18.1183383"><ele>36.4</ele><time>2026-05-03T15:36:11.264Z</time></trkpt><trkpt lat="39.93287" lon="18.1184317"><ele>36.0</ele><time>2026-05-03T15:36:12.264Z</time></trkpt><trkpt lat="39.9328033" lon="18.1185467"><ele>36.0</ele><time>2026-05-03T15:36:13.264Z</time></trkpt><trkpt lat="39.9327267" lon="18.118685"><ele>36.0</ele><time>2026-05-03T15:36:14.264Z</time></trkpt><trkpt lat="39.93265" lon="18.1188317"><ele>36.0</ele><time>2026-05-03T15:36:15.264Z</time></trkpt><trkpt lat="39.9325817" lon="18.118975"><ele>36.0</ele><time>2026-05-03T15:36:16.264Z</time></trkpt><trkpt lat="39.9325133" lon="18.1191067"><ele>35.666666666666664</ele><time>2026-05-03T15:36:17.264Z</time></trkpt><trkpt lat="39.9324533" lon="18.1192317"><ele>35.333333333333336</ele><time>2026-05-03T15:36:18.264Z</time></trkpt><trkpt lat="39.9324067" lon="18.1193417"><ele>35.0</ele><time>2026-05-03T15:36:19.263Z</time></trkpt><trkpt lat="39.9323617" lon="18.11943"><ele>34.66666666666667</ele><time>2026-05-03T15:36:20.264Z</time></trkpt><trkpt lat="39.9323083" lon="18.1194917"><ele>34.333333333333336</ele><time>2026-05-03T15:36:21.264Z</time></trkpt><trkpt lat="39.9322517" lon="18.119555"><ele>34.0</ele><time>2026-05-03T15:36:22.263Z</time></trkpt><trkpt lat="39.9321967" lon="18.1196267"><ele>33.99999999999999</ele><time>2026-05-03T15:36:23.263Z</time></trkpt><trkpt lat="39.9321367" lon="18.119685"><ele>34.0</ele><time>2026-05-03T15:36:24.264Z</time></trkpt><trkpt lat="39.9320833" lon="18.1197383"><ele>34.0</ele><time>2026-05-03T15:36:25.264Z</time></trkpt><trkpt lat="39.93202" lon="18.1197833"><ele>34.0</ele><time>2026-05-03T15:36:26.264Z</time></trkpt><trkpt lat="39.9319767" lon="18.1198633"><ele>34.0</ele><time>2026-05-03T15:36:27.264Z</time></trkpt><trkpt lat="39.93191" lon="18.119915"><ele>33.99999999999999</ele><time>2026-05-03T15:36:28.264Z</time></trkpt><trkpt lat="39.93184" lon="18.1199717"><ele>34.0</ele><time>2026-05-03T15:36:29.264Z</time></trkpt><trkpt lat="39.9317683" lon="18.120025"><ele>34.0</ele><time>2026-05-03T15:36:30.263Z</time></trkpt><trkpt lat="39.9316967" lon="18.1200883"><ele>34.0</ele><time>2026-05-03T15:36:31.263Z</time></trkpt><trkpt lat="39.9316133" lon="18.120145"><ele>34.0</ele><time>2026-05-03T15:36:32.263Z</time></trkpt><trkpt lat="39.931535" lon="18.1202283"><ele>34.0</ele><time>2026-05-03T15:36:33.264Z</time></trkpt><trkpt lat="39.93145" lon="18.1202983"><ele>34.0</ele><time>2026-05-03T15:36:34.264Z</time></trkpt><trkpt lat="39.9313583" lon="18.1203733"><ele>34.0</ele><time>2026-05-03T15:36:35.263Z</time></trkpt><trkpt lat="39.9312667" lon="18.1204533"><ele>34.0</ele><time>2026-05-03T15:36:36.264Z</time></trkpt><trkpt lat="39.93117" lon="18.1205233"><ele>34.0</ele><time>2026-05-03T15:36:37.263Z</time></trkpt><trkpt lat="39.9310733" lon="18.1205983"><ele>34.0</ele><time>2026-05-03T15:36:38.264Z</time></trkpt><trkpt lat="39.93098" lon="18.1206667"><ele>34.0</ele><time>2026-05-03T15:36:39.263Z</time></trkpt><trkpt lat="39.9308933" lon="18.1207333"><ele>34.2</ele><time>2026-05-03T15:36:40.263Z</time></trkpt><trkpt lat="39.9308083" lon="18.1208"><ele>34.4</ele><time>2026-05-03T15:36:41.264Z</time></trkpt><trkpt lat="39.9307217" lon="18.1208683"><ele>34.6</ele><time>2026-05-03T15:36:42.264Z</time></trkpt><trkpt lat="39.9306317" lon="18.1209283"><ele>34.8</ele><time>2026-05-03T15:36:43.264Z</time></trkpt><trkpt lat="39.93054" lon="18.1209983"><ele>35.0</ele><time>2026-05-03T15:36:44.264Z</time></trkpt><trkpt lat="39.9304367" lon="18.1210383"><ele>35.0</ele><time>2026-05-03T15:36:45.264Z</time></trkpt><trkpt lat="39.9303433" lon="18.121085"><ele>35.0</ele><time>2026-05-03T15:36:46.264Z</time></trkpt><trkpt lat="39.93027" lon="18.12114"><ele>35.0</ele><time>2026-05-03T15:36:47.264Z</time></trkpt><trkpt lat="39.9302017" lon="18.1211733"><ele>35.0</ele><time>2026-05-03T15:36:48.264Z</time></trkpt><trkpt lat="39.930145" lon="18.1212267"><ele>35.0</ele><time>2026-05-03T15:36:49.263Z</time></trkpt><trkpt lat="39.930075" lon="18.12126"><ele>35.0</ele><time>2026-05-03T15:36:50.264Z</time></trkpt><trkpt lat="39.9300017" lon="18.1213133"><ele>35.0</ele><time>2026-05-03T15:36:51.264Z</time></trkpt><trkpt lat="39.9299117" lon="18.1213783"><ele>35.0</ele><time>2026-05-03T15:36:52.264Z</time></trkpt><trkpt lat="39.92981" lon="18.1214733"><ele>35.0</ele><time>2026-05-03T15:36:53.264Z</time></trkpt><trkpt lat="39.9296967" lon="18.121565"><ele>35.0</ele><time>2026-05-03T15:36:54.263Z</time></trkpt><trkpt lat="39.929595" lon="18.1216483"><ele>35.0</ele><time>2026-05-03T15:36:55.264Z</time></trkpt><trkpt lat="39.9295083" lon="18.1217233"><ele>35.0</ele><time>2026-05-03T15:36:56.263Z</time></trkpt><trkpt lat="39.9294317" lon="18.121795"><ele>35.0</ele><time>2026-05-03T15:36:57.263Z</time></trkpt><trkpt lat="39.92936" lon="18.12186"><ele>35.0</ele><time>2026-05-03T15:36:58.263Z</time></trkpt><trkpt lat="39.9292983" lon="18.1219233"><ele>35.0</ele><time>2026-05-03T15:36:59.263Z</time></trkpt><trkpt lat="39.9292367" lon="18.1219833"><ele>35.0</ele><time>2026-05-03T15:37:00.263Z</time></trkpt><trkpt lat="39.92919" lon="18.1220433"><ele>34.8</ele><time>2026-05-03T15:37:01.264Z</time></trkpt><trkpt lat="39.9291483" lon="18.1221233"><ele>34.6</ele><time>2026-05-03T15:37:03.263Z</time></trkpt><trkpt lat="39.929125" lon="18.1222383"><ele>34.4</ele><time>2026-05-03T15:37:05.263Z</time></trkpt><trkpt lat="39.92904" lon="18.122385"><ele>34.2</ele><time>2026-05-03T15:37:07.264Z</time></trkpt><trkpt lat="39.9289883" lon="18.1224783"><ele>34.0</ele><time>2026-05-03T15:37:08.263Z</time></trkpt><trkpt lat="39.9289333" lon="18.1225733"><ele>33.66666666666667</ele><time>2026-05-03T15:37:09.263Z</time></trkpt><trkpt lat="39.92888" lon="18.1226567"><ele>33.333333333333336</ele><time>2026-05-03T15:37:10.263Z</time></trkpt><trkpt lat="39.92883" lon="18.1227383"><ele>33.0</ele><time>2026-05-03T15:37:11.264Z</time></trkpt><trkpt lat="39.9287883" lon="18.1228217"><ele>32.666666666666664</ele><time>2026-05-03T15:37:12.264Z</time></trkpt><trkpt lat="39.928695" lon="18.1229233"><ele>32.33333333333333</ele><time>2026-05-03T15:37:14.264Z</time></trkpt><trkpt lat="39.9286267" lon="18.1229567"><ele>32.0</ele><time>2026-05-03T15:37:15.264Z</time></trkpt><trkpt lat="39.9285583" lon="18.123015"><ele>32.0</ele><time>2026-05-03T15:37:16.264Z</time></trkpt><trkpt lat="39.928485" lon="18.1230883"><ele>32.0</ele><time>2026-05-03T15:37:17.264Z</time></trkpt><trkpt lat="39.9284183" lon="18.1231633"><ele>32.0</ele><time>2026-05-03T15:37:18.264Z</time></trkpt><trkpt lat="39.9283467" lon="18.12324"><ele>32.0</ele><time>2026-05-03T15:37:19.264Z</time></trkpt><trkpt lat="39.9282667" lon="18.1233167"><ele>32.0</ele><time>2026-05-03T15:37:20.263Z</time></trkpt><trkpt lat="39.928185" lon="18.123395"><ele>32.2</ele><time>2026-05-03T15:37:21.264Z</time></trkpt><trkpt lat="39.9281" lon="18.123465"><ele>32.400000000000006</ele><time>2026-05-03T15:37:22.263Z</time></trkpt><trkpt lat="39.92801" lon="18.1235183"><ele>32.599999999999994</ele><time>2026-05-03T15:37:23.264Z</time></trkpt><trkpt lat="39.9279183" lon="18.1235667"><ele>32.8</ele><time>2026-05-03T15:37:24.263Z</time></trkpt><trkpt lat="39.92783" lon="18.1236267"><ele>33.0</ele><time>2026-05-03T15:37:25.264Z</time></trkpt><trkpt lat="39.927735" lon="18.1236783"><ele>33.0</ele><time>2026-05-03T15:37:26.264Z</time></trkpt><trkpt lat="39.9276367" lon="18.1237317"><ele>33.0</ele><time>2026-05-03T15:37:27.264Z</time></trkpt><trkpt lat="39.9275383" lon="18.12378"><ele>33.0</ele><time>2026-05-03T15:37:28.264Z</time></trkpt><trkpt lat="39.9274467" lon="18.12383"><ele>33.0</ele><time>2026-05-03T15:37:29.264Z</time></trkpt><trkpt lat="39.92735" lon="18.12384"><ele>33.0</ele><time>2026-05-03T15:37:30.263Z</time></trkpt><trkpt lat="39.9272683" lon="18.1238833"><ele>33.0</ele><time>2026-05-03T15:37:31.264Z</time></trkpt><trkpt lat="39.9271733" lon="18.1239017"><ele>33.0</ele><time>2026-05-03T15:37:32.264Z</time></trkpt><trkpt lat="39.9270783" lon="18.1239367"><ele>33.0</ele><time>2026-05-03T15:37:33.264Z</time></trkpt><trkpt lat="39.9269833" lon="18.1239983"><ele>33.0</ele><time>2026-05-03T15:37:34.264Z</time></trkpt><trkpt lat="39.9268817" lon="18.1240417"><ele>33.0</ele><time>2026-05-03T15:37:35.264Z</time></trkpt><trkpt lat="39.9267767" lon="18.1240867"><ele>32.75</ele><time>2026-05-03T15:37:36.264Z</time></trkpt><trkpt lat="39.9266733" lon="18.12414"><ele>32.5</ele><time>2026-05-03T15:37:37.264Z</time></trkpt><trkpt lat="39.926565" lon="18.12419"><ele>32.25</ele><time>2026-05-03T15:37:38.263Z</time></trkpt><trkpt lat="39.9264533" lon="18.1242383"><ele>32.0</ele><time>2026-05-03T15:37:39.264Z</time></trkpt><trkpt lat="39.92634" lon="18.1242917"><ele>32.0</ele><time>2026-05-03T15:37:40.264Z</time></trkpt><trkpt lat="39.9262267" lon="18.1243433"><ele>32.0</ele><time>2026-05-03T15:37:41.264Z</time></trkpt><trkpt lat="39.9261133" lon="18.124405"><ele>32.0</ele><time>2026-05-03T15:37:42.263Z</time></trkpt><trkpt lat="39.9260017" lon="18.12446"><ele>32.0</ele><time>2026-05-03T15:37:43.263Z</time></trkpt><trkpt lat="39.9258967" lon="18.1245267"><ele>32.0</ele><time>2026-05-03T15:37:44.263Z</time></trkpt><trkpt lat="39.9257883" lon="18.1245767"><ele>32.0</ele><time>2026-05-03T15:37:45.264Z</time></trkpt><trkpt lat="39.925675" lon="18.1246167"><ele>32.0</ele><time>2026-05-03T15:37:46.263Z</time></trkpt><trkpt lat="39.92556" lon="18.124655"><ele>32.0</ele><time>2026-05-03T15:37:47.264Z</time></trkpt><trkpt lat="39.9254483" lon="18.124695"><ele>32.0</ele><time>2026-05-03T15:37:48.264Z</time></trkpt><trkpt lat="39.9253383" lon="18.12472"><ele>32.0</ele><time>2026-05-03T15:37:49.263Z</time></trkpt><trkpt lat="39.9252333" lon="18.12473"><ele>32.0</ele><time>2026-05-03T15:37:50.264Z</time></trkpt><trkpt lat="39.9251383" lon="18.1247267"><ele>32.0</ele><time>2026-05-03T15:37:51.263Z</time></trkpt><trkpt lat="39.9250533" lon="18.1247367"><ele>32.0</ele><time>2026-05-03T15:37:52.263Z</time></trkpt><trkpt lat="39.92498" lon="18.1247417"><ele>32.166666666666664</ele><time>2026-05-03T15:37:53.263Z</time></trkpt><trkpt lat="39.9249117" lon="18.12475"><ele>32.33333333333333</ele><time>2026-05-03T15:37:54.263Z</time></trkpt><trkpt lat="39.924845" lon="18.1247533"><ele>32.5</ele><time>2026-05-03T15:37:55.264Z</time></trkpt><trkpt lat="39.92477" lon="18.1247467"><ele>32.666666666666664</ele><time>2026-05-03T15:37:56.264Z</time></trkpt><trkpt lat="39.9246933" lon="18.1247483"><ele>32.833333333333336</ele><time>2026-05-03T15:37:57.263Z</time></trkpt><trkpt lat="39.924595" lon="18.1247233"><ele>33.0</ele><time>2026-05-03T15:37:59.264Z</time></trkpt><trkpt lat="39.924505" lon="18.12469"><ele>33.0</ele><time>2026-05-03T15:38:04.263Z</time></trkpt><trkpt lat="39.9244083" lon="18.1247"><ele>33.0</ele><time>2026-05-03T15:38:06.264Z</time></trkpt><trkpt lat="39.9243517" lon="18.1247383"><ele>33.0</ele><time>2026-05-03T15:38:07.264Z</time></trkpt><trkpt lat="39.924285" lon="18.12478"><ele>33.0</ele><time>2026-05-03T15:38:08.263Z</time></trkpt><trkpt lat="39.9242217" lon="18.12485"><ele>33.0</ele><time>2026-05-03T15:38:09.263Z</time></trkpt><trkpt lat="39.9241583" lon="18.1249233"><ele>33.0</ele><time>2026-05-03T15:38:10.264Z</time></trkpt><trkpt lat="39.9240883" lon="18.1250033"><ele>32.6</ele><time>2026-05-03T15:38:11.263Z</time></trkpt><trkpt lat="39.92402" lon="18.1250867"><ele>32.199999999999996</ele><time>2026-05-03T15:38:12.264Z</time></trkpt><trkpt lat="39.9239517" lon="18.1251683"><ele>31.8</ele><time>2026-05-03T15:38:13.264Z</time></trkpt><trkpt lat="39.92387" lon="18.12524"><ele>31.4</ele><time>2026-05-03T15:38:14.263Z</time></trkpt><trkpt lat="39.9238" lon="18.1253267"><ele>31.0</ele><time>2026-05-03T15:38:15.264Z</time></trkpt><trkpt lat="39.923735" lon="18.1254033"><ele>31.000000000000004</ele><time>2026-05-03T15:38:16.264Z</time></trkpt><trkpt lat="39.9236733" lon="18.1254667"><ele>31.0</ele><time>2026-05-03T15:38:17.263Z</time></trkpt><trkpt lat="39.9236317" lon="18.1255483"><ele>31.0</ele><time>2026-05-03T15:38:18.264Z</time></trkpt><trkpt lat="39.9235967" lon="18.1256417"><ele>31.0</ele><time>2026-05-03T15:38:19.264Z</time></trkpt><trkpt lat="39.9235633" lon="18.125725"><ele>31.000000000000004</ele><time>2026-05-03T15:38:20.263Z</time></trkpt><trkpt lat="39.923535" lon="18.12582"><ele>31.0</ele><time>2026-05-03T15:38:21.264Z</time></trkpt><trkpt lat="39.923495" lon="18.1259167"><ele>31.200000000000003</ele><time>2026-05-03T15:38:22.264Z</time></trkpt><trkpt lat="39.9234517" lon="18.1260167"><ele>31.400000000000002</ele><time>2026-05-03T15:38:23.264Z</time></trkpt><trkpt lat="39.9233933" lon="18.1261017"><ele>31.6</ele><time>2026-05-03T15:38:24.264Z</time></trkpt><trkpt lat="39.9233317" lon="18.1262"><ele>31.8</ele><time>2026-05-03T15:38:25.263Z</time></trkpt><trkpt lat="39.9232533" lon="18.12629"><ele>32.0</ele><time>2026-05-03T15:38:26.263Z</time></trkpt><trkpt lat="39.9231883" lon="18.1263833"><ele>31.999999999999996</ele><time>2026-05-03T15:38:27.264Z</time></trkpt><trkpt lat="39.9231217" lon="18.1264583"><ele>32.0</ele><time>2026-05-03T15:38:28.264Z</time></trkpt><trkpt lat="39.923065" lon="18.1265417"><ele>32.0</ele><time>2026-05-03T15:38:29.264Z</time></trkpt><trkpt lat="39.9229967" lon="18.1266"><ele>32.0</ele><time>2026-05-03T15:38:30.263Z</time></trkpt><trkpt lat="39.922925" lon="18.12666"><ele>31.999999999999996</ele><time>2026-05-03T15:38:31.263Z</time></trkpt><trkpt lat="39.9228383" lon="18.1266933"><ele>32.0</ele><time>2026-05-03T15:38:32.264Z</time></trkpt><trkpt lat="39.922745" lon="18.1267167"><ele>31.5</ele><time>2026-05-03T15:38:33.264Z</time></trkpt><trkpt lat="39.922645" lon="18.1267217"><ele>31.0</ele><time>2026-05-03T15:38:34.264Z</time></trkpt><trkpt lat="39.9225383" lon="18.1266933"><ele>30.5</ele><time>2026-05-03T15:38:35.264Z</time></trkpt><trkpt lat="39.9224233" lon="18.1266733"><ele>30.0</ele><time>2026-05-03T15:38:36.264Z</time></trkpt><trkpt lat="39.9223" lon="18.1266483"><ele>30.0</ele><time>2026-05-03T15:38:37.264Z</time></trkpt><trkpt lat="39.922185" lon="18.1265883"><ele>30.0</ele><time>2026-05-03T15:38:38.264Z</time></trkpt><trkpt lat="39.9220667" lon="18.1265633"><ele>30.0</ele><time>2026-05-03T15:38:39.263Z</time></trkpt><trkpt lat="39.9219617" lon="18.126515"><ele>30.0</ele><time>2026-05-03T15:38:40.264Z</time></trkpt><trkpt lat="39.9218533" lon="18.1264567"><ele>30.5</ele><time>2026-05-03T15:38:41.264Z</time></trkpt><trkpt lat="39.9217433" lon="18.1264017"><ele>31.0</ele><time>2026-05-03T15:38:42.263Z</time></trkpt><trkpt lat="39.921635" lon="18.1263383"><ele>31.5</ele><time>2026-05-03T15:38:43.264Z</time></trkpt><trkpt lat="39.9215233" lon="18.1262883"><ele>32.0</ele><time>2026-05-03T15:38:44.264Z</time></trkpt><trkpt lat="39.9214167" lon="18.126225"><ele>32.0</ele><time>2026-05-03T15:38:45.263Z</time></trkpt><trkpt lat="39.9213083" lon="18.1261583"><ele>32.0</ele><time>2026-05-03T15:38:46.264Z</time></trkpt><trkpt lat="39.9212017" lon="18.1260883"><ele>32.0</ele><time>2026-05-03T15:38:47.264Z</time></trkpt><trkpt lat="39.9210933" lon="18.1260283"><ele>32.0</ele><time>2026-05-03T15:38:48.264Z</time></trkpt><trkpt lat="39.920995" lon="18.1259683"><ele>31.6</ele><time>2026-05-03T15:38:49.263Z</time></trkpt><trkpt lat="39.9208983" lon="18.1259183"><ele>31.200000000000003</ele><time>2026-05-03T15:38:50.264Z</time></trkpt><trkpt lat="39.9207967" lon="18.1258967"><ele>30.8</ele><time>2026-05-03T15:38:51.264Z</time></trkpt><trkpt lat="39.9206867" lon="18.125905"><ele>30.4</ele><time>2026-05-03T15:38:52.264Z</time></trkpt><trkpt lat="39.92058" lon="18.1258967"><ele>30.0</ele><time>2026-05-03T15:38:53.264Z</time></trkpt><trkpt lat="39.9204767" lon="18.1258683"><ele>30.0</ele><time>2026-05-03T15:38:54.264Z</time></trkpt><trkpt lat="39.920375" lon="18.1258417"><ele>30.0</ele><time>2026-05-03T15:38:55.264Z</time></trkpt><trkpt lat="39.9202767" lon="18.1258133"><ele>30.0</ele><time>2026-05-03T15:38:56.263Z</time></trkpt><trkpt lat="39.920185" lon="18.1257683"><ele>30.0</ele><time>2026-05-03T15:38:57.264Z</time></trkpt><trkpt lat="39.9200917" lon="18.1257133"><ele>30.0</ele><time>2026-05-03T15:38:58.264Z</time></trkpt><trkpt lat="39.920005" lon="18.1256367"><ele>30.0</ele><time>2026-05-03T15:38:59.263Z</time></trkpt><trkpt lat="39.919915" lon="18.125555"><ele>30.0</ele><time>2026-05-03T15:39:00.264Z</time></trkpt><trkpt lat="39.919825" lon="18.1254683"><ele>30.0</ele><time>2026-05-03T15:39:01.264Z</time></trkpt><trkpt lat="39.919725" lon="18.1253917"><ele>30.0</ele><time>2026-05-03T15:39:02.264Z</time></trkpt><trkpt lat="39.9196333" lon="18.1252983"><ele>30.0</ele><time>2026-05-03T15:39:03.263Z</time></trkpt><trkpt lat="39.919535" lon="18.12521"><ele>30.0</ele><time>2026-05-03T15:39:04.264Z</time></trkpt><trkpt lat="39.919435" lon="18.125115"><ele>30.0</ele><time>2026-05-03T15:39:05.263Z</time></trkpt><trkpt lat="39.9193383" lon="18.1249983"><ele>30.0</ele><time>2026-05-03T15:39:06.264Z</time></trkpt><trkpt lat="39.919235" lon="18.1248683"><ele>29.0</ele><time>2026-05-03T15:39:07.263Z</time></trkpt><trkpt lat="39.9191283" lon="18.1246967"><ele>28.0</ele><time>2026-05-03T15:39:08.264Z</time></trkpt><trkpt lat="39.919" lon="18.1245167"><ele>27.0</ele><time>2026-05-03T15:39:09.263Z</time></trkpt><trkpt lat="39.9188817" lon="18.1243317"><ele>27.0</ele><time>2026-05-03T15:39:10.263Z</time></trkpt><trkpt lat="39.9187783" lon="18.1241783"><ele>27.000000000000004</ele><time>2026-05-03T15:39:11.264Z</time></trkpt><trkpt lat="39.9186983" lon="18.1240583"><ele>27.000000000000004</ele><time>2026-05-03T15:39:12.263Z</time></trkpt><trkpt lat="39.918635" lon="18.1239667"><ele>27.0</ele><time>2026-05-03T15:39:13.264Z</time></trkpt><trkpt lat="39.91859" lon="18.1238883"><ele>27.0</ele><time>2026-05-03T15:39:14.263Z</time></trkpt><trkpt lat="39.91855" lon="18.1237683"><ele>27.166666666666668</ele><time>2026-05-03T15:39:16.264Z</time></trkpt><trkpt lat="39.9185267" lon="18.1236817"><ele>27.333333333333336</ele><time>2026-05-03T15:39:18.263Z</time></trkpt><trkpt lat="39.9184783" lon="18.1235517"><ele>27.5</ele><time>2026-05-03T15:39:20.264Z</time></trkpt><trkpt lat="39.9184333" lon="18.1234917"><ele>27.666666666666668</ele><time>2026-05-03T15:39:21.264Z</time></trkpt><trkpt lat="39.9183783" lon="18.1234367"><ele>27.833333333333336</ele><time>2026-05-03T15:39:22.263Z</time></trkpt><trkpt lat="39.9183033" lon="18.1233967"><ele>28.0</ele><time>2026-05-03T15:39:23.263Z</time></trkpt><trkpt lat="39.91822" lon="18.1233533"><ele>27.799999999999997</ele><time>2026-05-03T15:39:24.264Z</time></trkpt><trkpt lat="39.9181317" lon="18.123335"><ele>27.599999999999998</ele><time>2026-05-03T15:39:25.264Z</time></trkpt><trkpt lat="39.9180417" lon="18.12331"><ele>27.400000000000002</ele><time>2026-05-03T15:39:26.264Z</time></trkpt><trkpt lat="39.9179517" lon="18.123265"><ele>27.200000000000003</ele><time>2026-05-03T15:39:27.263Z</time></trkpt><trkpt lat="39.91786" lon="18.12322"><ele>27.0</ele><time>2026-05-03T15:39:28.264Z</time></trkpt><trkpt lat="39.9177883" lon="18.1231433"><ele>27.0</ele><time>2026-05-03T15:39:29.264Z</time></trkpt><trkpt lat="39.9177" lon="18.1230867"><ele>27.0</ele><time>2026-05-03T15:39:30.264Z</time></trkpt><trkpt lat="39.9176283" lon="18.12299"><ele>27.0</ele><time>2026-05-03T15:39:31.264Z</time></trkpt><trkpt lat="39.9175417" lon="18.1228833"><ele>27.0</ele><time>2026-05-03T15:39:32.264Z</time></trkpt><trkpt lat="39.9174467" lon="18.12276"><ele>26.75</ele><time>2026-05-03T15:39:33.264Z</time></trkpt><trkpt lat="39.9173567" lon="18.1226317"><ele>26.5</ele><time>2026-05-03T15:39:34.263Z</time></trkpt><trkpt lat="39.91727" lon="18.1225067"><ele>26.25</ele><time>2026-05-03T15:39:35.264Z</time></trkpt><trkpt lat="39.917185" lon="18.1223917"><ele>26.0</ele><time>2026-05-03T15:39:36.264Z</time></trkpt><trkpt lat="39.9171033" lon="18.1222767"><ele>26.5</ele><time>2026-05-03T15:39:37.263Z</time></trkpt><trkpt lat="39.9170167" lon="18.1221633"><ele>27.0</ele><time>2026-05-03T15:39:38.264Z</time></trkpt><trkpt lat="39.9169317" lon="18.1220217"><ele>27.5</ele><time>2026-05-03T15:39:39.263Z</time></trkpt><trkpt lat="39.91684" lon="18.1218817"><ele>28.0</ele><time>2026-05-03T15:39:40.264Z</time></trkpt><trkpt lat="39.9167533" lon="18.1217583"><ele>27.5</ele><time>2026-05-03T15:39:41.263Z</time></trkpt><trkpt lat="39.9166783" lon="18.1216417"><ele>27.0</ele><time>2026-05-03T15:39:42.264Z</time></trkpt><trkpt lat="39.9165967" lon="18.1215217"><ele>26.5</ele><time>2026-05-03T15:39:43.264Z</time></trkpt><trkpt lat="39.916515" lon="18.12141"><ele>26.0</ele><time>2026-05-03T15:39:44.264Z</time></trkpt><trkpt lat="39.9164433" lon="18.121305"><ele>26.0</ele><time>2026-05-03T15:39:45.264Z</time></trkpt><trkpt lat="39.916385" lon="18.1212017"><ele>26.0</ele><time>2026-05-03T15:39:46.264Z</time></trkpt><trkpt lat="39.9163133" lon="18.1211333"><ele>26.0</ele><time>2026-05-03T15:39:47.264Z</time></trkpt><trkpt lat="39.9162433" lon="18.121075"><ele>26.0</ele><time>2026-05-03T15:39:48.263Z</time></trkpt><trkpt lat="39.9161583" lon="18.121055"><ele>26.0</ele><time>2026-05-03T15:39:49.264Z</time></trkpt><trkpt lat="39.9160583" lon="18.1210483"><ele>25.999999999999996</ele><time>2026-05-03T15:39:50.263Z</time></trkpt><trkpt lat="39.9159567" lon="18.1210617"><ele>26.0</ele><time>2026-05-03T15:39:51.263Z</time></trkpt><trkpt lat="39.91587" lon="18.1210567"><ele>26.0</ele><time>2026-05-03T15:39:52.264Z</time></trkpt><trkpt lat="39.9158" lon="18.1210467"><ele>26.0</ele><time>2026-05-03T15:39:53.264Z</time></trkpt><trkpt lat="39.91573" lon="18.12106"><ele>25.999999999999996</ele><time>2026-05-03T15:40:02.263Z</time></trkpt><trkpt lat="39.9156383" lon="18.1210667"><ele>26.0</ele><time>2026-05-03T15:40:04.264Z</time></trkpt><trkpt lat="39.9155267" lon="18.12105"><ele>26.200000000000003</ele><time>2026-05-03T15:40:06.264Z</time></trkpt><trkpt lat="39.915425" lon="18.1210383"><ele>26.400000000000002</ele><time>2026-05-03T15:40:08.263Z</time></trkpt><trkpt lat="39.9153217" lon="18.1210383"><ele>26.6</ele><time>2026-05-03T15:40:10.262Z</time></trkpt><trkpt lat="39.9151967" lon="18.121075"><ele>26.8</ele><time>2026-05-03T15:40:12.263Z</time></trkpt><trkpt lat="39.9151267" lon="18.1210983"><ele>27.0</ele><time>2026-05-03T15:40:13.263Z</time></trkpt><trkpt lat="39.9150617" lon="18.121135"><ele>26.6</ele><time>2026-05-03T15:40:14.262Z</time></trkpt><trkpt lat="39.9149967" lon="18.12119"><ele>26.200000000000003</ele><time>2026-05-03T15:40:15.263Z</time></trkpt><trkpt lat="39.9149183" lon="18.1212467"><ele>25.8</ele><time>2026-05-03T15:40:16.263Z</time></trkpt><trkpt lat="39.91484" lon="18.1213333"><ele>25.4</ele><time>2026-05-03T15:40:17.263Z</time></trkpt><trkpt lat="39.9147483" lon="18.1214117"><ele>25.0</ele><time>2026-05-03T15:40:18.262Z</time></trkpt><trkpt lat="39.9146633" lon="18.121495"><ele>25.166666666666668</ele><time>2026-05-03T15:40:19.263Z</time></trkpt><trkpt lat="39.9145867" lon="18.12157"><ele>25.333333333333336</ele><time>2026-05-03T15:40:20.263Z</time></trkpt><trkpt lat="39.91451" lon="18.1216383"><ele>25.5</ele><time>2026-05-03T15:40:21.263Z</time></trkpt><trkpt lat="39.9144467" lon="18.121705"><ele>25.666666666666664</ele><time>2026-05-03T15:40:22.263Z</time></trkpt><trkpt lat="39.9143833" lon="18.1217583"><ele>25.833333333333332</ele><time>2026-05-03T15:40:23.262Z</time></trkpt><trkpt lat="39.9143183" lon="18.1217967"><ele>26.0</ele><time>2026-05-03T15:40:24.263Z</time></trkpt><trkpt lat="39.9142567" lon="18.1218233"><ele>25.6</ele><time>2026-05-03T15:40:25.262Z</time></trkpt><trkpt lat="39.9141583" lon="18.1219033"><ele>25.200000000000003</ele><time>2026-05-03T15:40:27.263Z</time></trkpt><trkpt lat="39.9141067" lon="18.1220233"><ele>24.799999999999997</ele><time>2026-05-03T15:40:29.262Z</time></trkpt><trkpt lat="39.9140833" lon="18.1221833"><ele>24.4</ele><time>2026-05-03T15:40:31.263Z</time></trkpt><trkpt lat="39.91407" lon="18.12228"><ele>24.0</ele><time>2026-05-03T15:40:32.263Z</time></trkpt><trkpt lat="39.9140567" lon="18.1223783"><ele>24.0</ele><time>2026-05-03T15:40:33.263Z</time></trkpt><trkpt lat="39.914045" lon="18.12248"><ele>24.0</ele><time>2026-05-03T15:40:34.263Z</time></trkpt><trkpt lat="39.9140333" lon="18.122575"><ele>24.0</ele><time>2026-05-03T15:40:35.263Z</time></trkpt><trkpt lat="39.9140167" lon="18.1226567"><ele>24.0</ele><time>2026-05-03T15:40:36.263Z</time></trkpt><trkpt lat="39.91395" lon="18.122765"><ele>24.0</ele><time>2026-05-03T15:40:38.263Z</time></trkpt><trkpt lat="39.91383" lon="18.1227817"><ele>24.0</ele><time>2026-05-03T15:40:40.263Z</time></trkpt><trkpt lat="39.91376" lon="18.1227783"><ele>24.0</ele><time>2026-05-03T15:40:41.263Z</time></trkpt><trkpt lat="39.9136933" lon="18.1227833"><ele>24.0</ele><time>2026-05-03T15:40:42.263Z</time></trkpt><trkpt lat="39.9136317" lon="18.1228017"><ele>24.0</ele><time>2026-05-03T15:40:43.262Z</time></trkpt><trkpt lat="39.9135617" lon="18.1228833"><ele>24.0</ele><time>2026-05-03T15:40:45.263Z</time></trkpt><trkpt lat="39.9134733" lon="18.1229283"><ele>24.0</ele><time>2026-05-03T15:40:50.263Z</time></trkpt><trkpt lat="39.9133667" lon="18.1230133"><ele>24.0</ele><time>2026-05-03T15:40:52.262Z</time></trkpt><trkpt lat="39.9133167" lon="18.1230767"><ele>23.999999999999996</ele><time>2026-05-03T15:40:53.263Z</time></trkpt><trkpt lat="39.9132567" lon="18.1231317"><ele>24.0</ele><time>2026-05-03T15:40:54.263Z</time></trkpt><trkpt lat="39.91318" lon="18.12318"><ele>24.0</ele><time>2026-05-03T15:40:55.263Z</time></trkpt><trkpt lat="39.9131033" lon="18.123215"><ele>24.0</ele><time>2026-05-03T15:40:56.262Z</time></trkpt><trkpt lat="39.91303" lon="18.123235"><ele>24.0</ele><time>2026-05-03T15:40:57.263Z</time></trkpt><trkpt lat="39.912965" lon="18.1232433"><ele>23.999999999999996</ele><time>2026-05-03T15:40:58.263Z</time></trkpt><trkpt lat="39.9129" lon="18.1232233"><ele>24.0</ele><time>2026-05-03T15:40:59.262Z</time></trkpt><trkpt lat="39.9128433" lon="18.1231667"><ele>24.2</ele><time>2026-05-03T15:41:00.263Z</time></trkpt><trkpt lat="39.912765" lon="18.1231317"><ele>24.4</ele><time>2026-05-03T15:41:01.263Z</time></trkpt><trkpt lat="39.9126833" lon="18.123065"><ele>24.6</ele><time>2026-05-03T15:41:02.262Z</time></trkpt><trkpt lat="39.9125767" lon="18.123045"><ele>24.8</ele><time>2026-05-03T15:41:03.263Z</time></trkpt><trkpt lat="39.912455" lon="18.1230183"><ele>25.0</ele><time>2026-05-03T15:41:04.262Z</time></trkpt><trkpt lat="39.912335" lon="18.1229817"><ele>24.4</ele><time>2026-05-03T15:41:05.262Z</time></trkpt><trkpt lat="39.9122217" lon="18.122955"><ele>23.8</ele><time>2026-05-03T15:41:06.263Z</time></trkpt><trkpt lat="39.9121233" lon="18.1229333"><ele>23.200000000000003</ele><time>2026-05-03T15:41:07.263Z</time></trkpt><trkpt lat="39.9120333" lon="18.1229267"><ele>22.6</ele><time>2026-05-03T15:41:08.263Z</time></trkpt><trkpt lat="39.9119417" lon="18.1229333"><ele>22.0</ele><time>2026-05-03T15:41:09.262Z</time></trkpt><trkpt lat="39.9118483" lon="18.1229533"><ele>22.0</ele><time>2026-05-03T15:41:10.263Z</time></trkpt><trkpt lat="39.9117617" lon="18.122985"><ele>22.0</ele><time>2026-05-03T15:41:11.263Z</time></trkpt><trkpt lat="39.9116767" lon="18.1230117"><ele>22.0</ele><time>2026-05-03T15:41:12.263Z</time></trkpt><trkpt lat="39.9116" lon="18.1230367"><ele>22.0</ele><time>2026-05-03T15:41:13.263Z</time></trkpt><trkpt lat="39.9115333" lon="18.1230717"><ele>22.0</ele><time>2026-05-03T15:41:14.263Z</time></trkpt><trkpt lat="39.9114283" lon="18.123135"><ele>22.0</ele><time>2026-05-03T15:41:16.263Z</time></trkpt><trkpt lat="39.9113867" lon="18.1232267"><ele>21.8</ele><time>2026-05-03T15:41:19.263Z</time></trkpt><trkpt lat="39.911425" lon="18.1233183"><ele>21.6</ele><time>2026-05-03T15:41:21.262Z</time></trkpt><trkpt lat="39.9114717" lon="18.12343"><ele>21.400000000000002</ele><time>2026-05-03T15:41:23.263Z</time></trkpt><trkpt lat="39.91152" lon="18.1235283"><ele>21.200000000000003</ele><time>2026-05-03T15:41:25.263Z</time></trkpt><trkpt lat="39.91156" lon="18.1236467"><ele>21.0</ele><time>2026-05-03T15:41:27.262Z</time></trkpt><trkpt lat="39.9116133" lon="18.12379"><ele>21.0</ele><time>2026-05-03T15:41:29.263Z</time></trkpt><trkpt lat="39.91167" lon="18.1239333"><ele>21.0</ele><time>2026-05-03T15:41:31.263Z</time></trkpt><trkpt lat="39.911715" lon="18.1240767"><ele>21.0</ele><time>2026-05-03T15:41:33.262Z</time></trkpt><trkpt lat="39.911745" lon="18.12421"><ele>21.0</ele><time>2026-05-03T15:41:35.263Z</time></trkpt><trkpt lat="39.911785" lon="18.1243367"><ele>21.8</ele><time>2026-05-03T15:41:37.263Z</time></trkpt><trkpt lat="39.9118233" lon="18.1244733"><ele>22.6</ele><time>2026-05-03T15:41:39.263Z</time></trkpt><trkpt lat="39.91187" lon="18.1246083"><ele>23.4</ele><time>2026-05-03T15:41:41.263Z</time></trkpt><trkpt lat="39.91192" lon="18.1247483"><ele>24.2</ele><time>2026-05-03T15:41:43.263Z</time></trkpt><trkpt lat="39.9119433" lon="18.1248267"><ele>25.0</ele><time>2026-05-03T15:41:44.264Z</time></trkpt><trkpt lat="39.91197" lon="18.1249067"><ele>25.333333333333336</ele><time>2026-05-03T15:41:45.263Z</time></trkpt><trkpt lat="39.912" lon="18.1249833"><ele>25.666666666666668</ele><time>2026-05-03T15:41:46.264Z</time></trkpt><trkpt lat="39.9120217" lon="18.1250633"><ele>26.0</ele><time>2026-05-03T15:41:47.264Z</time></trkpt><trkpt lat="39.91204" lon="18.1251433"><ele>26.333333333333336</ele><time>2026-05-03T15:41:48.264Z</time></trkpt><trkpt lat="39.9120617" lon="18.1252217"><ele>26.666666666666668</ele><time>2026-05-03T15:41:49.263Z</time></trkpt><trkpt lat="39.9121167" lon="18.1253683"><ele>27.0</ele><time>2026-05-03T15:41:51.264Z</time></trkpt><trkpt lat="39.91214" lon="18.12545"><ele>27.0</ele><time>2026-05-03T15:41:52.264Z</time></trkpt><trkpt lat="39.91219" lon="18.1255117"><ele>27.0</ele><time>2026-05-03T15:41:53.264Z</time></trkpt><trkpt lat="39.9122417" lon="18.12558"><ele>27.0</ele><time>2026-05-03T15:41:54.263Z</time></trkpt><trkpt lat="39.9123017" lon="18.125635"><ele>27.0</ele><time>2026-05-03T15:41:55.264Z</time></trkpt><trkpt lat="39.91237" lon="18.1256867"><ele>27.0</ele><time>2026-05-03T15:41:56.264Z</time></trkpt><trkpt lat="39.9124367" lon="18.1257433"><ele>27.0</ele><time>2026-05-03T15:41:57.263Z</time></trkpt><trkpt lat="39.9125033" lon="18.1257983"><ele>27.0</ele><time>2026-05-03T15:41:58.263Z</time></trkpt><trkpt lat="39.9125717" lon="18.1258533"><ele>27.0</ele><time>2026-05-03T15:41:59.263Z</time></trkpt><trkpt lat="39.9126483" lon="18.1258833"><ele>27.0</ele><time>2026-05-03T15:42:00.264Z</time></trkpt><trkpt lat="39.9127117" lon="18.12593"><ele>27.0</ele><time>2026-05-03T15:42:01.264Z</time></trkpt><trkpt lat="39.9127717" lon="18.125965"><ele>27.0</ele><time>2026-05-03T15:42:02.264Z</time></trkpt><trkpt lat="39.9128733" lon="18.1260117"><ele>27.0</ele><time>2026-05-03T15:42:04.264Z</time></trkpt><trkpt lat="39.91289" lon="18.126125"><ele>27.0</ele><time>2026-05-03T15:42:07.264Z</time></trkpt><trkpt lat="39.9128133" lon="18.1261933"><ele>27.000000000000004</ele><time>2026-05-03T15:42:09.264Z</time></trkpt><trkpt lat="39.9126967" lon="18.1263033"><ele>27.000000000000004</ele><time>2026-05-03T15:42:11.264Z</time></trkpt><trkpt lat="39.91262" lon="18.1263617"><ele>27.0</ele><time>2026-05-03T15:42:12.263Z</time></trkpt><trkpt lat="39.9125283" lon="18.1264183"><ele>27.0</ele><time>2026-05-03T15:42:13.264Z</time></trkpt><trkpt lat="39.9124183" lon="18.1265017"><ele>26.75</ele><time>2026-05-03T15:42:14.263Z</time></trkpt><trkpt lat="39.9123083" lon="18.1266033"><ele>26.5</ele><time>2026-05-03T15:42:15.264Z</time></trkpt><trkpt lat="39.912185" lon="18.1267083"><ele>26.25</ele><time>2026-05-03T15:42:16.264Z</time></trkpt><trkpt lat="39.9120533" lon="18.1267967"><ele>26.0</ele><time>2026-05-03T15:42:17.264Z</time></trkpt><trkpt lat="39.9119267" lon="18.1268783"><ele>26.0</ele><time>2026-05-03T15:42:18.264Z</time></trkpt><trkpt lat="39.9118117" lon="18.1269617"><ele>26.0</ele><time>2026-05-03T15:42:19.264Z</time></trkpt><trkpt lat="39.9116933" lon="18.1270467"><ele>26.0</ele><time>2026-05-03T15:42:20.264Z</time></trkpt><trkpt lat="39.9115683" lon="18.1271483"><ele>26.0</ele><time>2026-05-03T15:42:21.263Z</time></trkpt><trkpt lat="39.9114417" lon="18.1272433"><ele>26.0</ele><time>2026-05-03T15:42:22.263Z</time></trkpt><trkpt lat="39.911325" lon="18.127335"><ele>26.0</ele><time>2026-05-03T15:42:23.263Z</time></trkpt><trkpt lat="39.9112017" lon="18.12742"><ele>26.0</ele><time>2026-05-03T15:42:24.263Z</time></trkpt><trkpt lat="39.9110867" lon="18.1275333"><ele>26.0</ele><time>2026-05-03T15:42:25.264Z</time></trkpt><trkpt lat="39.9109567" lon="18.1276133"><ele>25.5</ele><time>2026-05-03T15:42:26.263Z</time></trkpt><trkpt lat="39.91084" lon="18.1277117"><ele>25.0</ele><time>2026-05-03T15:42:27.263Z</time></trkpt><trkpt lat="39.9107233" lon="18.127805"><ele>24.5</ele><time>2026-05-03T15:42:28.264Z</time></trkpt><trkpt lat="39.9105933" lon="18.1278883"><ele>24.0</ele><time>2026-05-03T15:42:29.264Z</time></trkpt><trkpt lat="39.9104583" lon="18.12798"><ele>24.0</ele><time>2026-05-03T15:42:30.264Z</time></trkpt><trkpt lat="39.9103133" lon="18.12808"><ele>24.0</ele><time>2026-05-03T15:42:31.264Z</time></trkpt><trkpt lat="39.910165" lon="18.1281867"><ele>24.0</ele><time>2026-05-03T15:42:32.263Z</time></trkpt><trkpt lat="39.9100183" lon="18.1283017"><ele>23.333333333333332</ele><time>2026-05-03T15:42:33.264Z</time></trkpt><trkpt lat="39.90987" lon="18.1284117"><ele>22.666666666666664</ele><time>2026-05-03T15:42:34.264Z</time></trkpt><trkpt lat="39.9097217" lon="18.12852"><ele>22.0</ele><time>2026-05-03T15:42:35.264Z</time></trkpt><trkpt lat="39.9095783" lon="18.1286283"><ele>22.0</ele><time>2026-05-03T15:42:36.264Z</time></trkpt><trkpt lat="39.9094383" lon="18.1287433"><ele>22.0</ele><time>2026-05-03T15:42:37.264Z</time></trkpt><trkpt lat="39.9092967" lon="18.1288567"><ele>22.0</ele><time>2026-05-03T15:42:38.264Z</time></trkpt><trkpt lat="39.909155" lon="18.12897"><ele>22.666666666666664</ele><time>2026-05-03T15:42:39.263Z</time></trkpt><trkpt lat="39.90901" lon="18.1290783"><ele>23.333333333333332</ele><time>2026-05-03T15:42:40.263Z</time></trkpt><trkpt lat="39.908865" lon="18.129185"><ele>24.0</ele><time>2026-05-03T15:42:41.263Z</time></trkpt><trkpt lat="39.9087217" lon="18.1292967"><ele>24.0</ele><time>2026-05-03T15:42:42.264Z</time></trkpt><trkpt lat="39.90858" lon="18.1294067"><ele>24.0</ele><time>2026-05-03T15:42:43.264Z</time></trkpt><trkpt lat="39.908435" lon="18.129515"><ele>24.0</ele><time>2026-05-03T15:42:44.263Z</time></trkpt><trkpt lat="39.9082883" lon="18.1296217"><ele>23.666666666666668</ele><time>2026-05-03T15:42:45.263Z</time></trkpt><trkpt lat="39.908145" lon="18.1297317"><ele>23.333333333333336</ele><time>2026-05-03T15:42:46.264Z</time></trkpt><trkpt lat="39.9080017" lon="18.1298383"><ele>23.0</ele><time>2026-05-03T15:42:47.264Z</time></trkpt><trkpt lat="39.9078633" lon="18.12994"><ele>23.0</ele><time>2026-05-03T15:42:48.263Z</time></trkpt><trkpt lat="39.9077283" lon="18.1300467"><ele>23.0</ele><time>2026-05-03T15:42:49.264Z</time></trkpt><trkpt lat="39.9075917" lon="18.130155"><ele>23.0</ele><time>2026-05-03T15:42:50.263Z</time></trkpt><trkpt lat="39.9074433" lon="18.13027"><ele>22.333333333333336</ele><time>2026-05-03T15:42:51.264Z</time></trkpt><trkpt lat="39.90728" lon="18.1303867"><ele>21.666666666666668</ele><time>2026-05-03T15:42:52.264Z</time></trkpt><trkpt lat="39.9071233" lon="18.1305033"><ele>21.0</ele><time>2026-05-03T15:42:53.263Z</time></trkpt><trkpt lat="39.90698" lon="18.1306183"><ele>21.0</ele><time>2026-05-03T15:42:54.264Z</time></trkpt><trkpt lat="39.9068467" lon="18.1307217"><ele>21.0</ele><time>2026-05-03T15:42:55.264Z</time></trkpt><trkpt lat="39.9067267" lon="18.1308133"><ele>21.0</ele><time>2026-05-03T15:42:56.264Z</time></trkpt><trkpt lat="39.9066267" lon="18.1308917"><ele>21.0</ele><time>2026-05-03T15:42:57.264Z</time></trkpt><trkpt lat="39.906545" lon="18.1309683"><ele>21.0</ele><time>2026-05-03T15:42:58.264Z</time></trkpt><trkpt lat="39.9064483" lon="18.1310317"><ele>21.0</ele><time>2026-05-03T15:42:59.263Z</time></trkpt><trkpt lat="39.9063483" lon="18.1311183"><ele>21.0</ele><time>2026-05-03T15:43:00.264Z</time></trkpt><trkpt lat="39.9062283" lon="18.1312067"><ele>21.0</ele><time>2026-05-03T15:43:01.264Z</time></trkpt><trkpt lat="39.906105" lon="18.1312983"><ele>21.0</ele><time>2026-05-03T15:43:02.264Z</time></trkpt><trkpt lat="39.9059767" lon="18.1313617"><ele>21.0</ele><time>2026-05-03T15:43:03.264Z</time></trkpt><trkpt lat="39.9058783" lon="18.1314667"><ele>21.0</ele><time>2026-05-03T15:43:04.264Z</time></trkpt><trkpt lat="39.905775" lon="18.1315417"><ele>21.0</ele><time>2026-05-03T15:43:05.264Z</time></trkpt><trkpt lat="39.9056817" lon="18.13162"><ele>21.0</ele><time>2026-05-03T15:43:06.264Z</time></trkpt><trkpt lat="39.9055983" lon="18.1316883"><ele>21.0</ele><time>2026-05-03T15:43:07.263Z</time></trkpt><trkpt lat="39.905505" lon="18.1317483"><ele>21.0</ele><time>2026-05-03T15:43:08.263Z</time></trkpt><trkpt lat="39.90541" lon="18.131825"><ele>21.0</ele><time>2026-05-03T15:43:09.264Z</time></trkpt><trkpt lat="39.905305" lon="18.1319"><ele>21.0</ele><time>2026-05-03T15:43:10.263Z</time></trkpt><trkpt lat="39.905185" lon="18.1319867"><ele>21.75</ele><time>2026-05-03T15:43:11.264Z</time></trkpt><trkpt lat="39.9050533" lon="18.1320783"><ele>22.5</ele><time>2026-05-03T15:43:12.264Z</time></trkpt><trkpt lat="39.904925" lon="18.13218"><ele>23.25</ele><time>2026-05-03T15:43:13.264Z</time></trkpt><trkpt lat="39.9048083" lon="18.1322733"><ele>24.0</ele><time>2026-05-03T15:43:14.264Z</time></trkpt><trkpt lat="39.9047117" lon="18.132345"><ele>23.799999999999997</ele><time>2026-05-03T15:43:15.264Z</time></trkpt><trkpt lat="39.9046333" lon="18.1323967"><ele>23.599999999999998</ele><time>2026-05-03T15:43:16.263Z</time></trkpt><trkpt lat="39.9045733" lon="18.1324433"><ele>23.4</ele><time>2026-05-03T15:43:17.264Z</time></trkpt><trkpt lat="39.9045167" lon="18.1325733"><ele>23.2</ele><time>2026-05-03T15:43:19.264Z</time></trkpt><trkpt lat="39.9045017" lon="18.1326717"><ele>23.0</ele><time>2026-05-03T15:43:21.264Z</time></trkpt><trkpt lat="39.9045083" lon="18.132805"><ele>23.0</ele><time>2026-05-03T15:43:30.264Z</time></trkpt><trkpt lat="39.9045367" lon="18.1329167"><ele>23.0</ele><time>2026-05-03T15:43:31.263Z</time></trkpt><trkpt lat="39.90459" lon="18.1330333"><ele>23.0</ele><time>2026-05-03T15:43:32.264Z</time></trkpt><trkpt lat="39.9046483" lon="18.13316"><ele>23.0</ele><time>2026-05-03T15:43:33.263Z</time></trkpt><trkpt lat="39.9047067" lon="18.1332967"><ele>23.0</ele><time>2026-05-03T15:43:34.263Z</time></trkpt><trkpt lat="39.904765" lon="18.1334283"><ele>23.2</ele><time>2026-05-03T15:43:35.264Z</time></trkpt><trkpt lat="39.9048233" lon="18.13354"><ele>23.4</ele><time>2026-05-03T15:43:36.263Z</time></trkpt><trkpt lat="39.9048617" lon="18.1336417"><ele>23.599999999999998</ele><time>2026-05-03T15:43:37.264Z</time></trkpt><trkpt lat="39.9048833" lon="18.1337317"><ele>23.799999999999997</ele><time>2026-05-03T15:43:38.264Z</time></trkpt><trkpt lat="39.9048617" lon="18.1338583"><ele>24.0</ele><time>2026-05-03T15:43:40.264Z</time></trkpt><trkpt lat="39.9047617" lon="18.1339517"><ele>24.0</ele><time>2026-05-03T15:43:42.264Z</time></trkpt><trkpt lat="39.9046617" lon="18.1340017"><ele>24.0</ele><time>2026-05-03T15:43:43.263Z</time></trkpt><trkpt lat="39.9045617" lon="18.13408"><ele>24.0</ele><time>2026-05-03T15:43:44.264Z</time></trkpt><trkpt lat="39.90445" lon="18.13415"><ele>24.0</ele><time>2026-05-03T15:43:45.264Z</time></trkpt><trkpt lat="39.9043183" lon="18.1342167"><ele>25.0</ele><time>2026-05-03T15:43:46.264Z</time></trkpt><trkpt lat="39.90418" lon="18.1343017"><ele>26.0</ele><time>2026-05-03T15:43:47.263Z</time></trkpt><trkpt lat="39.9040367" lon="18.1343967"><ele>27.0</ele><time>2026-05-03T15:43:48.264Z</time></trkpt><trkpt lat="39.90388" lon="18.1344817"><ele>27.0</ele><time>2026-05-03T15:43:49.264Z</time></trkpt><trkpt lat="39.9037233" lon="18.1345783"><ele>27.0</ele><time>2026-05-03T15:43:50.263Z</time></trkpt><trkpt lat="39.9035733" lon="18.1346833"><ele>27.0</ele><time>2026-05-03T15:43:51.264Z</time></trkpt><trkpt lat="39.9034317" lon="18.1347717"><ele>26.75</ele><time>2026-05-03T15:43:52.264Z</time></trkpt><trkpt lat="39.9033" lon="18.1348567"><ele>26.5</ele><time>2026-05-03T15:43:53.264Z</time></trkpt><trkpt lat="39.9031783" lon="18.1349383"><ele>26.25</ele><time>2026-05-03T15:43:54.264Z</time></trkpt><trkpt lat="39.9030517" lon="18.1350033"><ele>26.0</ele><time>2026-05-03T15:43:55.263Z</time></trkpt><trkpt lat="39.9029317" lon="18.1350833"><ele>26.25</ele><time>2026-05-03T15:43:56.264Z</time></trkpt><trkpt lat="39.90282" lon="18.135165"><ele>26.5</ele><time>2026-05-03T15:43:57.263Z</time></trkpt><trkpt lat="39.9027133" lon="18.13524"><ele>26.75</ele><time>2026-05-03T15:43:58.263Z</time></trkpt><trkpt lat="39.902605" lon="18.1353117"><ele>27.0</ele><time>2026-05-03T15:43:59.263Z</time></trkpt><trkpt lat="39.902485" lon="18.1353767"><ele>27.0</ele><time>2026-05-03T15:44:00.263Z</time></trkpt><trkpt lat="39.9023583" lon="18.1354633"><ele>27.0</ele><time>2026-05-03T15:44:01.263Z</time></trkpt><trkpt lat="39.902205" lon="18.1355483"><ele>27.0</ele><time>2026-05-03T15:44:02.264Z</time></trkpt><trkpt lat="39.902055" lon="18.1356517"><ele>27.666666666666664</ele><time>2026-05-03T15:44:03.263Z</time></trkpt><trkpt lat="39.90191" lon="18.1357517"><ele>28.333333333333332</ele><time>2026-05-03T15:44:04.264Z</time></trkpt><trkpt lat="39.9017617" lon="18.13584"><ele>29.0</ele><time>2026-05-03T15:44:05.263Z</time></trkpt><trkpt lat="39.9016167" lon="18.135945"><ele>29.0</ele><time>2026-05-03T15:44:06.264Z</time></trkpt><trkpt lat="39.90147" lon="18.1360383"><ele>29.0</ele><time>2026-05-03T15:44:07.264Z</time></trkpt><trkpt lat="39.901325" lon="18.13613"><ele>29.0</ele><time>2026-05-03T15:44:08.263Z</time></trkpt><trkpt lat="39.9011817" lon="18.1362217"><ele>29.0</ele><time>2026-05-03T15:44:09.264Z</time></trkpt><trkpt lat="39.9010383" lon="18.1363167"><ele>29.0</ele><time>2026-05-03T15:44:10.263Z</time></trkpt><trkpt lat="39.9009017" lon="18.136405"><ele>29.0</ele><time>2026-05-03T15:44:11.264Z</time></trkpt><trkpt lat="39.9007883" lon="18.136475"><ele>29.0</ele><time>2026-05-03T15:44:12.264Z</time></trkpt><trkpt lat="39.9007" lon="18.1365317"><ele>29.0</ele><time>2026-05-03T15:44:13.263Z</time></trkpt><trkpt lat="39.9006317" lon="18.1365817"><ele>29.0</ele><time>2026-05-03T15:44:14.264Z</time></trkpt><trkpt lat="39.9005267" lon="18.136625"><ele>29.0</ele><time>2026-05-03T15:44:16.264Z</time></trkpt><trkpt lat="39.900435" lon="18.13659"><ele>29.0</ele><time>2026-05-03T15:44:18.263Z</time></trkpt><trkpt lat="39.900335" lon="18.13648"><ele>29.0</ele><time>2026-05-03T15:44:20.263Z</time></trkpt><trkpt lat="39.9002917" lon="18.136385"><ele>28.333333333333332</ele><time>2026-05-03T15:44:21.264Z</time></trkpt><trkpt lat="39.900245" lon="18.1362767"><ele>27.666666666666664</ele><time>2026-05-03T15:44:22.264Z</time></trkpt><trkpt lat="39.9001917" lon="18.136175"><ele>27.0</ele><time>2026-05-03T15:44:23.263Z</time></trkpt><trkpt lat="39.90013" lon="18.1360967"><ele>26.333333333333336</ele><time>2026-05-03T15:44:24.264Z</time></trkpt><trkpt lat="39.9000583" lon="18.1360483"><ele>25.666666666666668</ele><time>2026-05-03T15:44:25.264Z</time></trkpt><trkpt lat="39.8999767" lon="18.1360383"><ele>25.0</ele><time>2026-05-03T15:44:26.264Z</time></trkpt><trkpt lat="39.8998817" lon="18.1360633"><ele>24.4</ele><time>2026-05-03T15:44:27.264Z</time></trkpt><trkpt lat="39.8997717" lon="18.136085"><ele>23.8</ele><time>2026-05-03T15:44:28.264Z</time></trkpt><trkpt lat="39.8996583" lon="18.1361167"><ele>23.200000000000003</ele><time>2026-05-03T15:44:29.263Z</time></trkpt><trkpt lat="39.899545" lon="18.136145"><ele>22.6</ele><time>2026-05-03T15:44:30.264Z</time></trkpt><trkpt lat="39.8994433" lon="18.1361683"><ele>22.0</ele><time>2026-05-03T15:44:31.264Z</time></trkpt><trkpt lat="39.8993483" lon="18.1361767"><ele>22.0</ele><time>2026-05-03T15:44:32.263Z</time></trkpt><trkpt lat="39.89926" lon="18.136165"><ele>22.0</ele><time>2026-05-03T15:44:33.264Z</time></trkpt><trkpt lat="39.8991783" lon="18.1361317"><ele>22.0</ele><time>2026-05-03T15:44:34.264Z</time></trkpt><trkpt lat="39.899105" lon="18.1360733"><ele>22.0</ele><time>2026-05-03T15:44:35.264Z</time></trkpt><trkpt lat="39.8990367" lon="18.1359867"><ele>22.0</ele><time>2026-05-03T15:44:36.264Z</time></trkpt><trkpt lat="39.8989683" lon="18.135895"><ele>21.166666666666664</ele><time>2026-05-03T15:44:37.263Z</time></trkpt><trkpt lat="39.8989033" lon="18.1358167"><ele>20.333333333333332</ele><time>2026-05-03T15:44:38.264Z</time></trkpt><trkpt lat="39.8988383" lon="18.1357633"><ele>19.5</ele><time>2026-05-03T15:44:39.263Z</time></trkpt><trkpt lat="39.89877" lon="18.1357417"><ele>18.666666666666668</ele><time>2026-05-03T15:44:40.263Z</time></trkpt><trkpt lat="39.898695" lon="18.1357583"><ele>17.833333333333336</ele><time>2026-05-03T15:44:41.263Z</time></trkpt><trkpt lat="39.8986133" lon="18.1358117"><ele>17.0</ele><time>2026-05-03T15:44:42.264Z</time></trkpt><trkpt lat="39.89851" lon="18.1358883"><ele>16.333333333333336</ele><time>2026-05-03T15:44:43.263Z</time></trkpt><trkpt lat="39.8983767" lon="18.1359933"><ele>15.666666666666668</ele><time>2026-05-03T15:44:44.263Z</time></trkpt><trkpt lat="39.89823" lon="18.136105"><ele>15.0</ele><time>2026-05-03T15:44:45.264Z</time></trkpt><trkpt lat="39.89808" lon="18.136215"><ele>15.0</ele><time>2026-05-03T15:44:46.264Z</time></trkpt><trkpt lat="39.8979317" lon="18.1363183"><ele>15.0</ele><time>2026-05-03T15:44:47.264Z</time></trkpt><trkpt lat="39.89778" lon="18.1364267"><ele>15.0</ele><time>2026-05-03T15:44:48.264Z</time></trkpt><trkpt lat="39.8976267" lon="18.1365317"><ele>15.333333333333332</ele><time>2026-05-03T15:44:49.263Z</time></trkpt><trkpt lat="39.8974817" lon="18.1366417"><ele>15.666666666666666</ele><time>2026-05-03T15:44:50.263Z</time></trkpt><trkpt lat="39.8973367" lon="18.1367367"><ele>16.0</ele><time>2026-05-03T15:44:51.264Z</time></trkpt><trkpt lat="39.8971933" lon="18.13684"><ele>16.0</ele><time>2026-05-03T15:44:52.263Z</time></trkpt><trkpt lat="39.8970467" lon="18.13694"><ele>16.0</ele><time>2026-05-03T15:44:53.264Z</time></trkpt><trkpt lat="39.8968983" lon="18.1370367"><ele>16.0</ele><time>2026-05-03T15:44:54.263Z</time></trkpt><trkpt lat="39.89675" lon="18.1371433"><ele>16.333333333333332</ele><time>2026-05-03T15:44:55.264Z</time></trkpt><trkpt lat="39.8965983" lon="18.1372533"><ele>16.666666666666668</ele><time>2026-05-03T15:44:56.264Z</time></trkpt><trkpt lat="39.896445" lon="18.1373617"><ele>17.0</ele><time>2026-05-03T15:44:57.263Z</time></trkpt><trkpt lat="39.8962917" lon="18.1374633"><ele>17.0</ele><time>2026-05-03T15:44:58.264Z</time></trkpt><trkpt lat="39.8961317" lon="18.13756"><ele>17.0</ele><time>2026-05-03T15:44:59.263Z</time></trkpt><trkpt lat="39.8959733" lon="18.1376667"><ele>17.0</ele><time>2026-05-03T15:45:00.264Z</time></trkpt><trkpt lat="39.8958117" lon="18.137775"><ele>16.333333333333336</ele><time>2026-05-03T15:45:01.263Z</time></trkpt><trkpt lat="39.8956517" lon="18.13789"><ele>15.666666666666668</ele><time>2026-05-03T15:45:02.264Z</time></trkpt><trkpt lat="39.8954883" lon="18.1380017"><ele>15.0</ele><time>2026-05-03T15:45:03.264Z</time></trkpt><trkpt lat="39.8953217" lon="18.1381167"><ele>16.0</ele><time>2026-05-03T15:45:04.264Z</time></trkpt><trkpt lat="39.8951567" lon="18.1382317"><ele>17.0</ele><time>2026-05-03T15:45:05.264Z</time></trkpt><trkpt lat="39.8949917" lon="18.1383417"><ele>18.0</ele><time>2026-05-03T15:45:06.264Z</time></trkpt><trkpt lat="39.8948267" lon="18.13845"><ele>18.0</ele><time>2026-05-03T15:45:07.263Z</time></trkpt><trkpt lat="39.89466" lon="18.1385517"><ele>18.0</ele><time>2026-05-03T15:45:08.263Z</time></trkpt><trkpt lat="39.8944917" lon="18.1386517"><ele>18.0</ele><time>2026-05-03T15:45:09.264Z</time></trkpt><trkpt lat="39.8943267" lon="18.138755"><ele>17.333333333333332</ele><time>2026-05-03T15:45:10.263Z</time></trkpt><trkpt lat="39.89416" lon="18.1388483"><ele>16.666666666666664</ele><time>2026-05-03T15:45:11.264Z</time></trkpt><trkpt lat="39.8939967" lon="18.138945"><ele>16.0</ele><time>2026-05-03T15:45:12.263Z</time></trkpt><trkpt lat="39.89383" lon="18.1390383"><ele>16.0</ele><time>2026-05-03T15:45:13.264Z</time></trkpt><trkpt lat="39.8936633" lon="18.1391333"><ele>16.0</ele><time>2026-05-03T15:45:14.263Z</time></trkpt><trkpt lat="39.893495" lon="18.13923"><ele>16.0</ele><time>2026-05-03T15:45:15.264Z</time></trkpt><trkpt lat="39.8933283" lon="18.1393317"><ele>16.0</ele><time>2026-05-03T15:45:16.263Z</time></trkpt><trkpt lat="39.8931583" lon="18.1394317"><ele>16.0</ele><time>2026-05-03T15:45:17.264Z</time></trkpt><trkpt lat="39.8929883" lon="18.1395283"><ele>16.0</ele><time>2026-05-03T15:45:18.263Z</time></trkpt><trkpt lat="39.892815" lon="18.1396267"><ele>16.0</ele><time>2026-05-03T15:45:19.263Z</time></trkpt><trkpt lat="39.8926433" lon="18.1397283"><ele>16.0</ele><time>2026-05-03T15:45:20.263Z</time></trkpt><trkpt lat="39.8924717" lon="18.1398267"><ele>16.0</ele><time>2026-05-03T15:45:21.264Z</time></trkpt><trkpt lat="39.8923017" lon="18.1399217"><ele>15.666666666666666</ele><time>2026-05-03T15:45:22.264Z</time></trkpt><trkpt lat="39.89213" lon="18.140025"><ele>15.333333333333332</ele><time>2026-05-03T15:45:23.264Z</time></trkpt><trkpt lat="39.8919583" lon="18.1401267"><ele>15.0</ele><time>2026-05-03T15:45:24.263Z</time></trkpt><trkpt lat="39.8917883" lon="18.1402267"><ele>14.333333333333332</ele><time>2026-05-03T15:45:25.264Z</time></trkpt><trkpt lat="39.8916183" lon="18.1403267"><ele>13.666666666666666</ele><time>2026-05-03T15:45:26.263Z</time></trkpt><trkpt lat="39.8914533" lon="18.1404317"><ele>13.0</ele><time>2026-05-03T15:45:27.264Z</time></trkpt><trkpt lat="39.8912933" lon="18.1405267"><ele>13.0</ele><time>2026-05-03T15:45:28.263Z</time></trkpt><trkpt lat="39.8911433" lon="18.1406117"><ele>13.0</ele><time>2026-05-03T15:45:29.264Z</time></trkpt><trkpt lat="39.891005" lon="18.140685"><ele>13.0</ele><time>2026-05-03T15:45:30.264Z</time></trkpt><trkpt lat="39.8908817" lon="18.1407567"><ele>13.0</ele><time>2026-05-03T15:45:31.264Z</time></trkpt><trkpt lat="39.8907667" lon="18.1408217"><ele>13.4</ele><time>2026-05-03T15:45:32.263Z</time></trkpt><trkpt lat="39.8906617" lon="18.14089"><ele>13.8</ele><time>2026-05-03T15:45:33.264Z</time></trkpt><trkpt lat="39.8905583" lon="18.1409483"><ele>14.2</ele><time>2026-05-03T15:45:34.263Z</time></trkpt><trkpt lat="39.89046" lon="18.141"><ele>14.6</ele><time>2026-05-03T15:45:35.264Z</time></trkpt><trkpt lat="39.8903683" lon="18.141045"><ele>15.0</ele><time>2026-05-03T15:45:36.264Z</time></trkpt><trkpt lat="39.890285" lon="18.1410867"><ele>15.0</ele><time>2026-05-03T15:45:37.264Z</time></trkpt><trkpt lat="39.890215" lon="18.1411267"><ele>15.0</ele><time>2026-05-03T15:45:38.264Z</time></trkpt><trkpt lat="39.8901133" lon="18.1411767"><ele>15.0</ele><time>2026-05-03T15:45:40.264Z</time></trkpt><trkpt lat="39.8900483" lon="18.1412183"><ele>15.0</ele><time>2026-05-03T15:45:43.264Z</time></trkpt><trkpt lat="39.8900417" lon="18.1413017"><ele>15.0</ele><time>2026-05-03T15:46:17.263Z</time></trkpt><trkpt lat="39.890035" lon="18.1414083"><ele>15.0</ele><time>2026-05-03T15:46:19.263Z</time></trkpt><trkpt lat="39.8900267" lon="18.141525"><ele>15.0</ele><time>2026-05-03T15:46:22.262Z</time></trkpt><trkpt lat="39.8900083" lon="18.1416633"><ele>15.0</ele><time>2026-05-03T15:46:24.262Z</time></trkpt><trkpt lat="39.8899967" lon="18.14175"><ele>15.0</ele><time>2026-05-03T15:46:25.263Z</time></trkpt><trkpt lat="39.88998" lon="18.1418483"><ele>15.0</ele><time>2026-05-03T15:46:26.262Z</time></trkpt><trkpt lat="39.889965" lon="18.1419383"><ele>15.0</ele><time>2026-05-03T15:46:27.262Z</time></trkpt><trkpt lat="39.8899483" lon="18.1420567"><ele>15.0</ele><time>2026-05-03T15:46:29.263Z</time></trkpt><trkpt lat="39.8899933" lon="18.142165"><ele>15.0</ele><time>2026-05-03T15:46:32.263Z</time></trkpt><trkpt lat="39.890075" lon="18.1422067"><ele>15.0</ele><time>2026-05-03T15:46:34.263Z</time></trkpt><trkpt lat="39.8901767" lon="18.1421767"><ele>15.0</ele><time>2026-05-03T15:46:36.262Z</time></trkpt><trkpt lat="39.8902417" lon="18.1421"><ele>15.0</ele><time>2026-05-03T15:46:37.263Z</time></trkpt><trkpt lat="39.89031" lon="18.1420183"><ele>15.0</ele><time>2026-05-03T15:46:38.262Z</time></trkpt><trkpt lat="39.8903933" lon="18.1419483"><ele>16.0</ele><time>2026-05-03T15:46:39.262Z</time></trkpt><trkpt lat="39.8904867" lon="18.14189"><ele>17.0</ele><time>2026-05-03T15:46:40.263Z</time></trkpt><trkpt lat="39.89058" lon="18.1418317"><ele>18.0</ele><time>2026-05-03T15:46:41.263Z</time></trkpt><trkpt lat="39.89067" lon="18.14178"><ele>19.0</ele><time>2026-05-03T15:46:42.263Z</time></trkpt><trkpt lat="39.890745" lon="18.1417267"><ele>20.0</ele><time>2026-05-03T15:46:43.262Z</time></trkpt><trkpt lat="39.8908133" lon="18.1416867"><ele>20.0</ele><time>2026-05-03T15:46:44.263Z</time></trkpt><trkpt lat="39.89088" lon="18.1416717"><ele>20.0</ele><time>2026-05-03T15:46:45.262Z</time></trkpt><trkpt lat="39.8909917" lon="18.1417533"><ele>20.0</ele><time>2026-05-03T15:46:47.263Z</time></trkpt><trkpt lat="39.8910333" lon="18.1418183"><ele>20.0</ele><time>2026-05-03T15:46:48.263Z</time></trkpt><trkpt lat="39.8910317" lon="18.1419817"><ele>20.0</ele><time>2026-05-03T15:46:50.262Z</time></trkpt><trkpt lat="39.8909733" lon="18.142095"><ele>20.0</ele><time>2026-05-03T15:46:51.263Z</time></trkpt><trkpt lat="39.8909283" lon="18.1421983"><ele>20.0</ele><time>2026-05-03T15:46:52.263Z</time></trkpt><trkpt lat="39.890905" lon="18.1423333"><ele>20.0</ele><time>2026-05-03T15:46:53.262Z</time></trkpt><trkpt lat="39.8908817" lon="18.1424833"><ele>20.0</ele><time>2026-05-03T15:46:54.262Z</time></trkpt><trkpt lat="39.8908517" lon="18.1426383"><ele>20.0</ele><time>2026-05-03T15:46:55.263Z</time></trkpt><trkpt lat="39.8908217" lon="18.1428017"><ele>21.2</ele><time>2026-05-03T15:46:56.263Z</time></trkpt><trkpt lat="39.8908017" lon="18.1429633"><ele>22.4</ele><time>2026-05-03T15:46:57.263Z</time></trkpt><trkpt lat="39.8907867" lon="18.143115"><ele>23.6</ele><time>2026-05-03T15:46:58.263Z</time></trkpt><trkpt lat="39.8907683" lon="18.1432517"><ele>24.8</ele><time>2026-05-03T15:46:59.262Z</time></trkpt><trkpt lat="39.8907217" lon="18.14335"><ele>26.0</ele><time>2026-05-03T15:47:00.263Z</time></trkpt><trkpt lat="39.8906683" lon="18.1434383"><ele>27.200000000000003</ele><time>2026-05-03T15:47:01.263Z</time></trkpt><trkpt lat="39.8905917" lon="18.143515"><ele>28.400000000000002</ele><time>2026-05-03T15:47:02.262Z</time></trkpt><trkpt lat="39.89051" lon="18.1435783"><ele>29.6</ele><time>2026-05-03T15:47:03.263Z</time></trkpt><trkpt lat="39.8904517" lon="18.14364"><ele>30.8</ele><time>2026-05-03T15:47:04.263Z</time></trkpt><trkpt lat="39.890425" lon="18.14372"><ele>32.0</ele><time>2026-05-03T15:47:05.263Z</time></trkpt><trkpt lat="39.8904483" lon="18.14388"><ele>32.0</ele><time>2026-05-03T15:47:07.263Z</time></trkpt><trkpt lat="39.89049" lon="18.1439417"><ele>32.0</ele><time>2026-05-03T15:47:08.263Z</time></trkpt><trkpt lat="39.890555" lon="18.1439783"><ele>32.0</ele><time>2026-05-03T15:47:09.263Z</time></trkpt><trkpt lat="39.890635" lon="18.1439783"><ele>32.0</ele><time>2026-05-03T15:47:10.262Z</time></trkpt><trkpt lat="39.89074" lon="18.1439"><ele>32.0</ele><time>2026-05-03T15:47:11.263Z</time></trkpt><trkpt lat="39.8908517" lon="18.143815"><ele>32.800000000000004</ele><time>2026-05-03T15:47:12.263Z</time></trkpt><trkpt lat="39.8909883" lon="18.1437633"><ele>33.6</ele><time>2026-05-03T15:47:13.262Z</time></trkpt><trkpt lat="39.8910917" lon="18.1436867"><ele>34.400000000000006</ele><time>2026-05-03T15:47:14.263Z</time></trkpt><trkpt lat="39.8911733" lon="18.1436217"><ele>35.2</ele><time>2026-05-03T15:47:15.263Z</time></trkpt><trkpt lat="39.8912467" lon="18.1435983"><ele>36.0</ele><time>2026-05-03T15:47:16.264Z</time></trkpt><trkpt lat="39.8913133" lon="18.143615"><ele>36.0</ele><time>2026-05-03T15:47:17.263Z</time></trkpt><trkpt lat="39.89139" lon="18.143745"><ele>36.0</ele><time>2026-05-03T15:47:19.263Z</time></trkpt><trkpt lat="39.8913933" lon="18.143835"><ele>36.0</ele><time>2026-05-03T15:47:20.264Z</time></trkpt><trkpt lat="39.8913767" lon="18.1439233"><ele>36.0</ele><time>2026-05-03T15:47:21.264Z</time></trkpt><trkpt lat="39.8912833" lon="18.1440467"><ele>36.0</ele><time>2026-05-03T15:47:22.264Z</time></trkpt><trkpt lat="39.8911833" lon="18.1441583"><ele>37.0</ele><time>2026-05-03T15:47:23.263Z</time></trkpt><trkpt lat="39.8911117" lon="18.1442883"><ele>38.0</ele><time>2026-05-03T15:47:24.263Z</time></trkpt><trkpt lat="39.8910283" lon="18.1443883"><ele>39.0</ele><time>2026-05-03T15:47:25.264Z</time></trkpt><trkpt lat="39.89093" lon="18.144425"><ele>40.0</ele><time>2026-05-03T15:47:26.264Z</time></trkpt><trkpt lat="39.890825" lon="18.1444283"><ele>41.0</ele><time>2026-05-03T15:47:27.264Z</time></trkpt><trkpt lat="39.8907367" lon="18.144445"><ele>40.99999999999999</ele><time>2026-05-03T15:47:28.263Z</time></trkpt><trkpt lat="39.89068" lon="18.1445"><ele>41.0</ele><time>2026-05-03T15:47:29.264Z</time></trkpt><trkpt lat="39.89064" lon="18.1445667"><ele>41.0</ele><time>2026-05-03T15:47:30.264Z</time></trkpt><trkpt lat="39.890625" lon="18.14465"><ele>41.0</ele><time>2026-05-03T15:47:31.264Z</time></trkpt><trkpt lat="39.890645" lon="18.14473"><ele>41.0</ele><time>2026-05-03T15:47:32.263Z</time></trkpt><trkpt lat="39.8907" lon="18.1447867"><ele>40.99999999999999</ele><time>2026-05-03T15:47:33.264Z</time></trkpt><trkpt lat="39.8907733" lon="18.1448117"><ele>41.0</ele><time>2026-05-03T15:47:34.264Z</time></trkpt><trkpt lat="39.8908667" lon="18.1448083"><ele>41.4</ele><time>2026-05-03T15:47:35.263Z</time></trkpt><trkpt lat="39.890965" lon="18.144795"><ele>41.8</ele><time>2026-05-03T15:47:36.263Z</time></trkpt><trkpt lat="39.89107" lon="18.1447917"><ele>42.199999999999996</ele><time>2026-05-03T15:47:37.263Z</time></trkpt><trkpt lat="39.8911717" lon="18.1447767"><ele>42.599999999999994</ele><time>2026-05-03T15:47:38.263Z</time></trkpt><trkpt lat="39.8912617" lon="18.144765"><ele>43.0</ele><time>2026-05-03T15:47:39.264Z</time></trkpt><trkpt lat="39.8913383" lon="18.144765"><ele>43.0</ele><time>2026-05-03T15:47:40.263Z</time></trkpt><trkpt lat="39.8914033" lon="18.1447817"><ele>43.0</ele><time>2026-05-03T15:47:41.264Z</time></trkpt><trkpt lat="39.8914617" lon="18.14483"><ele>43.0</ele><time>2026-05-03T15:47:42.264Z</time></trkpt><trkpt lat="39.8915217" lon="18.1448883"><ele>43.0</ele><time>2026-05-03T15:47:43.264Z</time></trkpt><trkpt lat="39.8915817" lon="18.1449617"><ele>43.0</ele><time>2026-05-03T15:47:44.263Z</time></trkpt><trkpt lat="39.8916367" lon="18.1450517"><ele>43.0</ele><time>2026-05-03T15:47:45.264Z</time></trkpt><trkpt lat="39.8916867" lon="18.145145"><ele>44.16666666666667</ele><time>2026-05-03T15:47:46.264Z</time></trkpt><trkpt lat="39.8917367" lon="18.145235"><ele>45.333333333333336</ele><time>2026-05-03T15:47:47.263Z</time></trkpt><trkpt lat="39.8917717" lon="18.1453317"><ele>46.5</ele><time>2026-05-03T15:47:48.264Z</time></trkpt><trkpt lat="39.8918067" lon="18.1454033"><ele>47.66666666666667</ele><time>2026-05-03T15:47:49.264Z</time></trkpt><trkpt lat="39.8918767" lon="18.1455383"><ele>48.833333333333336</ele><time>2026-05-03T15:47:51.264Z</time></trkpt><trkpt lat="39.8919283" lon="18.14562"><ele>50.0</ele><time>2026-05-03T15:47:52.263Z</time></trkpt><trkpt lat="39.8919633" lon="18.145725"><ele>50.6</ele><time>2026-05-03T15:47:53.263Z</time></trkpt><trkpt lat="39.892" lon="18.14581"><ele>51.2</ele><time>2026-05-03T15:47:54.264Z</time></trkpt><trkpt lat="39.8920333" lon="18.1458833"><ele>51.8</ele><time>2026-05-03T15:47:55.264Z</time></trkpt><trkpt lat="39.8921333" lon="18.145915"><ele>52.4</ele><time>2026-05-03T15:47:57.264Z</time></trkpt><trkpt lat="39.89226" lon="18.1459617"><ele>53.0</ele><time>2026-05-03T15:47:59.263Z</time></trkpt><trkpt lat="39.8923467" lon="18.146025"><ele>53.0</ele><time>2026-05-03T15:48:00.264Z</time></trkpt><trkpt lat="39.8924517" lon="18.1461017"><ele>53.0</ele><time>2026-05-03T15:48:01.264Z</time></trkpt><trkpt lat="39.89256" lon="18.1461867"><ele>53.0</ele><time>2026-05-03T15:48:02.264Z</time></trkpt><trkpt lat="39.89268" lon="18.14628"><ele>53.0</ele><time>2026-05-03T15:48:03.264Z</time></trkpt><trkpt lat="39.8927967" lon="18.146375"><ele>53.5</ele><time>2026-05-03T15:48:04.264Z</time></trkpt><trkpt lat="39.892905" lon="18.146465"><ele>54.0</ele><time>2026-05-03T15:48:05.264Z</time></trkpt><trkpt lat="39.89301" lon="18.1465533"><ele>54.5</ele><time>2026-05-03T15:48:06.264Z</time></trkpt><trkpt lat="39.8931167" lon="18.1466417"><ele>55.0</ele><time>2026-05-03T15:48:07.264Z</time></trkpt><trkpt lat="39.893225" lon="18.1467317"><ele>55.25</ele><time>2026-05-03T15:48:08.264Z</time></trkpt><trkpt lat="39.893335" lon="18.1468283"><ele>55.5</ele><time>2026-05-03T15:48:09.264Z</time></trkpt><trkpt lat="39.8934467" lon="18.1469267"><ele>55.75</ele><time>2026-05-03T15:48:10.264Z</time></trkpt><trkpt lat="39.8935617" lon="18.1470317"><ele>56.0</ele><time>2026-05-03T15:48:11.264Z</time></trkpt><trkpt lat="39.8936767" lon="18.1471367"><ele>56.25</ele><time>2026-05-03T15:48:12.264Z</time></trkpt><trkpt lat="39.89379" lon="18.1472467"><ele>56.5</ele><time>2026-05-03T15:48:13.264Z</time></trkpt><trkpt lat="39.8938933" lon="18.14735"><ele>56.75</ele><time>2026-05-03T15:48:14.264Z</time></trkpt><trkpt lat="39.89398" lon="18.1474367"><ele>57.0</ele><time>2026-05-03T15:48:15.264Z</time></trkpt><trkpt lat="39.894055" lon="18.1475083"><ele>57.0</ele><time>2026-05-03T15:48:16.263Z</time></trkpt><trkpt lat="39.8941183" lon="18.147565"><ele>57.0</ele><time>2026-05-03T15:48:17.264Z</time></trkpt><trkpt lat="39.8942133" lon="18.1476483"><ele>57.0</ele><time>2026-05-03T15:48:19.264Z</time></trkpt><trkpt lat="39.8942867" lon="18.147635"><ele>57.0</ele><time>2026-05-03T15:48:21.263Z</time></trkpt><trkpt lat="39.89433" lon="18.147555"><ele>57.0</ele><time>2026-05-03T15:48:23.264Z</time></trkpt><trkpt lat="39.8943883" lon="18.1474033"><ele>57.400000000000006</ele><time>2026-05-03T15:48:25.264Z</time></trkpt><trkpt lat="39.8944267" lon="18.1473117"><ele>57.800000000000004</ele><time>2026-05-03T15:48:26.264Z</time></trkpt><trkpt lat="39.8944617" lon="18.1472017"><ele>58.2</ele><time>2026-05-03T15:48:27.264Z</time></trkpt><trkpt lat="39.8944883" lon="18.1470767"><ele>58.6</ele><time>2026-05-03T15:48:28.264Z</time></trkpt><trkpt lat="39.894505" lon="18.1469467"><ele>59.0</ele><time>2026-05-03T15:48:29.264Z</time></trkpt><trkpt lat="39.8945133" lon="18.1468317"><ele>59.0</ele><time>2026-05-03T15:48:30.263Z</time></trkpt><trkpt lat="39.8945183" lon="18.1467333"><ele>59.0</ele><time>2026-05-03T15:48:31.263Z</time></trkpt><trkpt lat="39.894515" lon="18.1466467"><ele>59.0</ele><time>2026-05-03T15:48:32.263Z</time></trkpt><trkpt lat="39.8944933" lon="18.1465667"><ele>59.0</ele><time>2026-05-03T15:48:33.264Z</time></trkpt><trkpt lat="39.89445" lon="18.14649"><ele>59.0</ele><time>2026-05-03T15:48:34.264Z</time></trkpt><trkpt lat="39.8943917" lon="18.1464167"><ele>59.0</ele><time>2026-05-03T15:48:35.264Z</time></trkpt><trkpt lat="39.8943433" lon="18.1463433"><ele>59.0</ele><time>2026-05-03T15:48:36.264Z</time></trkpt><trkpt lat="39.89431" lon="18.1462683"><ele>59.400000000000006</ele><time>2026-05-03T15:48:37.263Z</time></trkpt><trkpt lat="39.8943067" lon="18.146105"><ele>59.800000000000004</ele><time>2026-05-03T15:48:39.264Z</time></trkpt><trkpt lat="39.8943333" lon="18.1460183"><ele>60.199999999999996</ele><time>2026-05-03T15:48:40.264Z</time></trkpt><trkpt lat="39.89438" lon="18.1459217"><ele>60.599999999999994</ele><time>2026-05-03T15:48:41.263Z</time></trkpt><trkpt lat="39.89443" lon="18.1458117"><ele>61.0</ele><time>2026-05-03T15:48:42.263Z</time></trkpt><trkpt lat="39.8944817" lon="18.1456983"><ele>61.0</ele><time>2026-05-03T15:48:43.264Z</time></trkpt><trkpt lat="39.89453" lon="18.1456067"><ele>60.99999999999999</ele><time>2026-05-03T15:48:44.264Z</time></trkpt><trkpt lat="39.894585" lon="18.1455267"><ele>60.99999999999999</ele><time>2026-05-03T15:48:45.264Z</time></trkpt><trkpt lat="39.8946533" lon="18.1454483"><ele>61.0</ele><time>2026-05-03T15:48:46.264Z</time></trkpt><trkpt lat="39.8947317" lon="18.1453667"><ele>61.0</ele><time>2026-05-03T15:48:47.263Z</time></trkpt><trkpt lat="39.8948167" lon="18.145285"><ele>60.99999999999999</ele><time>2026-05-03T15:48:48.264Z</time></trkpt><trkpt lat="39.894895" lon="18.1452083"><ele>61.0</ele><time>2026-05-03T15:48:49.264Z</time></trkpt><trkpt lat="39.89496" lon="18.14514"><ele>61.0</ele><time>2026-05-03T15:48:50.263Z</time></trkpt><trkpt lat="39.8950117" lon="18.1450683"><ele>61.0</ele><time>2026-05-03T15:48:51.264Z</time></trkpt><trkpt lat="39.8950567" lon="18.1449833"><ele>60.99999999999999</ele><time>2026-05-03T15:48:52.263Z</time></trkpt><trkpt lat="39.895095" lon="18.144875"><ele>61.0</ele><time>2026-05-03T15:48:53.264Z</time></trkpt><trkpt lat="39.8951333" lon="18.14474"><ele>61.25</ele><time>2026-05-03T15:48:54.264Z</time></trkpt><trkpt lat="39.8951767" lon="18.1445983"><ele>61.5</ele><time>2026-05-03T15:48:55.263Z</time></trkpt><trkpt lat="39.8952233" lon="18.1444583"><ele>61.75</ele><time>2026-05-03T15:48:56.264Z</time></trkpt><trkpt lat="39.8952733" lon="18.1443217"><ele>62.0</ele><time>2026-05-03T15:48:57.264Z</time></trkpt><trkpt lat="39.8953267" lon="18.144195"><ele>62.0</ele><time>2026-05-03T15:48:58.263Z</time></trkpt><trkpt lat="39.8953833" lon="18.1440867"><ele>62.0</ele><time>2026-05-03T15:48:59.263Z</time></trkpt><trkpt lat="39.8954433" lon="18.14399"><ele>62.0</ele><time>2026-05-03T15:49:00.264Z</time></trkpt><trkpt lat="39.8954983" lon="18.14392"><ele>62.0</ele><time>2026-05-03T15:49:01.264Z</time></trkpt><trkpt lat="39.89559" lon="18.143855"><ele>62.0</ele><time>2026-05-03T15:49:03.263Z</time></trkpt><trkpt lat="39.8956667" lon="18.143885"><ele>61.50000000000001</ele><time>2026-05-03T15:49:05.264Z</time></trkpt><trkpt lat="39.89578" lon="18.14393"><ele>61.0</ele><time>2026-05-03T15:49:07.264Z</time></trkpt><trkpt lat="39.8958517" lon="18.1439267"><ele>60.5</ele><time>2026-05-03T15:49:08.263Z</time></trkpt><trkpt lat="39.8959317" lon="18.1439133"><ele>60.0</ele><time>2026-05-03T15:49:09.263Z</time></trkpt><trkpt lat="39.896015" lon="18.14389"><ele>59.50000000000001</ele><time>2026-05-03T15:49:10.263Z</time></trkpt><trkpt lat="39.8961017" lon="18.1438517"><ele>59.0</ele><time>2026-05-03T15:49:11.263Z</time></trkpt><trkpt lat="39.896195" lon="18.1438"><ele>58.800000000000004</ele><time>2026-05-03T15:49:12.264Z</time></trkpt><trkpt lat="39.8962867" lon="18.1437433"><ele>58.60000000000001</ele><time>2026-05-03T15:49:13.264Z</time></trkpt><trkpt lat="39.8963717" lon="18.1436833"><ele>58.4</ele><time>2026-05-03T15:49:14.264Z</time></trkpt><trkpt lat="39.8964383" lon="18.1436233"><ele>58.2</ele><time>2026-05-03T15:49:15.264Z</time></trkpt><trkpt lat="39.896495" lon="18.1435733"><ele>58.0</ele><time>2026-05-03T15:49:16.264Z</time></trkpt><trkpt lat="39.8965917" lon="18.1435233"><ele>58.0</ele><time>2026-05-03T15:49:18.264Z</time></trkpt><trkpt lat="39.896675" lon="18.1436083"><ele>58.0</ele><time>2026-05-03T15:49:20.264Z</time></trkpt><trkpt lat="39.896725" lon="18.1436867"><ele>58.0</ele><time>2026-05-03T15:49:21.264Z</time></trkpt><trkpt lat="39.8967817" lon="18.1437733"><ele>58.0</ele><time>2026-05-03T15:49:22.264Z</time></trkpt><trkpt lat="39.8968467" lon="18.1438683"><ele>58.0</ele><time>2026-05-03T15:49:23.264Z</time></trkpt><trkpt lat="39.8969167" lon="18.1439683"><ele>58.599999999999994</ele><time>2026-05-03T15:49:24.264Z</time></trkpt><trkpt lat="39.8969933" lon="18.1440733"><ele>59.199999999999996</ele><time>2026-05-03T15:49:25.264Z</time></trkpt><trkpt lat="39.8970717" lon="18.14418"><ele>59.8</ele><time>2026-05-03T15:49:26.264Z</time></trkpt><trkpt lat="39.8971483" lon="18.1442833"><ele>60.4</ele><time>2026-05-03T15:49:27.264Z</time></trkpt><trkpt lat="39.8972217" lon="18.1443817"><ele>61.0</ele><time>2026-05-03T15:49:28.264Z</time></trkpt><trkpt lat="39.8972917" lon="18.14448"><ele>61.0</ele><time>2026-05-03T15:49:29.264Z</time></trkpt><trkpt lat="39.89736" lon="18.14458"><ele>60.99999999999999</ele><time>2026-05-03T15:49:30.264Z</time></trkpt><trkpt lat="39.8974283" lon="18.144685"><ele>60.99999999999999</ele><time>2026-05-03T15:49:31.264Z</time></trkpt><trkpt lat="39.897495" lon="18.1447867"><ele>61.0</ele><time>2026-05-03T15:49:32.264Z</time></trkpt><trkpt lat="39.8975533" lon="18.1448767"><ele>61.0</ele><time>2026-05-03T15:49:33.263Z</time></trkpt><trkpt lat="39.897605" lon="18.1449533"><ele>60.99999999999999</ele><time>2026-05-03T15:49:34.263Z</time></trkpt><trkpt lat="39.897695" lon="18.14502"><ele>61.0</ele><time>2026-05-03T15:49:36.264Z</time></trkpt><trkpt lat="39.897795" lon="18.1449867"><ele>61.0</ele><time>2026-05-03T15:49:38.263Z</time></trkpt><trkpt lat="39.89785" lon="18.1449417"><ele>61.0</ele><time>2026-05-03T15:49:39.264Z</time></trkpt><trkpt lat="39.8979117" lon="18.14488"><ele>60.99999999999999</ele><time>2026-05-03T15:49:40.264Z</time></trkpt><trkpt lat="39.8979683" lon="18.144825"><ele>61.0</ele><time>2026-05-03T15:49:41.263Z</time></trkpt><trkpt lat="39.8980683" lon="18.1447733"><ele>61.0</ele><time>2026-05-03T15:49:43.263Z</time></trkpt><trkpt lat="39.898155" lon="18.1448183"><ele>60.99999999999999</ele><time>2026-05-03T15:49:45.264Z</time></trkpt><trkpt lat="39.898205" lon="18.144885"><ele>60.99999999999999</ele><time>2026-05-03T15:49:46.263Z</time></trkpt><trkpt lat="39.8982667" lon="18.14497"><ele>61.0</ele><time>2026-05-03T15:49:47.264Z</time></trkpt><trkpt lat="39.8983383" lon="18.1450667"><ele>61.0</ele><time>2026-05-03T15:49:48.263Z</time></trkpt><trkpt lat="39.8984183" lon="18.1451683"><ele>61.599999999999994</ele><time>2026-05-03T15:49:49.264Z</time></trkpt><trkpt lat="39.8985017" lon="18.1452733"><ele>62.199999999999996</ele><time>2026-05-03T15:49:50.264Z</time></trkpt><trkpt lat="39.8985817" lon="18.1453783"><ele>62.800000000000004</ele><time>2026-05-03T15:49:51.264Z</time></trkpt><trkpt lat="39.8986567" lon="18.1454733"><ele>63.400000000000006</ele><time>2026-05-03T15:49:52.264Z</time></trkpt><trkpt lat="39.8987183" lon="18.1455567"><ele>64.0</ele><time>2026-05-03T15:49:53.263Z</time></trkpt><trkpt lat="39.8987717" lon="18.14562"><ele>64.0</ele><time>2026-05-03T15:49:54.264Z</time></trkpt><trkpt lat="39.8988817" lon="18.145675"><ele>64.0</ele><time>2026-05-03T15:49:56.264Z</time></trkpt><trkpt lat="39.8989967" lon="18.1456217"><ele>64.0</ele><time>2026-05-03T15:49:58.264Z</time></trkpt><trkpt lat="39.8990867" lon="18.1455967"><ele>64.0</ele><time>2026-05-03T15:50:00.264Z</time></trkpt><trkpt lat="39.8991533" lon="18.1456683"><ele>64.0</ele><time>2026-05-03T15:50:02.264Z</time></trkpt><trkpt lat="39.8992067" lon="18.1457967"><ele>63.99999999999999</ele><time>2026-05-03T15:50:04.264Z</time></trkpt><trkpt lat="39.8992533" lon="18.1458567"><ele>64.0</ele><time>2026-05-03T15:50:06.264Z</time></trkpt><trkpt lat="39.899325" lon="18.14584"><ele>64.0</ele><time>2026-05-03T15:50:08.264Z</time></trkpt><trkpt lat="39.8994433" lon="18.1457483"><ele>64.0</ele><time>2026-05-03T15:50:10.264Z</time></trkpt><trkpt lat="39.8995167" lon="18.145695"><ele>63.99999999999999</ele><time>2026-05-03T15:50:11.264Z</time></trkpt><trkpt lat="39.899585" lon="18.14565"><ele>64.0</ele><time>2026-05-03T15:50:12.264Z</time></trkpt><trkpt lat="39.899645" lon="18.145605"><ele>63.99999999999999</ele><time>2026-05-03T15:50:13.264Z</time></trkpt><trkpt lat="39.8997017" lon="18.1455533"><ele>64.0</ele><time>2026-05-03T15:50:14.263Z</time></trkpt><trkpt lat="39.89975" lon="18.1454833"><ele>64.0</ele><time>2026-05-03T15:50:15.264Z</time></trkpt><trkpt lat="39.899795" lon="18.1453917"><ele>64.0</ele><time>2026-05-03T15:50:16.264Z</time></trkpt><trkpt lat="39.8998417" lon="18.1452833"><ele>63.99999999999999</ele><time>2026-05-03T15:50:17.263Z</time></trkpt><trkpt lat="39.8998933" lon="18.1451717"><ele>64.0</ele><time>2026-05-03T15:50:18.264Z</time></trkpt><trkpt lat="39.8999467" lon="18.1450567"><ele>64.0</ele><time>2026-05-03T15:50:19.264Z</time></trkpt><trkpt lat="39.9000017" lon="18.1449383"><ele>64.0</ele><time>2026-05-03T15:50:20.264Z</time></trkpt><trkpt lat="39.9000567" lon="18.1448183"><ele>64.0</ele><time>2026-05-03T15:50:21.263Z</time></trkpt><trkpt lat="39.9001117" lon="18.1447017"><ele>64.0</ele><time>2026-05-03T15:50:22.264Z</time></trkpt><trkpt lat="39.9001633" lon="18.144585"><ele>64.0</ele><time>2026-05-03T15:50:23.264Z</time></trkpt><trkpt lat="39.9002083" lon="18.144485"><ele>63.800000000000004</ele><time>2026-05-03T15:50:24.264Z</time></trkpt><trkpt lat="39.9002433" lon="18.1444033"><ele>63.60000000000001</ele><time>2026-05-03T15:50:25.263Z</time></trkpt><trkpt lat="39.9003117" lon="18.1443167"><ele>63.4</ele><time>2026-05-03T15:50:27.263Z</time></trkpt><trkpt lat="39.9004033" lon="18.1443083"><ele>63.2</ele><time>2026-05-03T15:50:29.264Z</time></trkpt><trkpt lat="39.9005333" lon="18.1443883"><ele>63.0</ele><time>2026-05-03T15:50:31.264Z</time></trkpt><trkpt lat="39.9006167" lon="18.1444483"><ele>63.0</ele><time>2026-05-03T15:50:32.263Z</time></trkpt><trkpt lat="39.9006933" lon="18.144495"><ele>63.0</ele><time>2026-05-03T15:50:33.263Z</time></trkpt><trkpt lat="39.9007583" lon="18.1445383"><ele>63.0</ele><time>2026-05-03T15:50:34.264Z</time></trkpt><trkpt lat="39.900815" lon="18.1445783"><ele>63.0</ele><time>2026-05-03T15:50:35.264Z</time></trkpt><trkpt lat="39.9008967" lon="18.1445867"><ele>63.0</ele><time>2026-05-03T15:50:37.264Z</time></trkpt><trkpt lat="39.9009817" lon="18.1445617"><ele>63.0</ele><time>2026-05-03T15:50:39.264Z</time></trkpt><trkpt lat="39.90106" lon="18.14452"><ele>62.4</ele><time>2026-05-03T15:50:40.263Z</time></trkpt><trkpt lat="39.9011433" lon="18.1444867"><ele>61.8</ele><time>2026-05-03T15:50:41.263Z</time></trkpt><trkpt lat="39.901225" lon="18.1444367"><ele>61.2</ele><time>2026-05-03T15:50:42.264Z</time></trkpt><trkpt lat="39.901315" lon="18.1443967"><ele>60.6</ele><time>2026-05-03T15:50:43.263Z</time></trkpt><trkpt lat="39.9014033" lon="18.1443533"><ele>60.0</ele><time>2026-05-03T15:50:44.264Z</time></trkpt><trkpt lat="39.9014883" lon="18.14432"><ele>60.0</ele><time>2026-05-03T15:50:45.264Z</time></trkpt><trkpt lat="39.9015683" lon="18.144275"><ele>60.0</ele><time>2026-05-03T15:50:46.264Z</time></trkpt><trkpt lat="39.9016467" lon="18.1442233"><ele>60.0</ele><time>2026-05-03T15:50:47.264Z</time></trkpt><trkpt lat="39.90173" lon="18.1441867"><ele>60.0</ele><time>2026-05-03T15:50:48.264Z</time></trkpt><trkpt lat="39.90181" lon="18.1441517"><ele>60.0</ele><time>2026-05-03T15:50:49.264Z</time></trkpt><trkpt lat="39.9018767" lon="18.14412"><ele>60.0</ele><time>2026-05-03T15:50:50.264Z</time></trkpt><trkpt lat="39.9019567" lon="18.14408"><ele>58.833333333333336</ele><time>2026-05-03T15:50:52.264Z</time></trkpt><trkpt lat="39.9020733" lon="18.1440367"><ele>57.66666666666667</ele><time>2026-05-03T15:51:24.264Z</time></trkpt><trkpt lat="39.90214" lon="18.1440083"><ele>56.5</ele><time>2026-05-03T15:51:27.262Z</time></trkpt><trkpt lat="39.9022087" lon="18.1439791"><ele>55.333333333333336</ele><time>2026-05-03T15:51:40.244Z</time></trkpt><trkpt lat="39.9022678" lon="18.1439501"><ele>54.16666666666667</ele><time>2026-05-03T15:51:51.525Z</time></trkpt><trkpt lat="39.9023503" lon="18.1439108"><ele>53.0</ele><time>2026-05-03T15:52:04.482Z</time></trkpt><trkpt lat="39.9024248" lon="18.1438838"><ele>53.0</ele><time>2026-05-03T15:52:09.484Z</time></trkpt><trkpt lat="39.9024869" lon="18.1438513"><ele>53.0</ele><time>2026-05-03T15:52:15.533Z</time></trkpt><trkpt lat="39.9025549" lon="18.14381"><ele>53.0</ele><time>2026-05-03T15:52:21.553Z</time></trkpt><trkpt lat="39.9024938" lon="18.1438321"><ele>53.0</ele><time>2026-05-03T15:52:55.484Z</time></trkpt><trkpt lat="39.9024339" lon="18.1438628"><ele>53.0</ele><time>2026-05-03T15:53:00.504Z</time></trkpt><trkpt lat="39.9023624" lon="18.1438829"><ele>53.0</ele><time>2026-05-03T15:53:06.514Z</time></trkpt><trkpt lat="39.9022914" lon="18.1439026"><ele>53.0</ele><time>2026-05-03T15:53:12.54Z</time></trkpt><trkpt lat="39.9022276" lon="18.143895"><ele>53.00000000000001</ele><time>2026-05-03T15:53:20.493Z</time></trkpt><trkpt lat="39.9021617" lon="18.1439353"><ele>53.0</ele><time>2026-05-03T15:53:26.513Z</time></trkpt><trkpt lat="39.902101" lon="18.1439665"><ele>53.0</ele><time>2026-05-03T15:53:32.443Z</time></trkpt><trkpt lat="39.9020174" lon="18.1440387"><ele>53.0</ele><time>2026-05-03T15:54:01.492Z</time></trkpt><trkpt lat="39.9019525" lon="18.1440559"><ele>53.00000000000001</ele><time>2026-05-03T15:54:08.514Z</time></trkpt><trkpt lat="39.902026" lon="18.144038"><ele>53.0</ele><time>2026-05-03T15:55:01.505Z</time></trkpt><trkpt lat="39.9020939" lon="18.1440063"><ele>53.0</ele><time>2026-05-03T15:55:04.53Z</time></trkpt><trkpt lat="39.9021493" lon="18.1439661"><ele>53.0</ele><time>2026-05-03T15:55:06.47Z</time></trkpt><trkpt lat="39.9022076" lon="18.1439261"><ele>53.0</ele><time>2026-05-03T15:55:08.541Z</time></trkpt><trkpt lat="39.9022669" lon="18.1438974"><ele>53.0</ele><time>2026-05-03T15:55:10.535Z</time></trkpt><trkpt lat="39.9023303" lon="18.1438593"><ele>53.0</ele><time>2026-05-03T15:55:12.547Z</time></trkpt><trkpt lat="39.902407" lon="18.1438188"><ele>53.0</ele><time>2026-05-03T15:55:15.559Z</time></trkpt><trkpt lat="39.9024775" lon="18.1437476"><ele>53.0</ele><time>2026-05-03T15:55:18.569Z</time></trkpt><trkpt lat="39.902546" lon="18.1437086"><ele>53.0</ele><time>2026-05-03T15:55:21.563Z</time></trkpt><trkpt lat="39.9025182" lon="18.1437834"><ele>53.0</ele><time>2026-05-03T15:55:22.603Z</time></trkpt><trkpt lat="39.9025764" lon="18.1438215"><ele>53.0</ele><time>2026-05-03T15:55:25.605Z</time></trkpt><trkpt lat="39.9026355" lon="18.1437733"><ele>53.0</ele><time>2026-05-03T15:55:29.57Z</time></trkpt><trkpt lat="39.9026985" lon="18.143743"><ele>53.0</ele><time>2026-05-03T15:55:32.573Z</time></trkpt><trkpt lat="39.9027789" lon="18.1436983"><ele>53.0</ele><time>2026-05-03T15:55:35.576Z</time></trkpt><trkpt lat="39.9028516" lon="18.1436612"><ele>53.0</ele><time>2026-05-03T15:55:38.264Z</time></trkpt><trkpt lat="39.9029298" lon="18.1436342"><ele>52.66666666666667</ele><time>2026-05-03T15:55:40.58Z</time></trkpt><trkpt lat="39.9030024" lon="18.1436105"><ele>52.333333333333336</ele><time>2026-05-03T15:55:42.448Z</time></trkpt><trkpt lat="39.9030628" lon="18.1435772"><ele>52.0</ele><time>2026-05-03T15:55:45.399Z</time></trkpt><trkpt lat="39.9029996" lon="18.1436114"><ele>51.66666666666667</ele><time>2026-05-03T15:55:48.553Z</time></trkpt><trkpt lat="39.90308" lon="18.14358"><ele>51.333333333333336</ele><time>2026-05-03T15:56:07.264Z</time></trkpt><trkpt lat="39.9031717" lon="18.1435283"><ele>51.0</ele><time>2026-05-03T15:56:09.264Z</time></trkpt><trkpt lat="39.9032583" lon="18.1434833"><ele>51.0</ele><time>2026-05-03T15:56:11.263Z</time></trkpt><trkpt lat="39.9033333" lon="18.1434467"><ele>51.0</ele><time>2026-05-03T15:56:13.264Z</time></trkpt><trkpt lat="39.9033967" lon="18.1434167"><ele>51.0</ele><time>2026-05-03T15:56:15.264Z</time></trkpt><trkpt lat="39.9034817" lon="18.14338"><ele>51.0</ele><time>2026-05-03T15:56:17.264Z</time></trkpt><trkpt lat="39.9035533" lon="18.1433467"><ele>51.0</ele><time>2026-05-03T15:56:19.264Z</time></trkpt><trkpt lat="39.9036183" lon="18.14332"><ele>51.0</ele><time>2026-05-03T15:56:21.264Z</time></trkpt><trkpt lat="39.90369" lon="18.1432933"><ele>50.666666666666664</ele><time>2026-05-03T15:56:23.263Z</time></trkpt><trkpt lat="39.903775" lon="18.143255"><ele>50.33333333333333</ele><time>2026-05-03T15:56:25.264Z</time></trkpt><trkpt lat="39.90386" lon="18.143215"><ele>50.0</ele><time>2026-05-03T15:56:27.264Z</time></trkpt><trkpt lat="39.9039367" lon="18.1431767"><ele>49.666666666666664</ele><time>2026-05-03T15:56:29.264Z</time></trkpt><trkpt lat="39.90402" lon="18.1431367"><ele>49.33333333333333</ele><time>2026-05-03T15:56:31.264Z</time></trkpt><trkpt lat="39.904085" lon="18.1431133"><ele>49.0</ele><time>2026-05-03T15:56:33.264Z</time></trkpt><trkpt lat="39.904155" lon="18.1430833"><ele>48.99999999999999</ele><time>2026-05-03T15:56:35.263Z</time></trkpt><trkpt lat="39.90424" lon="18.1430417"><ele>49.0</ele><time>2026-05-03T15:56:37.263Z</time></trkpt><trkpt lat="39.9043183" lon="18.14301"><ele>49.0</ele><time>2026-05-03T15:56:39.264Z</time></trkpt><trkpt lat="39.9043983" lon="18.1429783"><ele>49.0</ele><time>2026-05-03T15:56:41.264Z</time></trkpt><trkpt lat="39.9044767" lon="18.1429383"><ele>48.99999999999999</ele><time>2026-05-03T15:56:43.264Z</time></trkpt><trkpt lat="39.904535" lon="18.1429067"><ele>49.0</ele><time>2026-05-03T15:56:45.264Z</time></trkpt><trkpt lat="39.9046033" lon="18.142875"><ele>48.99999999999999</ele><time>2026-05-03T15:56:47.264Z</time></trkpt><trkpt lat="39.9046783" lon="18.1428433"><ele>49.0</ele><time>2026-05-03T15:56:49.264Z</time></trkpt><trkpt lat="39.90476" lon="18.142805"><ele>49.0</ele><time>2026-05-03T15:56:51.264Z</time></trkpt><trkpt lat="39.9048467" lon="18.1427633"><ele>49.0</ele><time>2026-05-03T15:56:53.264Z</time></trkpt><trkpt lat="39.9049117" lon="18.1427233"><ele>48.99999999999999</ele><time>2026-05-03T15:56:55.264Z</time></trkpt><trkpt lat="39.90491" lon="18.14264"><ele>49.0</ele><time>2026-05-03T15:56:59.263Z</time></trkpt><trkpt lat="39.90485" lon="18.1425767"><ele>49.0</ele><time>2026-05-03T15:57:01.263Z</time></trkpt><trkpt lat="39.9047517" lon="18.1424767"><ele>49.0</ele><time>2026-05-03T15:57:03.264Z</time></trkpt><trkpt lat="39.9046917" lon="18.142375"><ele>49.0</ele><time>2026-05-03T15:57:04.264Z</time></trkpt><trkpt lat="39.904635" lon="18.1422983"><ele>49.0</ele><time>2026-05-03T15:57:05.264Z</time></trkpt><trkpt lat="39.90458" lon="18.142215"><ele>49.0</ele><time>2026-05-03T15:57:06.264Z</time></trkpt><trkpt lat="39.9045217" lon="18.1421217"><ele>48.83333333333333</ele><time>2026-05-03T15:57:07.264Z</time></trkpt><trkpt lat="39.904465" lon="18.1420433"><ele>48.666666666666664</ele><time>2026-05-03T15:57:08.264Z</time></trkpt><trkpt lat="39.9044067" lon="18.14196"><ele>48.5</ele><time>2026-05-03T15:57:09.263Z</time></trkpt><trkpt lat="39.9043467" lon="18.141875"><ele>48.33333333333333</ele><time>2026-05-03T15:57:10.264Z</time></trkpt><trkpt lat="39.9042783" lon="18.1417933"><ele>48.166666666666664</ele><time>2026-05-03T15:57:11.264Z</time></trkpt><trkpt lat="39.9042133" lon="18.141715"><ele>48.0</ele><time>2026-05-03T15:57:12.263Z</time></trkpt><trkpt lat="39.904145" lon="18.1416317"><ele>47.833333333333336</ele><time>2026-05-03T15:57:13.263Z</time></trkpt><trkpt lat="39.9040767" lon="18.1415533"><ele>47.666666666666664</ele><time>2026-05-03T15:57:14.263Z</time></trkpt><trkpt lat="39.9040167" lon="18.14147"><ele>47.5</ele><time>2026-05-03T15:57:15.263Z</time></trkpt><trkpt lat="39.9039517" lon="18.1413883"><ele>47.33333333333333</ele><time>2026-05-03T15:57:16.263Z</time></trkpt><trkpt lat="39.903885" lon="18.14131"><ele>47.166666666666664</ele><time>2026-05-03T15:57:17.262Z</time></trkpt><trkpt lat="39.9038133" lon="18.1412383"><ele>47.0</ele><time>2026-05-03T15:57:18.262Z</time></trkpt><trkpt lat="39.9037483" lon="18.1411533"><ele>46.83333333333333</ele><time>2026-05-03T15:57:19.263Z</time></trkpt><trkpt lat="39.9036867" lon="18.1410683"><ele>46.666666666666664</ele><time>2026-05-03T15:57:20.263Z</time></trkpt><trkpt lat="39.903625" lon="18.14098"><ele>46.5</ele><time>2026-05-03T15:57:21.263Z</time></trkpt><trkpt lat="39.9035617" lon="18.140905"><ele>46.333333333333336</ele><time>2026-05-03T15:57:22.262Z</time></trkpt><trkpt lat="39.9035" lon="18.1408217"><ele>46.16666666666667</ele><time>2026-05-03T15:57:23.262Z</time></trkpt><trkpt lat="39.9034383" lon="18.14074"><ele>46.0</ele><time>2026-05-03T15:57:24.263Z</time></trkpt><trkpt lat="39.903375" lon="18.1406417"><ele>45.4</ele><time>2026-05-03T15:57:25.262Z</time></trkpt><trkpt lat="39.9033083" lon="18.1405567"><ele>44.8</ele><time>2026-05-03T15:57:26.262Z</time></trkpt><trkpt lat="39.903225" lon="18.14046"><ele>44.199999999999996</ele><time>2026-05-03T15:57:27.262Z</time></trkpt><trkpt lat="39.9031367" lon="18.140385"><ele>43.599999999999994</ele><time>2026-05-03T15:57:28.263Z</time></trkpt><trkpt lat="39.9030333" lon="18.1404"><ele>43.0</ele><time>2026-05-03T15:57:29.263Z</time></trkpt><trkpt lat="39.9029417" lon="18.1403633"><ele>43.0</ele><time>2026-05-03T15:57:30.263Z</time></trkpt><trkpt lat="39.9028533" lon="18.1402433"><ele>43.0</ele><time>2026-05-03T15:57:31.263Z</time></trkpt><trkpt lat="39.9027617" lon="18.1400867"><ele>43.0</ele><time>2026-05-03T15:57:32.263Z</time></trkpt><trkpt lat="39.902655" lon="18.1399317"><ele>43.0</ele><time>2026-05-03T15:57:33.263Z</time></trkpt><trkpt lat="39.9025433" lon="18.13977"><ele>42.75</ele><time>2026-05-03T15:57:34.263Z</time></trkpt><trkpt lat="39.90244" lon="18.139625"><ele>42.5</ele><time>2026-05-03T15:57:35.263Z</time></trkpt><trkpt lat="39.902335" lon="18.1394867"><ele>42.25</ele><time>2026-05-03T15:57:36.262Z</time></trkpt><trkpt lat="39.90223" lon="18.13935"><ele>42.0</ele><time>2026-05-03T15:57:37.262Z</time></trkpt><trkpt lat="39.9021333" lon="18.1393167"><ele>42.0</ele><time>2026-05-03T15:57:38.263Z</time></trkpt><trkpt lat="39.90204" lon="18.1392367"><ele>42.0</ele><time>2026-05-03T15:57:39.263Z</time></trkpt><trkpt lat="39.90196" lon="18.1391117"><ele>42.0</ele><time>2026-05-03T15:57:40.263Z</time></trkpt><trkpt lat="39.9018783" lon="18.1390183"><ele>42.0</ele><time>2026-05-03T15:57:41.263Z</time></trkpt><trkpt lat="39.9017983" lon="18.1388533"><ele>41.5</ele><time>2026-05-03T15:57:42.263Z</time></trkpt><trkpt lat="39.90171" lon="18.1387533"><ele>41.0</ele><time>2026-05-03T15:57:43.263Z</time></trkpt><trkpt lat="39.9016433" lon="18.1386033"><ele>40.5</ele><time>2026-05-03T15:57:44.262Z</time></trkpt><trkpt lat="39.90157" lon="18.1384867"><ele>40.0</ele><time>2026-05-03T15:57:45.263Z</time></trkpt><trkpt lat="39.9015083" lon="18.13838"><ele>40.0</ele><time>2026-05-03T15:57:46.263Z</time></trkpt><trkpt lat="39.901445" lon="18.1383017"><ele>40.0</ele><time>2026-05-03T15:57:47.263Z</time></trkpt><trkpt lat="39.901395" lon="18.1381983"><ele>40.0</ele><time>2026-05-03T15:57:48.263Z</time></trkpt><trkpt lat="39.9013533" lon="18.1381133"><ele>40.0</ele><time>2026-05-03T15:57:49.262Z</time></trkpt><trkpt lat="39.9012767" lon="18.1380533"><ele>40.0</ele><time>2026-05-03T15:57:51.262Z</time></trkpt><trkpt lat="39.9012067" lon="18.138065"><ele>40.0</ele><time>2026-05-03T15:57:53.263Z</time></trkpt><trkpt lat="39.9011183" lon="18.1381067"><ele>39.833333333333336</ele><time>2026-05-03T15:57:55.263Z</time></trkpt><trkpt lat="39.90103" lon="18.1381567"><ele>39.66666666666667</ele><time>2026-05-03T15:57:57.263Z</time></trkpt><trkpt lat="39.9009467" lon="18.1381417"><ele>39.5</ele><time>2026-05-03T15:57:59.263Z</time></trkpt><trkpt lat="39.9008483" lon="18.1380617"><ele>39.333333333333336</ele><time>2026-05-03T15:58:01.262Z</time></trkpt><trkpt lat="39.90079" lon="18.138"><ele>39.166666666666664</ele><time>2026-05-03T15:58:02.262Z</time></trkpt><trkpt lat="39.90073" lon="18.1379617"><ele>39.0</ele><time>2026-05-03T15:58:03.262Z</time></trkpt><trkpt lat="39.90067" lon="18.1379367"><ele>38.42857142857143</ele><time>2026-05-03T15:58:04.263Z</time></trkpt><trkpt lat="39.9006233" lon="18.1378767"><ele>37.857142857142854</ele><time>2026-05-03T15:58:05.263Z</time></trkpt><trkpt lat="39.9005883" lon="18.1378033"><ele>37.285714285714285</ele><time>2026-05-03T15:58:06.263Z</time></trkpt><trkpt lat="39.9005733" lon="18.1377133"><ele>36.714285714285715</ele><time>2026-05-03T15:58:07.262Z</time></trkpt><trkpt lat="39.9005767" lon="18.1376183"><ele>36.14285714285714</ele><time>2026-05-03T15:58:08.262Z</time></trkpt><trkpt lat="39.9005717" lon="18.1375233"><ele>35.57142857142857</ele><time>2026-05-03T15:58:09.263Z</time></trkpt><trkpt lat="39.9005467" lon="18.1374433"><ele>35.0</ele><time>2026-05-03T15:58:10.263Z</time></trkpt><trkpt lat="39.9005117" lon="18.1373633"><ele>34.0</ele><time>2026-05-03T15:58:11.263Z</time></trkpt><trkpt lat="39.9004767" lon="18.13729"><ele>33.0</ele><time>2026-05-03T15:58:12.263Z</time></trkpt><trkpt lat="39.9004467" lon="18.1371383"><ele>32.0</ele><time>2026-05-03T15:58:14.263Z</time></trkpt><trkpt lat="39.90045" lon="18.1370417"><ele>31.0</ele><time>2026-05-03T15:58:15.263Z</time></trkpt><trkpt lat="39.9004517" lon="18.136955"><ele>29.999999999999996</ele><time>2026-05-03T15:58:16.262Z</time></trkpt><trkpt lat="39.900445" lon="18.1368117"><ele>29.0</ele><time>2026-05-03T15:58:18.263Z</time></trkpt><trkpt lat="39.9004717" lon="18.1366817"><ele>29.0</ele><time>2026-05-03T15:58:33.263Z</time></trkpt><trkpt lat="39.9005733" lon="18.1366333"><ele>29.0</ele><time>2026-05-03T15:58:35.263Z</time></trkpt><trkpt lat="39.9006367" lon="18.1365933"><ele>29.0</ele><time>2026-05-03T15:58:36.263Z</time></trkpt><trkpt lat="39.9007067" lon="18.1365483"><ele>29.0</ele><time>2026-05-03T15:58:37.262Z</time></trkpt><trkpt lat="39.9007917" lon="18.136495"><ele>29.0</ele><time>2026-05-03T15:58:38.263Z</time></trkpt><trkpt lat="39.9008933" lon="18.1364267"><ele>29.0</ele><time>2026-05-03T15:58:39.263Z</time></trkpt><trkpt lat="39.9010083" lon="18.1363367"><ele>29.0</ele><time>2026-05-03T15:58:40.263Z</time></trkpt><trkpt lat="39.9011383" lon="18.1362633"><ele>29.0</ele><time>2026-05-03T15:58:41.263Z</time></trkpt><trkpt lat="39.90127" lon="18.1361717"><ele>29.0</ele><time>2026-05-03T15:58:42.263Z</time></trkpt><trkpt lat="39.9014017" lon="18.1360783"><ele>29.0</ele><time>2026-05-03T15:58:43.263Z</time></trkpt><trkpt lat="39.901535" lon="18.1359917"><ele>29.0</ele><time>2026-05-03T15:58:44.262Z</time></trkpt><trkpt lat="39.9016667" lon="18.135915"><ele>29.0</ele><time>2026-05-03T15:58:45.264Z</time></trkpt><trkpt lat="39.9017883" lon="18.1358267"><ele>29.0</ele><time>2026-05-03T15:58:46.264Z</time></trkpt><trkpt lat="39.9019133" lon="18.135745"><ele>28.5</ele><time>2026-05-03T15:58:47.264Z</time></trkpt><trkpt lat="39.902035" lon="18.1356633"><ele>28.0</ele><time>2026-05-03T15:58:48.263Z</time></trkpt><trkpt lat="39.9021567" lon="18.13559"><ele>27.5</ele><time>2026-05-03T15:58:49.264Z</time></trkpt><trkpt lat="39.90228" lon="18.1355117"><ele>27.0</ele><time>2026-05-03T15:58:50.263Z</time></trkpt><trkpt lat="39.9024083" lon="18.1354233"><ele>27.0</ele><time>2026-05-03T15:58:51.264Z</time></trkpt><trkpt lat="39.9025433" lon="18.1353483"><ele>27.0</ele><time>2026-05-03T15:58:52.264Z</time></trkpt><trkpt lat="39.9026667" lon="18.135265"><ele>27.0</ele><time>2026-05-03T15:58:53.264Z</time></trkpt><trkpt lat="39.902785" lon="18.135185"><ele>27.0</ele><time>2026-05-03T15:58:54.263Z</time></trkpt><trkpt lat="39.902905" lon="18.13512"><ele>26.75</ele><time>2026-05-03T15:58:55.264Z</time></trkpt><trkpt lat="39.90302" lon="18.1350433"><ele>26.5</ele><time>2026-05-03T15:58:56.263Z</time></trkpt><trkpt lat="39.90313" lon="18.134965"><ele>26.25</ele><time>2026-05-03T15:58:57.264Z</time></trkpt><trkpt lat="39.9032417" lon="18.1349"><ele>26.0</ele><time>2026-05-03T15:58:58.264Z</time></trkpt><trkpt lat="39.903345" lon="18.1348217"><ele>26.200000000000003</ele><time>2026-05-03T15:58:59.264Z</time></trkpt><trkpt lat="39.9034517" lon="18.1347467"><ele>26.400000000000002</ele><time>2026-05-03T15:59:00.263Z</time></trkpt><trkpt lat="39.903555" lon="18.13468"><ele>26.6</ele><time>2026-05-03T15:59:01.264Z</time></trkpt><trkpt lat="39.9036517" lon="18.134625"><ele>26.8</ele><time>2026-05-03T15:59:02.263Z</time></trkpt><trkpt lat="39.90374" lon="18.1345733"><ele>27.0</ele><time>2026-05-03T15:59:03.264Z</time></trkpt><trkpt lat="39.9038217" lon="18.1345333"><ele>27.0</ele><time>2026-05-03T15:59:04.264Z</time></trkpt><trkpt lat="39.9038833" lon="18.1345067"><ele>27.0</ele><time>2026-05-03T15:59:05.263Z</time></trkpt><trkpt lat="39.903945" lon="18.13446"><ele>27.0</ele><time>2026-05-03T15:59:07.264Z</time></trkpt></trkseg></trk></gpx>